<?xml version="1.0" encoding="UTF-8" standalone="no" ?>
<gpx xmlns="http://www.topografix.com/GPX/1/1" xmlns:xsi="http://www.w3.org/2001/XMLSchema-instance" xsi:schemaLocation="http://www.topografix.com/GPX/1/1 http://www.topografix.com/GPX/1/1/gpx.xsd" version="1.1" creator="VisuGPX - https://www.visugpx.com">
  <metadata>
    <name>Alaise (25) Gour de Conche</name>
    <desc><![CDATA[Randonnée pédestre effectuée le 19 septembre 2019]]></desc>
  </metadata>
  <trk>
    <name><![CDATA[19 sept. 2019 à 09:12:06]]></name>
    <trkseg>
      <trkpt lat="47.01414" lon="5.97154">
        <ele>469</ele>
        <time>2019-09-19T07:12:07Z</time>
      </trkpt>
      <trkpt lat="47.01414" lon="5.97154">
        <ele>469</ele>
        <time>2019-09-19T07:12:08Z</time>
      </trkpt>
      <trkpt lat="47.01416" lon="5.97155">
        <ele>464</ele>
        <time>2019-09-19T07:13:57Z</time>
      </trkpt>
      <trkpt lat="47.01423" lon="5.97165">
        <ele>466</ele>
        <time>2019-09-19T07:14:21Z</time>
      </trkpt>
      <trkpt lat="47.01415" lon="5.97163">
        <ele>469</ele>
        <time>2019-09-19T07:15:38Z</time>
      </trkpt>
      <trkpt lat="47.01411" lon="5.97156">
        <ele>467</ele>
        <time>2019-09-19T07:16:32Z</time>
      </trkpt>
      <trkpt lat="47.01413" lon="5.97147">
        <ele>469</ele>
        <time>2019-09-19T07:16:56Z</time>
      </trkpt>
      <trkpt lat="47.01424" lon="5.97155">
        <ele>465</ele>
        <time>2019-09-19T07:17:08Z</time>
      </trkpt>
      <trkpt lat="47.01429" lon="5.97159">
        <ele>466</ele>
        <time>2019-09-19T07:17:12Z</time>
      </trkpt>
      <trkpt lat="47.01434" lon="5.97159">
        <ele>467</ele>
        <time>2019-09-19T07:18:02Z</time>
      </trkpt>
      <trkpt lat="47.01439" lon="5.97161">
        <ele>467</ele>
        <time>2019-09-19T07:18:08Z</time>
      </trkpt>
      <trkpt lat="47.01444" lon="5.97163">
        <ele>468</ele>
        <time>2019-09-19T07:18:12Z</time>
      </trkpt>
      <trkpt lat="47.01449" lon="5.97164">
        <ele>467</ele>
        <time>2019-09-19T07:18:17Z</time>
      </trkpt>
      <trkpt lat="47.01454" lon="5.97162">
        <ele>466</ele>
        <time>2019-09-19T07:18:22Z</time>
      </trkpt>
      <trkpt lat="47.01458" lon="5.97158">
        <ele>467</ele>
        <time>2019-09-19T07:18:26Z</time>
      </trkpt>
      <trkpt lat="47.01457" lon="5.9715">
        <ele>467</ele>
        <time>2019-09-19T07:18:37Z</time>
      </trkpt>
      <trkpt lat="47.01454" lon="5.97144">
        <ele>468</ele>
        <time>2019-09-19T07:18:41Z</time>
      </trkpt>
      <trkpt lat="47.0144" lon="5.97125">
        <ele>468</ele>
        <time>2019-09-19T07:18:59Z</time>
      </trkpt>
      <trkpt lat="47.01426" lon="5.97108">
        <ele>467</ele>
        <time>2019-09-19T07:19:16Z</time>
      </trkpt>
      <trkpt lat="47.0142" lon="5.97101">
        <ele>467</ele>
        <time>2019-09-19T07:19:23Z</time>
      </trkpt>
      <trkpt lat="47.01411" lon="5.97093">
        <ele>466</ele>
        <time>2019-09-19T07:19:31Z</time>
      </trkpt>
      <trkpt lat="47.01405" lon="5.97082">
        <ele>465</ele>
        <time>2019-09-19T07:19:38Z</time>
      </trkpt>
      <trkpt lat="47.01401" lon="5.97078">
        <ele>466</ele>
        <time>2019-09-19T07:19:43Z</time>
      </trkpt>
      <trkpt lat="47.0139" lon="5.97065">
        <ele>465</ele>
        <time>2019-09-19T07:19:53Z</time>
      </trkpt>
      <trkpt lat="47.01386" lon="5.9706">
        <ele>464</ele>
        <time>2019-09-19T07:19:58Z</time>
      </trkpt>
      <trkpt lat="47.01367" lon="5.97044">
        <ele>464</ele>
        <time>2019-09-19T07:20:15Z</time>
      </trkpt>
      <trkpt lat="47.01356" lon="5.9704">
        <ele>463</ele>
        <time>2019-09-19T07:20:27Z</time>
      </trkpt>
      <trkpt lat="47.01352" lon="5.97038">
        <ele>463</ele>
        <time>2019-09-19T07:20:31Z</time>
      </trkpt>
      <trkpt lat="47.01346" lon="5.97037">
        <ele>463</ele>
        <time>2019-09-19T07:20:36Z</time>
      </trkpt>
      <trkpt lat="47.01342" lon="5.97034">
        <ele>463</ele>
        <time>2019-09-19T07:20:40Z</time>
      </trkpt>
      <trkpt lat="47.01337" lon="5.97032">
        <ele>464</ele>
        <time>2019-09-19T07:20:44Z</time>
      </trkpt>
      <trkpt lat="47.01332" lon="5.97031">
        <ele>463</ele>
        <time>2019-09-19T07:20:49Z</time>
      </trkpt>
      <trkpt lat="47.01317" lon="5.97023">
        <ele>461</ele>
        <time>2019-09-19T07:21:02Z</time>
      </trkpt>
      <trkpt lat="47.01303" lon="5.97014">
        <ele>461</ele>
        <time>2019-09-19T07:21:15Z</time>
      </trkpt>
      <trkpt lat="47.01299" lon="5.97009">
        <ele>461</ele>
        <time>2019-09-19T07:21:19Z</time>
      </trkpt>
      <trkpt lat="47.01295" lon="5.97004">
        <ele>460</ele>
        <time>2019-09-19T07:21:22Z</time>
      </trkpt>
      <trkpt lat="47.01291" lon="5.96998">
        <ele>459</ele>
        <time>2019-09-19T07:21:27Z</time>
      </trkpt>
      <trkpt lat="47.01289" lon="5.96989">
        <ele>459</ele>
        <time>2019-09-19T07:21:35Z</time>
      </trkpt>
      <trkpt lat="47.01288" lon="5.96982">
        <ele>459</ele>
        <time>2019-09-19T07:21:39Z</time>
      </trkpt>
      <trkpt lat="47.01286" lon="5.96967">
        <ele>459</ele>
        <time>2019-09-19T07:21:47Z</time>
      </trkpt>
      <trkpt lat="47.01286" lon="5.96959">
        <ele>458</ele>
        <time>2019-09-19T07:21:51Z</time>
      </trkpt>
      <trkpt lat="47.01292" lon="5.96938">
        <ele>459</ele>
        <time>2019-09-19T07:22:03Z</time>
      </trkpt>
      <trkpt lat="47.01293" lon="5.9693">
        <ele>458</ele>
        <time>2019-09-19T07:22:08Z</time>
      </trkpt>
      <trkpt lat="47.01296" lon="5.96921">
        <ele>458</ele>
        <time>2019-09-19T07:22:14Z</time>
      </trkpt>
      <trkpt lat="47.01296" lon="5.96914">
        <ele>458</ele>
        <time>2019-09-19T07:22:18Z</time>
      </trkpt>
      <trkpt lat="47.01297" lon="5.969">
        <ele>459</ele>
        <time>2019-09-19T07:22:26Z</time>
      </trkpt>
      <trkpt lat="47.01296" lon="5.96892">
        <ele>459</ele>
        <time>2019-09-19T07:22:31Z</time>
      </trkpt>
      <trkpt lat="47.01291" lon="5.96877">
        <ele>460</ele>
        <time>2019-09-19T07:22:39Z</time>
      </trkpt>
      <trkpt lat="47.01285" lon="5.96854">
        <ele>459</ele>
        <time>2019-09-19T07:22:55Z</time>
      </trkpt>
      <trkpt lat="47.01273" lon="5.96834">
        <ele>458</ele>
        <time>2019-09-19T07:23:08Z</time>
      </trkpt>
      <trkpt lat="47.01262" lon="5.96811">
        <ele>459</ele>
        <time>2019-09-19T07:23:22Z</time>
      </trkpt>
      <trkpt lat="47.01256" lon="5.968">
        <ele>458</ele>
        <time>2019-09-19T07:23:31Z</time>
      </trkpt>
      <trkpt lat="47.01245" lon="5.96775">
        <ele>457</ele>
        <time>2019-09-19T07:23:46Z</time>
      </trkpt>
      <trkpt lat="47.01227" lon="5.96741">
        <ele>459</ele>
        <time>2019-09-19T07:24:08Z</time>
      </trkpt>
      <trkpt lat="47.01204" lon="5.96691">
        <ele>457</ele>
        <time>2019-09-19T07:24:43Z</time>
      </trkpt>
      <trkpt lat="47.01185" lon="5.96648">
        <ele>457</ele>
        <time>2019-09-19T07:25:08Z</time>
      </trkpt>
      <trkpt lat="47.01183" lon="5.96642">
        <ele>457</ele>
        <time>2019-09-19T07:25:11Z</time>
      </trkpt>
      <trkpt lat="47.01178" lon="5.96631">
        <ele>456</ele>
        <time>2019-09-19T07:25:17Z</time>
      </trkpt>
      <trkpt lat="47.01175" lon="5.96625">
        <ele>456</ele>
        <time>2019-09-19T07:25:21Z</time>
      </trkpt>
      <trkpt lat="47.01172" lon="5.96619">
        <ele>457</ele>
        <time>2019-09-19T07:25:25Z</time>
      </trkpt>
      <trkpt lat="47.01164" lon="5.966">
        <ele>457</ele>
        <time>2019-09-19T07:25:38Z</time>
      </trkpt>
      <trkpt lat="47.01161" lon="5.96593">
        <ele>457</ele>
        <time>2019-09-19T07:25:42Z</time>
      </trkpt>
      <trkpt lat="47.01155" lon="5.96581">
        <ele>457</ele>
        <time>2019-09-19T07:25:50Z</time>
      </trkpt>
      <trkpt lat="47.01152" lon="5.96576">
        <ele>456</ele>
        <time>2019-09-19T07:25:54Z</time>
      </trkpt>
      <trkpt lat="47.01149" lon="5.96569">
        <ele>456</ele>
        <time>2019-09-19T07:25:58Z</time>
      </trkpt>
      <trkpt lat="47.01126" lon="5.9652">
        <ele>457</ele>
        <time>2019-09-19T07:26:29Z</time>
      </trkpt>
      <trkpt lat="47.01123" lon="5.96513">
        <ele>457</ele>
        <time>2019-09-19T07:26:33Z</time>
      </trkpt>
      <trkpt lat="47.01117" lon="5.96506">
        <ele>456</ele>
        <time>2019-09-19T07:26:40Z</time>
      </trkpt>
      <trkpt lat="47.01109" lon="5.96487">
        <ele>456</ele>
        <time>2019-09-19T07:26:51Z</time>
      </trkpt>
      <trkpt lat="47.01102" lon="5.96468">
        <ele>455</ele>
        <time>2019-09-19T07:27:04Z</time>
      </trkpt>
      <trkpt lat="47.01099" lon="5.96454">
        <ele>453</ele>
        <time>2019-09-19T07:27:11Z</time>
      </trkpt>
      <trkpt lat="47.01099" lon="5.96441">
        <ele>453</ele>
        <time>2019-09-19T07:27:17Z</time>
      </trkpt>
      <trkpt lat="47.01107" lon="5.96415">
        <ele>452</ele>
        <time>2019-09-19T07:27:34Z</time>
      </trkpt>
      <trkpt lat="47.01113" lon="5.96404">
        <ele>453</ele>
        <time>2019-09-19T07:27:41Z</time>
      </trkpt>
      <trkpt lat="47.01121" lon="5.96399">
        <ele>453</ele>
        <time>2019-09-19T07:27:49Z</time>
      </trkpt>
      <trkpt lat="47.01133" lon="5.96394">
        <ele>453</ele>
        <time>2019-09-19T07:27:57Z</time>
      </trkpt>
      <trkpt lat="47.01141" lon="5.96388">
        <ele>452</ele>
        <time>2019-09-19T07:28:04Z</time>
      </trkpt>
      <trkpt lat="47.01178" lon="5.9637">
        <ele>453</ele>
        <time>2019-09-19T07:28:32Z</time>
      </trkpt>
      <trkpt lat="47.01197" lon="5.96362">
        <ele>452</ele>
        <time>2019-09-19T07:28:48Z</time>
      </trkpt>
      <trkpt lat="47.01206" lon="5.96357">
        <ele>453</ele>
        <time>2019-09-19T07:28:55Z</time>
      </trkpt>
      <trkpt lat="47.01215" lon="5.9635">
        <ele>452</ele>
        <time>2019-09-19T07:29:03Z</time>
      </trkpt>
      <trkpt lat="47.01224" lon="5.96347">
        <ele>452</ele>
        <time>2019-09-19T07:29:10Z</time>
      </trkpt>
      <trkpt lat="47.01234" lon="5.96344">
        <ele>452</ele>
        <time>2019-09-19T07:29:17Z</time>
      </trkpt>
      <trkpt lat="47.01243" lon="5.96342">
        <ele>451</ele>
        <time>2019-09-19T07:29:23Z</time>
      </trkpt>
      <trkpt lat="47.01271" lon="5.96336">
        <ele>452</ele>
        <time>2019-09-19T07:29:46Z</time>
      </trkpt>
      <trkpt lat="47.01281" lon="5.96337">
        <ele>453</ele>
        <time>2019-09-19T07:29:54Z</time>
      </trkpt>
      <trkpt lat="47.0129" lon="5.96335">
        <ele>452</ele>
        <time>2019-09-19T07:30:02Z</time>
      </trkpt>
      <trkpt lat="47.01321" lon="5.96336">
        <ele>451</ele>
        <time>2019-09-19T07:30:29Z</time>
      </trkpt>
      <trkpt lat="47.0134" lon="5.96337">
        <ele>451</ele>
        <time>2019-09-19T07:30:45Z</time>
      </trkpt>
      <trkpt lat="47.01349" lon="5.96335">
        <ele>451</ele>
        <time>2019-09-19T07:30:53Z</time>
      </trkpt>
      <trkpt lat="47.01371" lon="5.96335">
        <ele>454</ele>
        <time>2019-09-19T07:31:10Z</time>
      </trkpt>
      <trkpt lat="47.01411" lon="5.96337">
        <ele>455</ele>
        <time>2019-09-19T07:31:40Z</time>
      </trkpt>
      <trkpt lat="47.01441" lon="5.96339">
        <ele>455</ele>
        <time>2019-09-19T07:32:03Z</time>
      </trkpt>
      <trkpt lat="47.01451" lon="5.96333">
        <ele>455</ele>
        <time>2019-09-19T07:32:11Z</time>
      </trkpt>
      <trkpt lat="47.01457" lon="5.96323">
        <ele>456</ele>
        <time>2019-09-19T07:32:19Z</time>
      </trkpt>
      <trkpt lat="47.01469" lon="5.96285">
        <ele>458</ele>
        <time>2019-09-19T07:32:41Z</time>
      </trkpt>
      <trkpt lat="47.01462" lon="5.96256">
        <ele>460</ele>
        <time>2019-09-19T07:32:56Z</time>
      </trkpt>
      <trkpt lat="47.01453" lon="5.96233">
        <ele>460</ele>
        <time>2019-09-19T07:33:08Z</time>
      </trkpt>
      <trkpt lat="47.0145" lon="5.96221">
        <ele>461</ele>
        <time>2019-09-19T07:33:16Z</time>
      </trkpt>
      <trkpt lat="47.01446" lon="5.96207">
        <ele>460</ele>
        <time>2019-09-19T07:33:22Z</time>
      </trkpt>
      <trkpt lat="47.01442" lon="5.96194">
        <ele>461</ele>
        <time>2019-09-19T07:33:31Z</time>
      </trkpt>
      <trkpt lat="47.01441" lon="5.96186">
        <ele>460</ele>
        <time>2019-09-19T07:33:35Z</time>
      </trkpt>
      <trkpt lat="47.01439" lon="5.96179">
        <ele>460</ele>
        <time>2019-09-19T07:33:39Z</time>
      </trkpt>
      <trkpt lat="47.01436" lon="5.96171">
        <ele>460</ele>
        <time>2019-09-19T07:33:43Z</time>
      </trkpt>
      <trkpt lat="47.01432" lon="5.96159">
        <ele>462</ele>
        <time>2019-09-19T07:33:51Z</time>
      </trkpt>
      <trkpt lat="47.01429" lon="5.96152">
        <ele>462</ele>
        <time>2019-09-19T07:33:56Z</time>
      </trkpt>
      <trkpt lat="47.01427" lon="5.96146">
        <ele>462</ele>
        <time>2019-09-19T07:34:00Z</time>
      </trkpt>
      <trkpt lat="47.01425" lon="5.9614">
        <ele>462</ele>
        <time>2019-09-19T07:34:04Z</time>
      </trkpt>
      <trkpt lat="47.0142" lon="5.96125">
        <ele>462</ele>
        <time>2019-09-19T07:34:14Z</time>
      </trkpt>
      <trkpt lat="47.01416" lon="5.96118">
        <ele>462</ele>
        <time>2019-09-19T07:34:22Z</time>
      </trkpt>
      <trkpt lat="47.0141" lon="5.96107">
        <ele>465</ele>
        <time>2019-09-19T07:35:57Z</time>
      </trkpt>
      <trkpt lat="47.01401" lon="5.96121">
        <ele>467</ele>
        <time>2019-09-19T07:36:26Z</time>
      </trkpt>
      <trkpt lat="47.01394" lon="5.96137">
        <ele>465</ele>
        <time>2019-09-19T07:36:40Z</time>
      </trkpt>
      <trkpt lat="47.01391" lon="5.96142">
        <ele>465</ele>
        <time>2019-09-19T07:36:44Z</time>
      </trkpt>
      <trkpt lat="47.01384" lon="5.96163">
        <ele>471</ele>
        <time>2019-09-19T07:37:00Z</time>
      </trkpt>
      <trkpt lat="47.01381" lon="5.9617">
        <ele>469</ele>
        <time>2019-09-19T07:37:05Z</time>
      </trkpt>
      <trkpt lat="47.01377" lon="5.96183">
        <ele>470</ele>
        <time>2019-09-19T07:37:21Z</time>
      </trkpt>
      <trkpt lat="47.01369" lon="5.96198">
        <ele>470</ele>
        <time>2019-09-19T07:37:37Z</time>
      </trkpt>
      <trkpt lat="47.01359" lon="5.96204">
        <ele>470</ele>
        <time>2019-09-19T07:37:46Z</time>
      </trkpt>
      <trkpt lat="47.01343" lon="5.96206">
        <ele>471</ele>
        <time>2019-09-19T07:38:01Z</time>
      </trkpt>
      <trkpt lat="47.01333" lon="5.96201">
        <ele>468</ele>
        <time>2019-09-19T07:38:14Z</time>
      </trkpt>
      <trkpt lat="47.01323" lon="5.96206">
        <ele>469</ele>
        <time>2019-09-19T07:38:25Z</time>
      </trkpt>
      <trkpt lat="47.01313" lon="5.96205">
        <ele>470</ele>
        <time>2019-09-19T07:38:34Z</time>
      </trkpt>
      <trkpt lat="47.01287" lon="5.96199">
        <ele>471</ele>
        <time>2019-09-19T07:39:01Z</time>
      </trkpt>
      <trkpt lat="47.01278" lon="5.96198">
        <ele>472</ele>
        <time>2019-09-19T07:39:08Z</time>
      </trkpt>
      <trkpt lat="47.01251" lon="5.96185">
        <ele>472</ele>
        <time>2019-09-19T07:39:30Z</time>
      </trkpt>
      <trkpt lat="47.01242" lon="5.96184">
        <ele>472</ele>
        <time>2019-09-19T07:39:39Z</time>
      </trkpt>
      <trkpt lat="47.01208" lon="5.96184">
        <ele>470</ele>
        <time>2019-09-19T07:40:11Z</time>
      </trkpt>
      <trkpt lat="47.01199" lon="5.96183">
        <ele>469</ele>
        <time>2019-09-19T07:40:19Z</time>
      </trkpt>
      <trkpt lat="47.0119" lon="5.96183">
        <ele>470</ele>
        <time>2019-09-19T07:40:28Z</time>
      </trkpt>
      <trkpt lat="47.0118" lon="5.96182">
        <ele>470</ele>
        <time>2019-09-19T07:40:37Z</time>
      </trkpt>
      <trkpt lat="47.0117" lon="5.96183">
        <ele>470</ele>
        <time>2019-09-19T07:40:46Z</time>
      </trkpt>
      <trkpt lat="47.0116" lon="5.96181">
        <ele>470</ele>
        <time>2019-09-19T07:40:54Z</time>
      </trkpt>
      <trkpt lat="47.01127" lon="5.96183">
        <ele>472</ele>
        <time>2019-09-19T07:41:25Z</time>
      </trkpt>
      <trkpt lat="47.01109" lon="5.96179">
        <ele>473</ele>
        <time>2019-09-19T07:41:38Z</time>
      </trkpt>
      <trkpt lat="47.0109" lon="5.96175">
        <ele>475</ele>
        <time>2019-09-19T07:41:56Z</time>
      </trkpt>
      <trkpt lat="47.01073" lon="5.96166">
        <ele>476</ele>
        <time>2019-09-19T07:42:12Z</time>
      </trkpt>
      <trkpt lat="47.0105" lon="5.96167">
        <ele>483</ele>
        <time>2019-09-19T07:42:38Z</time>
      </trkpt>
      <trkpt lat="47.0104" lon="5.96164">
        <ele>481</ele>
        <time>2019-09-19T07:42:52Z</time>
      </trkpt>
      <trkpt lat="47.01031" lon="5.96159">
        <ele>483</ele>
        <time>2019-09-19T07:43:02Z</time>
      </trkpt>
      <trkpt lat="47.01008" lon="5.96156">
        <ele>490</ele>
        <time>2019-09-19T07:43:28Z</time>
      </trkpt>
      <trkpt lat="47.00999" lon="5.96149">
        <ele>492</ele>
        <time>2019-09-19T07:43:37Z</time>
      </trkpt>
      <trkpt lat="47.00987" lon="5.96148">
        <ele>493</ele>
        <time>2019-09-19T07:43:52Z</time>
      </trkpt>
      <trkpt lat="47.00978" lon="5.96152">
        <ele>493</ele>
        <time>2019-09-19T07:44:05Z</time>
      </trkpt>
      <trkpt lat="47.00964" lon="5.96143">
        <ele>494</ele>
        <time>2019-09-19T07:44:23Z</time>
      </trkpt>
      <trkpt lat="47.00938" lon="5.96133">
        <ele>503</ele>
        <time>2019-09-19T07:44:56Z</time>
      </trkpt>
      <trkpt lat="47.00928" lon="5.96127">
        <ele>503</ele>
        <time>2019-09-19T07:45:07Z</time>
      </trkpt>
      <trkpt lat="47.00917" lon="5.96127">
        <ele>502</ele>
        <time>2019-09-19T07:45:23Z</time>
      </trkpt>
      <trkpt lat="47.00904" lon="5.96128">
        <ele>502</ele>
        <time>2019-09-19T07:45:41Z</time>
      </trkpt>
      <trkpt lat="47.00894" lon="5.96127">
        <ele>503</ele>
        <time>2019-09-19T07:45:59Z</time>
      </trkpt>
      <trkpt lat="47.00881" lon="5.96122">
        <ele>507</ele>
        <time>2019-09-19T07:48:24Z</time>
      </trkpt>
      <trkpt lat="47.00871" lon="5.96118">
        <ele>507</ele>
        <time>2019-09-19T07:48:34Z</time>
      </trkpt>
      <trkpt lat="47.00862" lon="5.96118">
        <ele>507</ele>
        <time>2019-09-19T07:48:44Z</time>
      </trkpt>
      <trkpt lat="47.00834" lon="5.96117">
        <ele>504</ele>
        <time>2019-09-19T07:49:12Z</time>
      </trkpt>
      <trkpt lat="47.00824" lon="5.96114">
        <ele>504</ele>
        <time>2019-09-19T07:49:20Z</time>
      </trkpt>
      <trkpt lat="47.00816" lon="5.96108">
        <ele>505</ele>
        <time>2019-09-19T07:49:28Z</time>
      </trkpt>
      <trkpt lat="47.00806" lon="5.96111">
        <ele>506</ele>
        <time>2019-09-19T07:49:43Z</time>
      </trkpt>
      <trkpt lat="47.00796" lon="5.9611">
        <ele>506</ele>
        <time>2019-09-19T07:49:55Z</time>
      </trkpt>
      <trkpt lat="47.00765" lon="5.96108">
        <ele>506</ele>
        <time>2019-09-19T07:50:32Z</time>
      </trkpt>
      <trkpt lat="47.00745" lon="5.96101">
        <ele>507</ele>
        <time>2019-09-19T07:50:48Z</time>
      </trkpt>
      <trkpt lat="47.00737" lon="5.96101">
        <ele>507</ele>
        <time>2019-09-19T07:50:58Z</time>
      </trkpt>
      <trkpt lat="47.00726" lon="5.961">
        <ele>506</ele>
        <time>2019-09-19T07:51:13Z</time>
      </trkpt>
      <trkpt lat="47.00716" lon="5.961">
        <ele>506</ele>
        <time>2019-09-19T07:51:23Z</time>
      </trkpt>
      <trkpt lat="47.00706" lon="5.96097">
        <ele>506</ele>
        <time>2019-09-19T07:51:31Z</time>
      </trkpt>
      <trkpt lat="47.00697" lon="5.96095">
        <ele>507</ele>
        <time>2019-09-19T07:51:39Z</time>
      </trkpt>
      <trkpt lat="47.00685" lon="5.9609">
        <ele>506</ele>
        <time>2019-09-19T07:51:51Z</time>
      </trkpt>
      <trkpt lat="47.00676" lon="5.96089">
        <ele>507</ele>
        <time>2019-09-19T07:52:00Z</time>
      </trkpt>
      <trkpt lat="47.00666" lon="5.96085">
        <ele>508</ele>
        <time>2019-09-19T07:52:08Z</time>
      </trkpt>
      <trkpt lat="47.00657" lon="5.96077">
        <ele>508</ele>
        <time>2019-09-19T07:52:16Z</time>
      </trkpt>
      <trkpt lat="47.0064" lon="5.96075">
        <ele>510</ele>
        <time>2019-09-19T07:52:34Z</time>
      </trkpt>
      <trkpt lat="47.00623" lon="5.96063">
        <ele>510</ele>
        <time>2019-09-19T07:52:51Z</time>
      </trkpt>
      <trkpt lat="47.00614" lon="5.96063">
        <ele>512</ele>
        <time>2019-09-19T07:53:23Z</time>
      </trkpt>
      <trkpt lat="47.00602" lon="5.96062">
        <ele>514</ele>
        <time>2019-09-19T07:53:53Z</time>
      </trkpt>
      <trkpt lat="47.00592" lon="5.96052">
        <ele>517</ele>
        <time>2019-09-19T07:54:08Z</time>
      </trkpt>
      <trkpt lat="47.00581" lon="5.96055">
        <ele>518</ele>
        <time>2019-09-19T07:54:32Z</time>
      </trkpt>
      <trkpt lat="47.00569" lon="5.96048">
        <ele>519</ele>
        <time>2019-09-19T07:54:54Z</time>
      </trkpt>
      <trkpt lat="47.00562" lon="5.96039">
        <ele>523</ele>
        <time>2019-09-19T07:55:04Z</time>
      </trkpt>
      <trkpt lat="47.00553" lon="5.96031">
        <ele>523</ele>
        <time>2019-09-19T07:55:12Z</time>
      </trkpt>
      <trkpt lat="47.00538" lon="5.96016">
        <ele>528</ele>
        <time>2019-09-19T07:55:28Z</time>
      </trkpt>
      <trkpt lat="47.00528" lon="5.96009">
        <ele>529</ele>
        <time>2019-09-19T07:55:39Z</time>
      </trkpt>
      <trkpt lat="47.00519" lon="5.96001">
        <ele>529</ele>
        <time>2019-09-19T07:55:49Z</time>
      </trkpt>
      <trkpt lat="47.0051" lon="5.95997">
        <ele>529</ele>
        <time>2019-09-19T07:56:03Z</time>
      </trkpt>
      <trkpt lat="47.00503" lon="5.95988">
        <ele>529</ele>
        <time>2019-09-19T07:56:13Z</time>
      </trkpt>
      <trkpt lat="47.00494" lon="5.95976">
        <ele>530</ele>
        <time>2019-09-19T07:56:22Z</time>
      </trkpt>
      <trkpt lat="47.00478" lon="5.95963">
        <ele>533</ele>
        <time>2019-09-19T07:56:56Z</time>
      </trkpt>
      <trkpt lat="47.00467" lon="5.95957">
        <ele>534</ele>
        <time>2019-09-19T07:57:18Z</time>
      </trkpt>
      <trkpt lat="47.0044" lon="5.95937">
        <ele>538</ele>
        <time>2019-09-19T07:58:05Z</time>
      </trkpt>
      <trkpt lat="47.00432" lon="5.95925">
        <ele>549</ele>
        <time>2019-09-19T08:03:35Z</time>
      </trkpt>
      <trkpt lat="47.00424" lon="5.95924">
        <ele>544</ele>
        <time>2019-09-19T08:03:42Z</time>
      </trkpt>
      <trkpt lat="47.00413" lon="5.95916">
        <ele>547</ele>
        <time>2019-09-19T08:04:01Z</time>
      </trkpt>
      <trkpt lat="47.00404" lon="5.95912">
        <ele>546</ele>
        <time>2019-09-19T08:04:11Z</time>
      </trkpt>
      <trkpt lat="47.00396" lon="5.95907">
        <ele>546</ele>
        <time>2019-09-19T08:04:20Z</time>
      </trkpt>
      <trkpt lat="47.00386" lon="5.95906">
        <ele>546</ele>
        <time>2019-09-19T08:04:34Z</time>
      </trkpt>
      <trkpt lat="47.00374" lon="5.95892">
        <ele>545</ele>
        <time>2019-09-19T08:04:50Z</time>
      </trkpt>
      <trkpt lat="47.00366" lon="5.95885">
        <ele>546</ele>
        <time>2019-09-19T08:04:58Z</time>
      </trkpt>
      <trkpt lat="47.00357" lon="5.95876">
        <ele>545</ele>
        <time>2019-09-19T08:05:06Z</time>
      </trkpt>
      <trkpt lat="47.00349" lon="5.95872">
        <ele>546</ele>
        <time>2019-09-19T08:05:16Z</time>
      </trkpt>
      <trkpt lat="47.00338" lon="5.95867">
        <ele>546</ele>
        <time>2019-09-19T08:05:26Z</time>
      </trkpt>
      <trkpt lat="47.0033" lon="5.95862">
        <ele>547</ele>
        <time>2019-09-19T08:05:35Z</time>
      </trkpt>
      <trkpt lat="47.00313" lon="5.95849">
        <ele>545</ele>
        <time>2019-09-19T08:05:54Z</time>
      </trkpt>
      <trkpt lat="47.00305" lon="5.95841">
        <ele>546</ele>
        <time>2019-09-19T08:06:02Z</time>
      </trkpt>
      <trkpt lat="47.00294" lon="5.95833">
        <ele>547</ele>
        <time>2019-09-19T08:06:12Z</time>
      </trkpt>
      <trkpt lat="47.00287" lon="5.95823">
        <ele>547</ele>
        <time>2019-09-19T08:06:18Z</time>
      </trkpt>
      <trkpt lat="47.00278" lon="5.95819">
        <ele>547</ele>
        <time>2019-09-19T08:06:27Z</time>
      </trkpt>
      <trkpt lat="47.00255" lon="5.95805">
        <ele>545</ele>
        <time>2019-09-19T08:06:51Z</time>
      </trkpt>
      <trkpt lat="47.00232" lon="5.95794">
        <ele>547</ele>
        <time>2019-09-19T08:07:15Z</time>
      </trkpt>
      <trkpt lat="47.00212" lon="5.95777">
        <ele>546</ele>
        <time>2019-09-19T08:07:39Z</time>
      </trkpt>
      <trkpt lat="47.00204" lon="5.95771">
        <ele>547</ele>
        <time>2019-09-19T08:07:46Z</time>
      </trkpt>
      <trkpt lat="47.00192" lon="5.95769">
        <ele>547</ele>
        <time>2019-09-19T08:07:59Z</time>
      </trkpt>
      <trkpt lat="47.00181" lon="5.95763">
        <ele>548</ele>
        <time>2019-09-19T08:08:10Z</time>
      </trkpt>
      <trkpt lat="47.00172" lon="5.95758">
        <ele>547</ele>
        <time>2019-09-19T08:08:18Z</time>
      </trkpt>
      <trkpt lat="47.00157" lon="5.9575">
        <ele>547</ele>
        <time>2019-09-19T08:08:39Z</time>
      </trkpt>
      <trkpt lat="47.00152" lon="5.95738">
        <ele>547</ele>
        <time>2019-09-19T08:08:44Z</time>
      </trkpt>
      <trkpt lat="47.00141" lon="5.95731">
        <ele>549</ele>
        <time>2019-09-19T08:08:52Z</time>
      </trkpt>
      <trkpt lat="47.00132" lon="5.95726">
        <ele>548</ele>
        <time>2019-09-19T08:08:58Z</time>
      </trkpt>
      <trkpt lat="47.00123" lon="5.95724">
        <ele>548</ele>
        <time>2019-09-19T08:09:08Z</time>
      </trkpt>
      <trkpt lat="47.00113" lon="5.95721">
        <ele>548</ele>
        <time>2019-09-19T08:09:16Z</time>
      </trkpt>
      <trkpt lat="47.00105" lon="5.95717">
        <ele>548</ele>
        <time>2019-09-19T08:09:24Z</time>
      </trkpt>
      <trkpt lat="47.00094" lon="5.95713">
        <ele>547</ele>
        <time>2019-09-19T08:09:35Z</time>
      </trkpt>
      <trkpt lat="47.00083" lon="5.95704">
        <ele>548</ele>
        <time>2019-09-19T08:09:49Z</time>
      </trkpt>
      <trkpt lat="47.00076" lon="5.95695">
        <ele>548</ele>
        <time>2019-09-19T08:09:54Z</time>
      </trkpt>
      <trkpt lat="47.00067" lon="5.95697">
        <ele>553</ele>
        <time>2019-09-19T08:10:14Z</time>
      </trkpt>
      <trkpt lat="47.00049" lon="5.95684">
        <ele>553</ele>
        <time>2019-09-19T08:10:31Z</time>
      </trkpt>
      <trkpt lat="47.00039" lon="5.9568">
        <ele>553</ele>
        <time>2019-09-19T08:10:42Z</time>
      </trkpt>
      <trkpt lat="47.0003" lon="5.95675">
        <ele>553</ele>
        <time>2019-09-19T08:10:50Z</time>
      </trkpt>
      <trkpt lat="47" lon="5.95654">
        <ele>559</ele>
        <time>2019-09-19T08:11:24Z</time>
      </trkpt>
      <trkpt lat="46.99989" lon="5.95652">
        <ele>560</ele>
        <time>2019-09-19T08:11:39Z</time>
      </trkpt>
      <trkpt lat="46.99981" lon="5.95642">
        <ele>560</ele>
        <time>2019-09-19T08:11:45Z</time>
      </trkpt>
      <trkpt lat="46.99971" lon="5.95637">
        <ele>561</ele>
        <time>2019-09-19T08:11:58Z</time>
      </trkpt>
      <trkpt lat="46.99963" lon="5.9563">
        <ele>562</ele>
        <time>2019-09-19T08:12:07Z</time>
      </trkpt>
      <trkpt lat="46.99949" lon="5.95627">
        <ele>563</ele>
        <time>2019-09-19T08:12:23Z</time>
      </trkpt>
      <trkpt lat="46.99931" lon="5.95612">
        <ele>566</ele>
        <time>2019-09-19T08:12:41Z</time>
      </trkpt>
      <trkpt lat="46.99921" lon="5.95613">
        <ele>563</ele>
        <time>2019-09-19T08:12:56Z</time>
      </trkpt>
      <trkpt lat="46.99907" lon="5.95598">
        <ele>565</ele>
        <time>2019-09-19T08:13:11Z</time>
      </trkpt>
      <trkpt lat="46.99885" lon="5.95588">
        <ele>568</ele>
        <time>2019-09-19T08:13:36Z</time>
      </trkpt>
      <trkpt lat="46.99875" lon="5.9558">
        <ele>570</ele>
        <time>2019-09-19T08:13:48Z</time>
      </trkpt>
      <trkpt lat="46.99864" lon="5.95569">
        <ele>571</ele>
        <time>2019-09-19T08:14:00Z</time>
      </trkpt>
      <trkpt lat="46.99851" lon="5.95544">
        <ele>572</ele>
        <time>2019-09-19T08:14:13Z</time>
      </trkpt>
      <trkpt lat="46.99825" lon="5.95521">
        <ele>576</ele>
        <time>2019-09-19T08:14:50Z</time>
      </trkpt>
      <trkpt lat="46.99812" lon="5.95507">
        <ele>576</ele>
        <time>2019-09-19T08:15:06Z</time>
      </trkpt>
      <trkpt lat="46.99806" lon="5.95498">
        <ele>575</ele>
        <time>2019-09-19T08:15:13Z</time>
      </trkpt>
      <trkpt lat="46.99799" lon="5.95489">
        <ele>576</ele>
        <time>2019-09-19T08:15:19Z</time>
      </trkpt>
      <trkpt lat="46.9979" lon="5.95483">
        <ele>576</ele>
        <time>2019-09-19T08:15:29Z</time>
      </trkpt>
      <trkpt lat="46.99782" lon="5.95475">
        <ele>575</ele>
        <time>2019-09-19T08:15:34Z</time>
      </trkpt>
      <trkpt lat="46.99776" lon="5.95453">
        <ele>575</ele>
        <time>2019-09-19T08:15:49Z</time>
      </trkpt>
      <trkpt lat="46.99767" lon="5.95432">
        <ele>571</ele>
        <time>2019-09-19T08:16:11Z</time>
      </trkpt>
      <trkpt lat="46.99765" lon="5.95419">
        <ele>571</ele>
        <time>2019-09-19T08:16:18Z</time>
      </trkpt>
      <trkpt lat="46.99759" lon="5.95407">
        <ele>570</ele>
        <time>2019-09-19T08:16:25Z</time>
      </trkpt>
      <trkpt lat="46.99761" lon="5.95379">
        <ele>569</ele>
        <time>2019-09-19T08:16:42Z</time>
      </trkpt>
      <trkpt lat="46.99759" lon="5.95367">
        <ele>569</ele>
        <time>2019-09-19T08:16:51Z</time>
      </trkpt>
      <trkpt lat="46.99735" lon="5.95339">
        <ele>567</ele>
        <time>2019-09-19T08:17:13Z</time>
      </trkpt>
      <trkpt lat="46.99727" lon="5.95334">
        <ele>567</ele>
        <time>2019-09-19T08:17:20Z</time>
      </trkpt>
      <trkpt lat="46.99717" lon="5.95331">
        <ele>566</ele>
        <time>2019-09-19T08:17:27Z</time>
      </trkpt>
      <trkpt lat="46.99711" lon="5.95319">
        <ele>566</ele>
        <time>2019-09-19T08:17:36Z</time>
      </trkpt>
      <trkpt lat="46.99708" lon="5.95295">
        <ele>564</ele>
        <time>2019-09-19T08:18:00Z</time>
      </trkpt>
      <trkpt lat="46.99695" lon="5.95249">
        <ele>564</ele>
        <time>2019-09-19T08:18:28Z</time>
      </trkpt>
      <trkpt lat="46.99687" lon="5.95227">
        <ele>561</ele>
        <time>2019-09-19T08:18:46Z</time>
      </trkpt>
      <trkpt lat="46.99682" lon="5.95216">
        <ele>560</ele>
        <time>2019-09-19T08:18:50Z</time>
      </trkpt>
      <trkpt lat="46.99672" lon="5.95177">
        <ele>558</ele>
        <time>2019-09-19T08:19:18Z</time>
      </trkpt>
      <trkpt lat="46.99665" lon="5.95164">
        <ele>557</ele>
        <time>2019-09-19T08:19:33Z</time>
      </trkpt>
      <trkpt lat="46.99657" lon="5.95155">
        <ele>557</ele>
        <time>2019-09-19T08:19:41Z</time>
      </trkpt>
      <trkpt lat="46.99652" lon="5.95143">
        <ele>556</ele>
        <time>2019-09-19T08:19:48Z</time>
      </trkpt>
      <trkpt lat="46.99648" lon="5.95119">
        <ele>554</ele>
        <time>2019-09-19T08:20:05Z</time>
      </trkpt>
      <trkpt lat="46.9964" lon="5.95093">
        <ele>553</ele>
        <time>2019-09-19T08:20:13Z</time>
      </trkpt>
      <trkpt lat="46.99645" lon="5.95076">
        <ele>551</ele>
        <time>2019-09-19T08:20:35Z</time>
      </trkpt>
      <trkpt lat="46.9964" lon="5.95063">
        <ele>551</ele>
        <time>2019-09-19T08:20:41Z</time>
      </trkpt>
      <trkpt lat="46.99628" lon="5.95041">
        <ele>552</ele>
        <time>2019-09-19T08:20:50Z</time>
      </trkpt>
      <trkpt lat="46.99616" lon="5.95031">
        <ele>550</ele>
        <time>2019-09-19T08:21:12Z</time>
      </trkpt>
      <trkpt lat="46.99608" lon="5.95018">
        <ele>550</ele>
        <time>2019-09-19T08:21:21Z</time>
      </trkpt>
      <trkpt lat="46.99603" lon="5.95001">
        <ele>550</ele>
        <time>2019-09-19T08:21:32Z</time>
      </trkpt>
      <trkpt lat="46.99597" lon="5.94989">
        <ele>550</ele>
        <time>2019-09-19T08:21:40Z</time>
      </trkpt>
      <trkpt lat="46.99598" lon="5.94974">
        <ele>550</ele>
        <time>2019-09-19T08:21:49Z</time>
      </trkpt>
      <trkpt lat="46.99599" lon="5.94959">
        <ele>549</ele>
        <time>2019-09-19T08:21:58Z</time>
      </trkpt>
      <trkpt lat="46.99596" lon="5.94946">
        <ele>549</ele>
        <time>2019-09-19T08:22:01Z</time>
      </trkpt>
      <trkpt lat="46.99594" lon="5.94933">
        <ele>547</ele>
        <time>2019-09-19T08:22:11Z</time>
      </trkpt>
      <trkpt lat="46.99589" lon="5.94919">
        <ele>546</ele>
        <time>2019-09-19T08:22:24Z</time>
      </trkpt>
      <trkpt lat="46.99586" lon="5.94905">
        <ele>546</ele>
        <time>2019-09-19T08:22:32Z</time>
      </trkpt>
      <trkpt lat="46.99582" lon="5.94895">
        <ele>546</ele>
        <time>2019-09-19T08:22:37Z</time>
      </trkpt>
      <trkpt lat="46.99575" lon="5.94857">
        <ele>543</ele>
        <time>2019-09-19T08:23:05Z</time>
      </trkpt>
      <trkpt lat="46.99567" lon="5.9484">
        <ele>542</ele>
        <time>2019-09-19T08:23:18Z</time>
      </trkpt>
      <trkpt lat="46.99562" lon="5.94828">
        <ele>541</ele>
        <time>2019-09-19T08:23:26Z</time>
      </trkpt>
      <trkpt lat="46.99558" lon="5.94812">
        <ele>541</ele>
        <time>2019-09-19T08:23:38Z</time>
      </trkpt>
      <trkpt lat="46.99553" lon="5.94803">
        <ele>541</ele>
        <time>2019-09-19T08:23:43Z</time>
      </trkpt>
      <trkpt lat="46.99543" lon="5.94785">
        <ele>540</ele>
        <time>2019-09-19T08:23:59Z</time>
      </trkpt>
      <trkpt lat="46.99536" lon="5.94751">
        <ele>541</ele>
        <time>2019-09-19T08:24:18Z</time>
      </trkpt>
      <trkpt lat="46.99528" lon="5.94743">
        <ele>541</ele>
        <time>2019-09-19T08:24:25Z</time>
      </trkpt>
      <trkpt lat="46.99522" lon="5.94733">
        <ele>542</ele>
        <time>2019-09-19T08:24:32Z</time>
      </trkpt>
      <trkpt lat="46.995" lon="5.94698">
        <ele>538</ele>
        <time>2019-09-19T08:25:10Z</time>
      </trkpt>
      <trkpt lat="46.99494" lon="5.94687">
        <ele>539</ele>
        <time>2019-09-19T08:25:13Z</time>
      </trkpt>
      <trkpt lat="46.99485" lon="5.94672">
        <ele>538</ele>
        <time>2019-09-19T08:25:21Z</time>
      </trkpt>
      <trkpt lat="46.99478" lon="5.94652">
        <ele>537</ele>
        <time>2019-09-19T08:25:43Z</time>
      </trkpt>
      <trkpt lat="46.99474" lon="5.94639">
        <ele>536</ele>
        <time>2019-09-19T08:25:49Z</time>
      </trkpt>
      <trkpt lat="46.99451" lon="5.94587">
        <ele>531</ele>
        <time>2019-09-19T08:26:28Z</time>
      </trkpt>
      <trkpt lat="46.99443" lon="5.94563">
        <ele>530</ele>
        <time>2019-09-19T08:26:43Z</time>
      </trkpt>
      <trkpt lat="46.99433" lon="5.9454">
        <ele>530</ele>
        <time>2019-09-19T08:26:59Z</time>
      </trkpt>
      <trkpt lat="46.99427" lon="5.94528">
        <ele>528</ele>
        <time>2019-09-19T08:27:06Z</time>
      </trkpt>
      <trkpt lat="46.99422" lon="5.9452">
        <ele>528</ele>
        <time>2019-09-19T08:27:11Z</time>
      </trkpt>
      <trkpt lat="46.99419" lon="5.94504">
        <ele>528</ele>
        <time>2019-09-19T08:27:19Z</time>
      </trkpt>
      <trkpt lat="46.99412" lon="5.94496">
        <ele>528</ele>
        <time>2019-09-19T08:27:24Z</time>
      </trkpt>
      <trkpt lat="46.99405" lon="5.94472">
        <ele>529</ele>
        <time>2019-09-19T08:27:46Z</time>
      </trkpt>
      <trkpt lat="46.99396" lon="5.94467">
        <ele>529</ele>
        <time>2019-09-19T08:27:56Z</time>
      </trkpt>
      <trkpt lat="46.99374" lon="5.94423">
        <ele>524</ele>
        <time>2019-09-19T08:28:34Z</time>
      </trkpt>
      <trkpt lat="46.9937" lon="5.94414">
        <ele>523</ele>
        <time>2019-09-19T08:28:44Z</time>
      </trkpt>
      <trkpt lat="46.9936" lon="5.94406">
        <ele>522</ele>
        <time>2019-09-19T08:28:57Z</time>
      </trkpt>
      <trkpt lat="46.99353" lon="5.94395">
        <ele>522</ele>
        <time>2019-09-19T08:29:04Z</time>
      </trkpt>
      <trkpt lat="46.99345" lon="5.94386">
        <ele>521</ele>
        <time>2019-09-19T08:29:11Z</time>
      </trkpt>
      <trkpt lat="46.99341" lon="5.94374">
        <ele>520</ele>
        <time>2019-09-19T08:29:19Z</time>
      </trkpt>
      <trkpt lat="46.99324" lon="5.94354">
        <ele>517</ele>
        <time>2019-09-19T08:29:44Z</time>
      </trkpt>
      <trkpt lat="46.99307" lon="5.94343">
        <ele>514</ele>
        <time>2019-09-19T08:29:58Z</time>
      </trkpt>
      <trkpt lat="46.99298" lon="5.94343">
        <ele>513</ele>
        <time>2019-09-19T08:30:11Z</time>
      </trkpt>
      <trkpt lat="46.99267" lon="5.94316">
        <ele>510</ele>
        <time>2019-09-19T08:30:41Z</time>
      </trkpt>
      <trkpt lat="46.99256" lon="5.94314">
        <ele>507</ele>
        <time>2019-09-19T08:30:58Z</time>
      </trkpt>
      <trkpt lat="46.99228" lon="5.94281">
        <ele>502</ele>
        <time>2019-09-19T08:31:33Z</time>
      </trkpt>
      <trkpt lat="46.99218" lon="5.94273">
        <ele>499</ele>
        <time>2019-09-19T08:31:47Z</time>
      </trkpt>
      <trkpt lat="46.99209" lon="5.94269">
        <ele>499</ele>
        <time>2019-09-19T08:31:55Z</time>
      </trkpt>
      <trkpt lat="46.99201" lon="5.94262">
        <ele>497</ele>
        <time>2019-09-19T08:32:01Z</time>
      </trkpt>
      <trkpt lat="46.99189" lon="5.94259">
        <ele>494</ele>
        <time>2019-09-19T08:32:16Z</time>
      </trkpt>
      <trkpt lat="46.99178" lon="5.94251">
        <ele>490</ele>
        <time>2019-09-19T08:32:34Z</time>
      </trkpt>
      <trkpt lat="46.99157" lon="5.94225">
        <ele>486</ele>
        <time>2019-09-19T08:33:09Z</time>
      </trkpt>
      <trkpt lat="46.99152" lon="5.9422">
        <ele>482</ele>
        <time>2019-09-19T08:35:39Z</time>
      </trkpt>
      <trkpt lat="46.99157" lon="5.94213">
        <ele>471</ele>
        <time>2019-09-19T08:42:15Z</time>
      </trkpt>
      <trkpt lat="46.99163" lon="5.94193">
        <ele>470</ele>
        <time>2019-09-19T08:42:32Z</time>
      </trkpt>
      <trkpt lat="46.99177" lon="5.94163">
        <ele>472</ele>
        <time>2019-09-19T08:42:57Z</time>
      </trkpt>
      <trkpt lat="46.99198" lon="5.94127">
        <ele>477</ele>
        <time>2019-09-19T08:43:29Z</time>
      </trkpt>
      <trkpt lat="46.992" lon="5.94115">
        <ele>476</ele>
        <time>2019-09-19T08:43:38Z</time>
      </trkpt>
      <trkpt lat="46.99208" lon="5.94111">
        <ele>478</ele>
        <time>2019-09-19T08:43:45Z</time>
      </trkpt>
      <trkpt lat="46.99212" lon="5.94099">
        <ele>477</ele>
        <time>2019-09-19T08:43:55Z</time>
      </trkpt>
      <trkpt lat="46.99221" lon="5.94092">
        <ele>478</ele>
        <time>2019-09-19T08:44:03Z</time>
      </trkpt>
      <trkpt lat="46.99224" lon="5.94079">
        <ele>480</ele>
        <time>2019-09-19T08:44:13Z</time>
      </trkpt>
      <trkpt lat="46.99236" lon="5.94066">
        <ele>480</ele>
        <time>2019-09-19T08:44:29Z</time>
      </trkpt>
      <trkpt lat="46.99242" lon="5.94056">
        <ele>479</ele>
        <time>2019-09-19T08:44:36Z</time>
      </trkpt>
      <trkpt lat="46.99251" lon="5.94046">
        <ele>480</ele>
        <time>2019-09-19T08:44:48Z</time>
      </trkpt>
      <trkpt lat="46.99258" lon="5.94037">
        <ele>483</ele>
        <time>2019-09-19T08:44:57Z</time>
      </trkpt>
      <trkpt lat="46.99269" lon="5.94016">
        <ele>484</ele>
        <time>2019-09-19T08:45:15Z</time>
      </trkpt>
      <trkpt lat="46.99279" lon="5.94012">
        <ele>484</ele>
        <time>2019-09-19T08:45:23Z</time>
      </trkpt>
      <trkpt lat="46.99289" lon="5.9401">
        <ele>483</ele>
        <time>2019-09-19T08:45:31Z</time>
      </trkpt>
      <trkpt lat="46.99298" lon="5.94005">
        <ele>483</ele>
        <time>2019-09-19T08:45:37Z</time>
      </trkpt>
      <trkpt lat="46.99307" lon="5.94">
        <ele>483</ele>
        <time>2019-09-19T08:45:43Z</time>
      </trkpt>
      <trkpt lat="46.99316" lon="5.93997">
        <ele>485</ele>
        <time>2019-09-19T08:45:51Z</time>
      </trkpt>
      <trkpt lat="46.99328" lon="5.93992">
        <ele>485</ele>
        <time>2019-09-19T08:46:04Z</time>
      </trkpt>
      <trkpt lat="46.99352" lon="5.93987">
        <ele>488</ele>
        <time>2019-09-19T08:46:22Z</time>
      </trkpt>
      <trkpt lat="46.99367" lon="5.93981">
        <ele>488</ele>
        <time>2019-09-19T08:46:45Z</time>
      </trkpt>
      <trkpt lat="46.99377" lon="5.93979">
        <ele>487</ele>
        <time>2019-09-19T08:46:55Z</time>
      </trkpt>
      <trkpt lat="46.99386" lon="5.93976">
        <ele>488</ele>
        <time>2019-09-19T08:47:05Z</time>
      </trkpt>
      <trkpt lat="46.99383" lon="5.93959">
        <ele>487</ele>
        <time>2019-09-19T08:48:04Z</time>
      </trkpt>
      <trkpt lat="46.99376" lon="5.9395">
        <ele>487</ele>
        <time>2019-09-19T08:48:12Z</time>
      </trkpt>
      <trkpt lat="46.99366" lon="5.93943">
        <ele>487</ele>
        <time>2019-09-19T08:48:18Z</time>
      </trkpt>
      <trkpt lat="46.99358" lon="5.93938">
        <ele>489</ele>
        <time>2019-09-19T08:48:25Z</time>
      </trkpt>
      <trkpt lat="46.99336" lon="5.9392">
        <ele>488</ele>
        <time>2019-09-19T08:48:40Z</time>
      </trkpt>
      <trkpt lat="46.99325" lon="5.93909">
        <ele>487</ele>
        <time>2019-09-19T08:48:56Z</time>
      </trkpt>
      <trkpt lat="46.99321" lon="5.93897">
        <ele>486</ele>
        <time>2019-09-19T08:49:09Z</time>
      </trkpt>
      <trkpt lat="46.99313" lon="5.93888">
        <ele>485</ele>
        <time>2019-09-19T08:49:14Z</time>
      </trkpt>
      <trkpt lat="46.99305" lon="5.93881">
        <ele>486</ele>
        <time>2019-09-19T08:49:24Z</time>
      </trkpt>
      <trkpt lat="46.99297" lon="5.93869">
        <ele>484</ele>
        <time>2019-09-19T08:49:34Z</time>
      </trkpt>
      <trkpt lat="46.99288" lon="5.93859">
        <ele>480</ele>
        <time>2019-09-19T08:49:53Z</time>
      </trkpt>
      <trkpt lat="46.99277" lon="5.9385">
        <ele>479</ele>
        <time>2019-09-19T08:50:03Z</time>
      </trkpt>
      <trkpt lat="46.99269" lon="5.93847">
        <ele>479</ele>
        <time>2019-09-19T08:50:12Z</time>
      </trkpt>
      <trkpt lat="46.99253" lon="5.9383">
        <ele>476</ele>
        <time>2019-09-19T08:50:26Z</time>
      </trkpt>
      <trkpt lat="46.99243" lon="5.93832">
        <ele>476</ele>
        <time>2019-09-19T08:50:36Z</time>
      </trkpt>
      <trkpt lat="46.99225" lon="5.93828">
        <ele>474</ele>
        <time>2019-09-19T08:50:52Z</time>
      </trkpt>
      <trkpt lat="46.99214" lon="5.93833">
        <ele>473</ele>
        <time>2019-09-19T08:51:04Z</time>
      </trkpt>
      <trkpt lat="46.99206" lon="5.93826">
        <ele>472</ele>
        <time>2019-09-19T08:51:17Z</time>
      </trkpt>
      <trkpt lat="46.99197" lon="5.9382">
        <ele>471</ele>
        <time>2019-09-19T08:51:27Z</time>
      </trkpt>
      <trkpt lat="46.99187" lon="5.93816">
        <ele>471</ele>
        <time>2019-09-19T08:51:37Z</time>
      </trkpt>
      <trkpt lat="46.99176" lon="5.93819">
        <ele>466</ele>
        <time>2019-09-19T08:51:56Z</time>
      </trkpt>
      <trkpt lat="46.99167" lon="5.93812">
        <ele>465</ele>
        <time>2019-09-19T08:52:02Z</time>
      </trkpt>
      <trkpt lat="46.99158" lon="5.93807">
        <ele>466</ele>
        <time>2019-09-19T08:52:10Z</time>
      </trkpt>
      <trkpt lat="46.99146" lon="5.93809">
        <ele>465</ele>
        <time>2019-09-19T08:52:25Z</time>
      </trkpt>
      <trkpt lat="46.99136" lon="5.93815">
        <ele>460</ele>
        <time>2019-09-19T08:52:43Z</time>
      </trkpt>
      <trkpt lat="46.99126" lon="5.93813">
        <ele>456</ele>
        <time>2019-09-19T08:52:54Z</time>
      </trkpt>
      <trkpt lat="46.99117" lon="5.93807">
        <ele>455</ele>
        <time>2019-09-19T08:53:02Z</time>
      </trkpt>
      <trkpt lat="46.99116" lon="5.93793">
        <ele>453</ele>
        <time>2019-09-19T08:53:12Z</time>
      </trkpt>
      <trkpt lat="46.99122" lon="5.93776">
        <ele>451</ele>
        <time>2019-09-19T08:53:27Z</time>
      </trkpt>
      <trkpt lat="46.99128" lon="5.93743">
        <ele>448</ele>
        <time>2019-09-19T08:53:50Z</time>
      </trkpt>
      <trkpt lat="46.99127" lon="5.93728">
        <ele>447</ele>
        <time>2019-09-19T08:53:59Z</time>
      </trkpt>
      <trkpt lat="46.99128" lon="5.93701">
        <ele>447</ele>
        <time>2019-09-19T08:54:15Z</time>
      </trkpt>
      <trkpt lat="46.99128" lon="5.93687">
        <ele>445</ele>
        <time>2019-09-19T08:54:24Z</time>
      </trkpt>
      <trkpt lat="46.99131" lon="5.93675">
        <ele>445</ele>
        <time>2019-09-19T08:54:33Z</time>
      </trkpt>
      <trkpt lat="46.99131" lon="5.93661">
        <ele>445</ele>
        <time>2019-09-19T08:54:42Z</time>
      </trkpt>
      <trkpt lat="46.99136" lon="5.93637">
        <ele>445</ele>
        <time>2019-09-19T08:55:00Z</time>
      </trkpt>
      <trkpt lat="46.99152" lon="5.93616">
        <ele>446</ele>
        <time>2019-09-19T08:55:16Z</time>
      </trkpt>
      <trkpt lat="46.99154" lon="5.93599">
        <ele>446</ele>
        <time>2019-09-19T08:55:23Z</time>
      </trkpt>
      <trkpt lat="46.99155" lon="5.93589">
        <ele>446</ele>
        <time>2019-09-19T08:55:33Z</time>
      </trkpt>
      <trkpt lat="46.99148" lon="5.93577">
        <ele>446</ele>
        <time>2019-09-19T08:55:39Z</time>
      </trkpt>
      <trkpt lat="46.99145" lon="5.93565">
        <ele>445</ele>
        <time>2019-09-19T08:55:49Z</time>
      </trkpt>
      <trkpt lat="46.99146" lon="5.93549">
        <ele>445</ele>
        <time>2019-09-19T08:55:57Z</time>
      </trkpt>
      <trkpt lat="46.99149" lon="5.93535">
        <ele>444</ele>
        <time>2019-09-19T08:56:04Z</time>
      </trkpt>
      <trkpt lat="46.99153" lon="5.93524">
        <ele>444</ele>
        <time>2019-09-19T08:56:11Z</time>
      </trkpt>
      <trkpt lat="46.99151" lon="5.93511">
        <ele>445</ele>
        <time>2019-09-19T08:56:19Z</time>
      </trkpt>
      <trkpt lat="46.99156" lon="5.93498">
        <ele>445</ele>
        <time>2019-09-19T08:56:27Z</time>
      </trkpt>
      <trkpt lat="46.99159" lon="5.93485">
        <ele>445</ele>
        <time>2019-09-19T08:56:35Z</time>
      </trkpt>
      <trkpt lat="46.99154" lon="5.93473">
        <ele>445</ele>
        <time>2019-09-19T08:56:43Z</time>
      </trkpt>
      <trkpt lat="46.99148" lon="5.93464">
        <ele>444</ele>
        <time>2019-09-19T08:56:49Z</time>
      </trkpt>
      <trkpt lat="46.99156" lon="5.93454">
        <ele>445</ele>
        <time>2019-09-19T08:57:01Z</time>
      </trkpt>
      <trkpt lat="46.99156" lon="5.9344">
        <ele>444</ele>
        <time>2019-09-19T08:57:09Z</time>
      </trkpt>
      <trkpt lat="46.99153" lon="5.93424">
        <ele>444</ele>
        <time>2019-09-19T08:57:20Z</time>
      </trkpt>
      <trkpt lat="46.99152" lon="5.9341">
        <ele>443</ele>
        <time>2019-09-19T08:57:30Z</time>
      </trkpt>
      <trkpt lat="46.99154" lon="5.93395">
        <ele>442</ele>
        <time>2019-09-19T08:57:40Z</time>
      </trkpt>
      <trkpt lat="46.99154" lon="5.93381">
        <ele>441</ele>
        <time>2019-09-19T08:57:48Z</time>
      </trkpt>
      <trkpt lat="46.99154" lon="5.93367">
        <ele>440</ele>
        <time>2019-09-19T08:57:55Z</time>
      </trkpt>
      <trkpt lat="46.9915" lon="5.93354">
        <ele>440</ele>
        <time>2019-09-19T08:58:02Z</time>
      </trkpt>
      <trkpt lat="46.99148" lon="5.93341">
        <ele>439</ele>
        <time>2019-09-19T08:58:10Z</time>
      </trkpt>
      <trkpt lat="46.99153" lon="5.93329">
        <ele>439</ele>
        <time>2019-09-19T08:58:20Z</time>
      </trkpt>
      <trkpt lat="46.99157" lon="5.93316">
        <ele>439</ele>
        <time>2019-09-19T08:58:29Z</time>
      </trkpt>
      <trkpt lat="46.99158" lon="5.93302">
        <ele>438</ele>
        <time>2019-09-19T08:58:36Z</time>
      </trkpt>
      <trkpt lat="46.99157" lon="5.93289">
        <ele>437</ele>
        <time>2019-09-19T08:58:45Z</time>
      </trkpt>
      <trkpt lat="46.9916" lon="5.93275">
        <ele>437</ele>
        <time>2019-09-19T08:58:53Z</time>
      </trkpt>
      <trkpt lat="46.99159" lon="5.93261">
        <ele>437</ele>
        <time>2019-09-19T08:59:02Z</time>
      </trkpt>
      <trkpt lat="46.99161" lon="5.93234">
        <ele>435</ele>
        <time>2019-09-19T08:59:22Z</time>
      </trkpt>
      <trkpt lat="46.99164" lon="5.93221">
        <ele>436</ele>
        <time>2019-09-19T08:59:31Z</time>
      </trkpt>
      <trkpt lat="46.99162" lon="5.93208">
        <ele>437</ele>
        <time>2019-09-19T08:59:40Z</time>
      </trkpt>
      <trkpt lat="46.99162" lon="5.93194">
        <ele>436</ele>
        <time>2019-09-19T08:59:49Z</time>
      </trkpt>
      <trkpt lat="46.99157" lon="5.93181">
        <ele>437</ele>
        <time>2019-09-19T08:59:59Z</time>
      </trkpt>
      <trkpt lat="46.99152" lon="5.9317">
        <ele>437</ele>
        <time>2019-09-19T09:00:06Z</time>
      </trkpt>
      <trkpt lat="46.99155" lon="5.93141">
        <ele>436</ele>
        <time>2019-09-19T09:00:23Z</time>
      </trkpt>
      <trkpt lat="46.99154" lon="5.93128">
        <ele>435</ele>
        <time>2019-09-19T09:00:31Z</time>
      </trkpt>
      <trkpt lat="46.99154" lon="5.93114">
        <ele>435</ele>
        <time>2019-09-19T09:00:40Z</time>
      </trkpt>
      <trkpt lat="46.99154" lon="5.93099">
        <ele>435</ele>
        <time>2019-09-19T09:00:49Z</time>
      </trkpt>
      <trkpt lat="46.99156" lon="5.93086">
        <ele>435</ele>
        <time>2019-09-19T09:00:58Z</time>
      </trkpt>
      <trkpt lat="46.99156" lon="5.9307">
        <ele>435</ele>
        <time>2019-09-19T09:01:08Z</time>
      </trkpt>
      <trkpt lat="46.99156" lon="5.93038">
        <ele>435</ele>
        <time>2019-09-19T09:01:27Z</time>
      </trkpt>
      <trkpt lat="46.99151" lon="5.93027">
        <ele>434</ele>
        <time>2019-09-19T09:01:37Z</time>
      </trkpt>
      <trkpt lat="46.99147" lon="5.93013">
        <ele>434</ele>
        <time>2019-09-19T09:01:44Z</time>
      </trkpt>
      <trkpt lat="46.99141" lon="5.93003">
        <ele>434</ele>
        <time>2019-09-19T09:01:50Z</time>
      </trkpt>
      <trkpt lat="46.99136" lon="5.9299">
        <ele>434</ele>
        <time>2019-09-19T09:01:57Z</time>
      </trkpt>
      <trkpt lat="46.99133" lon="5.92978">
        <ele>435</ele>
        <time>2019-09-19T09:02:05Z</time>
      </trkpt>
      <trkpt lat="46.99132" lon="5.92965">
        <ele>435</ele>
        <time>2019-09-19T09:02:14Z</time>
      </trkpt>
      <trkpt lat="46.99128" lon="5.92951">
        <ele>436</ele>
        <time>2019-09-19T09:02:23Z</time>
      </trkpt>
      <trkpt lat="46.99124" lon="5.9294">
        <ele>435</ele>
        <time>2019-09-19T09:02:31Z</time>
      </trkpt>
      <trkpt lat="46.9912" lon="5.92925">
        <ele>436</ele>
        <time>2019-09-19T09:02:41Z</time>
      </trkpt>
      <trkpt lat="46.99103" lon="5.92898">
        <ele>435</ele>
        <time>2019-09-19T09:03:01Z</time>
      </trkpt>
      <trkpt lat="46.99098" lon="5.92886">
        <ele>435</ele>
        <time>2019-09-19T09:03:10Z</time>
      </trkpt>
      <trkpt lat="46.99088" lon="5.92867">
        <ele>434</ele>
        <time>2019-09-19T09:03:25Z</time>
      </trkpt>
      <trkpt lat="46.99063" lon="5.92847">
        <ele>435</ele>
        <time>2019-09-19T09:03:44Z</time>
      </trkpt>
      <trkpt lat="46.99049" lon="5.92837">
        <ele>434</ele>
        <time>2019-09-19T09:04:01Z</time>
      </trkpt>
      <trkpt lat="46.99039" lon="5.92835">
        <ele>433</ele>
        <time>2019-09-19T09:04:08Z</time>
      </trkpt>
      <trkpt lat="46.99031" lon="5.92829">
        <ele>433</ele>
        <time>2019-09-19T09:04:14Z</time>
      </trkpt>
      <trkpt lat="46.99024" lon="5.92818">
        <ele>432</ele>
        <time>2019-09-19T09:04:24Z</time>
      </trkpt>
      <trkpt lat="46.99016" lon="5.92814">
        <ele>433</ele>
        <time>2019-09-19T09:04:30Z</time>
      </trkpt>
      <trkpt lat="46.99012" lon="5.92801">
        <ele>431</ele>
        <time>2019-09-19T09:04:39Z</time>
      </trkpt>
      <trkpt lat="46.9901" lon="5.92783">
        <ele>430</ele>
        <time>2019-09-19T09:04:55Z</time>
      </trkpt>
      <trkpt lat="46.98992" lon="5.92767">
        <ele>429</ele>
        <time>2019-09-19T09:05:06Z</time>
      </trkpt>
      <trkpt lat="46.98993" lon="5.92747">
        <ele>429</ele>
        <time>2019-09-19T09:05:18Z</time>
      </trkpt>
      <trkpt lat="46.98989" lon="5.92735">
        <ele>429</ele>
        <time>2019-09-19T09:05:27Z</time>
      </trkpt>
      <trkpt lat="46.98983" lon="5.92724">
        <ele>429</ele>
        <time>2019-09-19T09:05:33Z</time>
      </trkpt>
      <trkpt lat="46.98978" lon="5.92712">
        <ele>428</ele>
        <time>2019-09-19T09:05:40Z</time>
      </trkpt>
      <trkpt lat="46.98968" lon="5.92687">
        <ele>428</ele>
        <time>2019-09-19T09:05:57Z</time>
      </trkpt>
      <trkpt lat="46.98968" lon="5.92673">
        <ele>428</ele>
        <time>2019-09-19T09:06:05Z</time>
      </trkpt>
      <trkpt lat="46.98964" lon="5.92658">
        <ele>426</ele>
        <time>2019-09-19T09:06:16Z</time>
      </trkpt>
      <trkpt lat="46.9896" lon="5.92646">
        <ele>427</ele>
        <time>2019-09-19T09:06:23Z</time>
      </trkpt>
      <trkpt lat="46.98956" lon="5.92619">
        <ele>428</ele>
        <time>2019-09-19T09:06:39Z</time>
      </trkpt>
      <trkpt lat="46.98956" lon="5.92604">
        <ele>429</ele>
        <time>2019-09-19T09:06:49Z</time>
      </trkpt>
      <trkpt lat="46.98954" lon="5.9258">
        <ele>430</ele>
        <time>2019-09-19T09:07:06Z</time>
      </trkpt>
      <trkpt lat="46.9895" lon="5.92567">
        <ele>430</ele>
        <time>2019-09-19T09:07:14Z</time>
      </trkpt>
      <trkpt lat="46.98944" lon="5.92557">
        <ele>429</ele>
        <time>2019-09-19T09:07:20Z</time>
      </trkpt>
      <trkpt lat="46.98947" lon="5.9254">
        <ele>428</ele>
        <time>2019-09-19T09:07:29Z</time>
      </trkpt>
      <trkpt lat="46.98923" lon="5.92513">
        <ele>425</ele>
        <time>2019-09-19T09:07:54Z</time>
      </trkpt>
      <trkpt lat="46.98914" lon="5.92507">
        <ele>425</ele>
        <time>2019-09-19T09:08:01Z</time>
      </trkpt>
      <trkpt lat="46.98891" lon="5.92482">
        <ele>425</ele>
        <time>2019-09-19T09:08:23Z</time>
      </trkpt>
      <trkpt lat="46.98885" lon="5.92469">
        <ele>425</ele>
        <time>2019-09-19T09:08:30Z</time>
      </trkpt>
      <trkpt lat="46.98878" lon="5.92461">
        <ele>425</ele>
        <time>2019-09-19T09:08:37Z</time>
      </trkpt>
      <trkpt lat="46.98868" lon="5.92451">
        <ele>424</ele>
        <time>2019-09-19T09:08:48Z</time>
      </trkpt>
      <trkpt lat="46.9886" lon="5.92444">
        <ele>424</ele>
        <time>2019-09-19T09:08:55Z</time>
      </trkpt>
      <trkpt lat="46.98852" lon="5.92436">
        <ele>424</ele>
        <time>2019-09-19T09:09:01Z</time>
      </trkpt>
      <trkpt lat="46.98844" lon="5.92429">
        <ele>423</ele>
        <time>2019-09-19T09:09:10Z</time>
      </trkpt>
      <trkpt lat="46.98811" lon="5.92406">
        <ele>425</ele>
        <time>2019-09-19T09:09:41Z</time>
      </trkpt>
      <trkpt lat="46.98785" lon="5.92388">
        <ele>426</ele>
        <time>2019-09-19T09:10:04Z</time>
      </trkpt>
      <trkpt lat="46.98765" lon="5.92385">
        <ele>423</ele>
        <time>2019-09-19T09:10:19Z</time>
      </trkpt>
      <trkpt lat="46.98725" lon="5.9239">
        <ele>420</ele>
        <time>2019-09-19T09:10:50Z</time>
      </trkpt>
      <trkpt lat="46.98715" lon="5.92391">
        <ele>420</ele>
        <time>2019-09-19T09:10:59Z</time>
      </trkpt>
      <trkpt lat="46.98706" lon="5.92392">
        <ele>418</ele>
        <time>2019-09-19T09:11:08Z</time>
      </trkpt>
      <trkpt lat="46.98689" lon="5.92402">
        <ele>415</ele>
        <time>2019-09-19T09:11:26Z</time>
      </trkpt>
      <trkpt lat="46.98679" lon="5.92402">
        <ele>415</ele>
        <time>2019-09-19T09:11:34Z</time>
      </trkpt>
      <trkpt lat="46.9866" lon="5.92398">
        <ele>414</ele>
        <time>2019-09-19T09:11:48Z</time>
      </trkpt>
      <trkpt lat="46.98649" lon="5.92407">
        <ele>412</ele>
        <time>2019-09-19T09:12:04Z</time>
      </trkpt>
      <trkpt lat="46.98638" lon="5.92411">
        <ele>411</ele>
        <time>2019-09-19T09:12:13Z</time>
      </trkpt>
      <trkpt lat="46.98634" lon="5.92411">
        <ele>411</ele>
        <time>2019-09-19T09:12:17Z</time>
      </trkpt>
      <trkpt lat="46.98624" lon="5.92411">
        <ele>409</ele>
        <time>2019-09-19T09:12:27Z</time>
      </trkpt>
      <trkpt lat="46.98616" lon="5.92413">
        <ele>409</ele>
        <time>2019-09-19T09:12:37Z</time>
      </trkpt>
      <trkpt lat="46.98609" lon="5.92414">
        <ele>409</ele>
        <time>2019-09-19T09:12:49Z</time>
      </trkpt>
      <trkpt lat="46.98604" lon="5.92414">
        <ele>408</ele>
        <time>2019-09-19T09:12:56Z</time>
      </trkpt>
      <trkpt lat="46.98599" lon="5.92415">
        <ele>408</ele>
        <time>2019-09-19T09:13:00Z</time>
      </trkpt>
      <trkpt lat="46.98594" lon="5.92416">
        <ele>407</ele>
        <time>2019-09-19T09:13:04Z</time>
      </trkpt>
      <trkpt lat="46.98575" lon="5.92424">
        <ele>412</ele>
        <time>2019-09-19T09:13:47Z</time>
      </trkpt>
      <trkpt lat="46.98563" lon="5.92432">
        <ele>412</ele>
        <time>2019-09-19T09:14:12Z</time>
      </trkpt>
      <trkpt lat="46.98555" lon="5.92438">
        <ele>412</ele>
        <time>2019-09-19T09:14:20Z</time>
      </trkpt>
      <trkpt lat="46.98544" lon="5.92449">
        <ele>412</ele>
        <time>2019-09-19T09:14:38Z</time>
      </trkpt>
      <trkpt lat="46.9853" lon="5.92435">
        <ele>407</ele>
        <time>2019-09-19T09:15:11Z</time>
      </trkpt>
      <trkpt lat="46.98513" lon="5.92422">
        <ele>407</ele>
        <time>2019-09-19T09:15:27Z</time>
      </trkpt>
      <trkpt lat="46.98508" lon="5.92438">
        <ele>408</ele>
        <time>2019-09-19T09:17:37Z</time>
      </trkpt>
      <trkpt lat="46.98507" lon="5.92434">
        <ele>406</ele>
        <time>2019-09-19T09:18:30Z</time>
      </trkpt>
      <trkpt lat="46.9851" lon="5.92419">
        <ele>406</ele>
        <time>2019-09-19T09:18:54Z</time>
      </trkpt>
      <trkpt lat="46.98491" lon="5.92446">
        <ele>407</ele>
        <time>2019-09-19T09:19:15Z</time>
      </trkpt>
      <trkpt lat="46.98505" lon="5.92435">
        <ele>404</ele>
        <time>2019-09-19T09:19:43Z</time>
      </trkpt>
      <trkpt lat="46.98512" lon="5.92428">
        <ele>403</ele>
        <time>2019-09-19T09:19:51Z</time>
      </trkpt>
      <trkpt lat="46.98513" lon="5.92433">
        <ele>409</ele>
        <time>2019-09-19T09:24:53Z</time>
      </trkpt>
      <trkpt lat="46.98493" lon="5.92435">
        <ele>412</ele>
        <time>2019-09-19T09:25:26Z</time>
      </trkpt>
      <trkpt lat="46.98495" lon="5.92434">
        <ele>416</ele>
        <time>2019-09-19T09:25:52Z</time>
      </trkpt>
      <trkpt lat="46.98494" lon="5.92419">
        <ele>412</ele>
        <time>2019-09-19T09:26:13Z</time>
      </trkpt>
      <trkpt lat="46.98486" lon="5.92411">
        <ele>407</ele>
        <time>2019-09-19T09:26:44Z</time>
      </trkpt>
      <trkpt lat="46.9847" lon="5.92409">
        <ele>410</ele>
        <time>2019-09-19T09:27:48Z</time>
      </trkpt>
      <trkpt lat="46.9846" lon="5.92408">
        <ele>406</ele>
        <time>2019-09-19T09:28:02Z</time>
      </trkpt>
      <trkpt lat="46.98453" lon="5.92394">
        <ele>400</ele>
        <time>2019-09-19T09:28:51Z</time>
      </trkpt>
      <trkpt lat="46.98441" lon="5.92386">
        <ele>400</ele>
        <time>2019-09-19T09:29:07Z</time>
      </trkpt>
      <trkpt lat="46.98434" lon="5.92378">
        <ele>399</ele>
        <time>2019-09-19T09:29:17Z</time>
      </trkpt>
      <trkpt lat="46.98428" lon="5.92366">
        <ele>403</ele>
        <time>2019-09-19T09:29:33Z</time>
      </trkpt>
      <trkpt lat="46.9842" lon="5.92356">
        <ele>402</ele>
        <time>2019-09-19T09:29:51Z</time>
      </trkpt>
      <trkpt lat="46.98416" lon="5.92344">
        <ele>403</ele>
        <time>2019-09-19T09:30:04Z</time>
      </trkpt>
      <trkpt lat="46.98407" lon="5.92341">
        <ele>405</ele>
        <time>2019-09-19T09:30:28Z</time>
      </trkpt>
      <trkpt lat="46.98398" lon="5.92335">
        <ele>404</ele>
        <time>2019-09-19T09:31:16Z</time>
      </trkpt>
      <trkpt lat="46.98383" lon="5.92328">
        <ele>404</ele>
        <time>2019-09-19T09:31:32Z</time>
      </trkpt>
      <trkpt lat="46.98372" lon="5.92321">
        <ele>405</ele>
        <time>2019-09-19T09:31:48Z</time>
      </trkpt>
      <trkpt lat="46.98362" lon="5.92318">
        <ele>403</ele>
        <time>2019-09-19T09:31:57Z</time>
      </trkpt>
      <trkpt lat="46.98353" lon="5.92312">
        <ele>404</ele>
        <time>2019-09-19T09:32:03Z</time>
      </trkpt>
      <trkpt lat="46.98343" lon="5.92302">
        <ele>403</ele>
        <time>2019-09-19T09:32:12Z</time>
      </trkpt>
      <trkpt lat="46.98331" lon="5.92305">
        <ele>401</ele>
        <time>2019-09-19T09:32:24Z</time>
      </trkpt>
      <trkpt lat="46.98323" lon="5.92303">
        <ele>401</ele>
        <time>2019-09-19T09:32:33Z</time>
      </trkpt>
      <trkpt lat="46.98313" lon="5.92295">
        <ele>401</ele>
        <time>2019-09-19T09:32:45Z</time>
      </trkpt>
      <trkpt lat="46.98302" lon="5.92295">
        <ele>402</ele>
        <time>2019-09-19T09:32:53Z</time>
      </trkpt>
      <trkpt lat="46.98294" lon="5.92288">
        <ele>404</ele>
        <time>2019-09-19T09:33:10Z</time>
      </trkpt>
      <trkpt lat="46.98282" lon="5.92283">
        <ele>405</ele>
        <time>2019-09-19T09:33:26Z</time>
      </trkpt>
      <trkpt lat="46.98273" lon="5.92279">
        <ele>406</ele>
        <time>2019-09-19T09:33:41Z</time>
      </trkpt>
      <trkpt lat="46.98263" lon="5.9228">
        <ele>405</ele>
        <time>2019-09-19T09:33:48Z</time>
      </trkpt>
      <trkpt lat="46.98255" lon="5.92279">
        <ele>405</ele>
        <time>2019-09-19T09:33:53Z</time>
      </trkpt>
      <trkpt lat="46.98237" lon="5.92282">
        <ele>406</ele>
        <time>2019-09-19T09:34:03Z</time>
      </trkpt>
      <trkpt lat="46.98223" lon="5.92291">
        <ele>407</ele>
        <time>2019-09-19T09:34:19Z</time>
      </trkpt>
      <trkpt lat="46.98218" lon="5.92302">
        <ele>409</ele>
        <time>2019-09-19T09:34:26Z</time>
      </trkpt>
      <trkpt lat="46.98212" lon="5.92314">
        <ele>409</ele>
        <time>2019-09-19T09:34:35Z</time>
      </trkpt>
      <trkpt lat="46.98208" lon="5.92327">
        <ele>410</ele>
        <time>2019-09-19T09:34:44Z</time>
      </trkpt>
      <trkpt lat="46.98201" lon="5.92337">
        <ele>411</ele>
        <time>2019-09-19T09:34:52Z</time>
      </trkpt>
      <trkpt lat="46.9819" lon="5.92342">
        <ele>412</ele>
        <time>2019-09-19T09:35:00Z</time>
      </trkpt>
      <trkpt lat="46.98195" lon="5.92369">
        <ele>414</ele>
        <time>2019-09-19T09:35:20Z</time>
      </trkpt>
      <trkpt lat="46.98173" lon="5.92373">
        <ele>414</ele>
        <time>2019-09-19T09:35:31Z</time>
      </trkpt>
      <trkpt lat="46.98168" lon="5.92384">
        <ele>414</ele>
        <time>2019-09-19T09:35:39Z</time>
      </trkpt>
      <trkpt lat="46.98158" lon="5.92395">
        <ele>415</ele>
        <time>2019-09-19T09:35:49Z</time>
      </trkpt>
      <trkpt lat="46.98162" lon="5.92415">
        <ele>416</ele>
        <time>2019-09-19T09:36:00Z</time>
      </trkpt>
      <trkpt lat="46.98177" lon="5.92421">
        <ele>419</ele>
        <time>2019-09-19T09:36:19Z</time>
      </trkpt>
      <trkpt lat="46.98188" lon="5.9242">
        <ele>422</ele>
        <time>2019-09-19T09:36:37Z</time>
      </trkpt>
      <trkpt lat="46.98189" lon="5.92427">
        <ele>432</ele>
        <time>2019-09-19T09:37:49Z</time>
      </trkpt>
      <trkpt lat="46.98184" lon="5.92444">
        <ele>434</ele>
        <time>2019-09-19T09:38:46Z</time>
      </trkpt>
      <trkpt lat="46.98175" lon="5.92453">
        <ele>435</ele>
        <time>2019-09-19T09:39:06Z</time>
      </trkpt>
      <trkpt lat="46.98166" lon="5.92458">
        <ele>436</ele>
        <time>2019-09-19T09:39:24Z</time>
      </trkpt>
      <trkpt lat="46.98165" lon="5.92472">
        <ele>436</ele>
        <time>2019-09-19T09:39:43Z</time>
      </trkpt>
      <trkpt lat="46.98157" lon="5.92483">
        <ele>439</ele>
        <time>2019-09-19T09:39:59Z</time>
      </trkpt>
      <trkpt lat="46.98124" lon="5.9249">
        <ele>473</ele>
        <time>2019-09-19T09:42:24Z</time>
      </trkpt>
      <trkpt lat="46.98126" lon="5.92478">
        <ele>478</ele>
        <time>2019-09-19T09:44:00Z</time>
      </trkpt>
      <trkpt lat="46.98119" lon="5.92476">
        <ele>478</ele>
        <time>2019-09-19T09:44:29Z</time>
      </trkpt>
      <trkpt lat="46.98106" lon="5.92474">
        <ele>473</ele>
        <time>2019-09-19T09:44:45Z</time>
      </trkpt>
      <trkpt lat="46.98102" lon="5.92477">
        <ele>471</ele>
        <time>2019-09-19T09:44:50Z</time>
      </trkpt>
      <trkpt lat="46.98087" lon="5.92484">
        <ele>474</ele>
        <time>2019-09-19T09:45:13Z</time>
      </trkpt>
      <trkpt lat="46.98079" lon="5.92491">
        <ele>475</ele>
        <time>2019-09-19T09:45:49Z</time>
      </trkpt>
      <trkpt lat="46.98064" lon="5.92495">
        <ele>482</ele>
        <time>2019-09-19T09:46:21Z</time>
      </trkpt>
      <trkpt lat="46.98059" lon="5.92495">
        <ele>482</ele>
        <time>2019-09-19T09:46:25Z</time>
      </trkpt>
      <trkpt lat="46.98054" lon="5.92494">
        <ele>483</ele>
        <time>2019-09-19T09:46:33Z</time>
      </trkpt>
      <trkpt lat="46.98046" lon="5.92497">
        <ele>483</ele>
        <time>2019-09-19T09:46:51Z</time>
      </trkpt>
      <trkpt lat="46.98043" lon="5.92502">
        <ele>482</ele>
        <time>2019-09-19T09:47:03Z</time>
      </trkpt>
      <trkpt lat="46.98042" lon="5.92509">
        <ele>483</ele>
        <time>2019-09-19T09:47:15Z</time>
      </trkpt>
      <trkpt lat="46.98049" lon="5.92521">
        <ele>483</ele>
        <time>2019-09-19T09:47:34Z</time>
      </trkpt>
      <trkpt lat="46.98057" lon="5.9253">
        <ele>485</ele>
        <time>2019-09-19T09:47:53Z</time>
      </trkpt>
      <trkpt lat="46.98082" lon="5.92528">
        <ele>486</ele>
        <time>2019-09-19T09:48:35Z</time>
      </trkpt>
      <trkpt lat="46.98093" lon="5.9253">
        <ele>487</ele>
        <time>2019-09-19T09:48:54Z</time>
      </trkpt>
      <trkpt lat="46.98104" lon="5.92535">
        <ele>488</ele>
        <time>2019-09-19T09:49:10Z</time>
      </trkpt>
      <trkpt lat="46.98114" lon="5.92535">
        <ele>488</ele>
        <time>2019-09-19T09:49:19Z</time>
      </trkpt>
      <trkpt lat="46.98128" lon="5.92544">
        <ele>489</ele>
        <time>2019-09-19T09:49:40Z</time>
      </trkpt>
      <trkpt lat="46.98136" lon="5.92554">
        <ele>493</ele>
        <time>2019-09-19T09:50:17Z</time>
      </trkpt>
      <trkpt lat="46.98149" lon="5.92556">
        <ele>494</ele>
        <time>2019-09-19T09:50:38Z</time>
      </trkpt>
      <trkpt lat="46.98159" lon="5.92556">
        <ele>495</ele>
        <time>2019-09-19T09:51:02Z</time>
      </trkpt>
      <trkpt lat="46.98168" lon="5.92565">
        <ele>499</ele>
        <time>2019-09-19T09:51:27Z</time>
      </trkpt>
      <trkpt lat="46.98178" lon="5.92567">
        <ele>501</ele>
        <time>2019-09-19T09:51:44Z</time>
      </trkpt>
      <trkpt lat="46.98188" lon="5.92574">
        <ele>500</ele>
        <time>2019-09-19T09:51:59Z</time>
      </trkpt>
      <trkpt lat="46.982" lon="5.92582">
        <ele>505</ele>
        <time>2019-09-19T09:52:25Z</time>
      </trkpt>
      <trkpt lat="46.98217" lon="5.92577">
        <ele>508</ele>
        <time>2019-09-19T09:52:51Z</time>
      </trkpt>
      <trkpt lat="46.98242" lon="5.92574">
        <ele>511</ele>
        <time>2019-09-19T09:53:30Z</time>
      </trkpt>
      <trkpt lat="46.9825" lon="5.92581">
        <ele>513</ele>
        <time>2019-09-19T09:53:54Z</time>
      </trkpt>
      <trkpt lat="46.98245" lon="5.92595">
        <ele>516</ele>
        <time>2019-09-19T09:54:24Z</time>
      </trkpt>
      <trkpt lat="46.98247" lon="5.92608">
        <ele>520</ele>
        <time>2019-09-19T09:55:11Z</time>
      </trkpt>
      <trkpt lat="46.98254" lon="5.92623">
        <ele>524</ele>
        <time>2019-09-19T09:55:31Z</time>
      </trkpt>
      <trkpt lat="46.98256" lon="5.92638">
        <ele>528</ele>
        <time>2019-09-19T09:56:01Z</time>
      </trkpt>
      <trkpt lat="46.98252" lon="5.92639">
        <ele>542</ele>
        <time>2019-09-19T09:57:32Z</time>
      </trkpt>
      <trkpt lat="46.98258" lon="5.92651">
        <ele>539</ele>
        <time>2019-09-19T09:57:55Z</time>
      </trkpt>
      <trkpt lat="46.98263" lon="5.92648">
        <ele>534</ele>
        <time>2019-09-19T09:58:15Z</time>
      </trkpt>
      <trkpt lat="46.9826" lon="5.92642">
        <ele>541</ele>
        <time>2019-09-19T10:01:55Z</time>
      </trkpt>
      <trkpt lat="46.98262" lon="5.92643">
        <ele>542</ele>
        <time>2019-09-19T10:10:52Z</time>
      </trkpt>
      <trkpt lat="46.98212" lon="5.92679">
        <ele>550</ele>
        <time>2019-09-19T10:44:52Z</time>
      </trkpt>
      <trkpt lat="46.98205" lon="5.92684">
        <ele>550</ele>
        <time>2019-09-19T10:45:03Z</time>
      </trkpt>
      <trkpt lat="46.98199" lon="5.92689">
        <ele>550</ele>
        <time>2019-09-19T10:45:22Z</time>
      </trkpt>
      <trkpt lat="46.98195" lon="5.92694">
        <ele>551</ele>
        <time>2019-09-19T10:45:28Z</time>
      </trkpt>
      <trkpt lat="46.98179" lon="5.92702">
        <ele>555</ele>
        <time>2019-09-19T10:45:47Z</time>
      </trkpt>
      <trkpt lat="46.98176" lon="5.92708">
        <ele>555</ele>
        <time>2019-09-19T10:45:55Z</time>
      </trkpt>
      <trkpt lat="46.98157" lon="5.92725">
        <ele>560</ele>
        <time>2019-09-19T10:46:47Z</time>
      </trkpt>
      <trkpt lat="46.98153" lon="5.92728">
        <ele>561</ele>
        <time>2019-09-19T10:46:53Z</time>
      </trkpt>
      <trkpt lat="46.9815" lon="5.92735">
        <ele>560</ele>
        <time>2019-09-19T10:47:01Z</time>
      </trkpt>
      <trkpt lat="46.98148" lon="5.92743">
        <ele>561</ele>
        <time>2019-09-19T10:47:06Z</time>
      </trkpt>
      <trkpt lat="46.98147" lon="5.92752">
        <ele>561</ele>
        <time>2019-09-19T10:47:14Z</time>
      </trkpt>
      <trkpt lat="46.98145" lon="5.92759">
        <ele>562</ele>
        <time>2019-09-19T10:47:20Z</time>
      </trkpt>
      <trkpt lat="46.98144" lon="5.92766">
        <ele>563</ele>
        <time>2019-09-19T10:47:25Z</time>
      </trkpt>
      <trkpt lat="46.98138" lon="5.92778">
        <ele>566</ele>
        <time>2019-09-19T10:47:37Z</time>
      </trkpt>
      <trkpt lat="46.98137" lon="5.92786">
        <ele>564</ele>
        <time>2019-09-19T10:47:45Z</time>
      </trkpt>
      <trkpt lat="46.98137" lon="5.92793">
        <ele>564</ele>
        <time>2019-09-19T10:47:51Z</time>
      </trkpt>
      <trkpt lat="46.98137" lon="5.92817">
        <ele>569</ele>
        <time>2019-09-19T10:48:11Z</time>
      </trkpt>
      <trkpt lat="46.98138" lon="5.92824">
        <ele>569</ele>
        <time>2019-09-19T10:48:16Z</time>
      </trkpt>
      <trkpt lat="46.98143" lon="5.92833">
        <ele>570</ele>
        <time>2019-09-19T10:48:25Z</time>
      </trkpt>
      <trkpt lat="46.98153" lon="5.92864">
        <ele>576</ele>
        <time>2019-09-19T10:48:49Z</time>
      </trkpt>
      <trkpt lat="46.98156" lon="5.92877">
        <ele>578</ele>
        <time>2019-09-19T10:48:58Z</time>
      </trkpt>
      <trkpt lat="46.98153" lon="5.92894">
        <ele>579</ele>
        <time>2019-09-19T10:49:13Z</time>
      </trkpt>
      <trkpt lat="46.98152" lon="5.92905">
        <ele>578</ele>
        <time>2019-09-19T10:49:25Z</time>
      </trkpt>
      <trkpt lat="46.98149" lon="5.9291">
        <ele>578</ele>
        <time>2019-09-19T10:49:31Z</time>
      </trkpt>
      <trkpt lat="46.98145" lon="5.92922">
        <ele>580</ele>
        <time>2019-09-19T10:49:44Z</time>
      </trkpt>
      <trkpt lat="46.98143" lon="5.9293">
        <ele>581</ele>
        <time>2019-09-19T10:49:52Z</time>
      </trkpt>
      <trkpt lat="46.98147" lon="5.9295">
        <ele>580</ele>
        <time>2019-09-19T10:50:07Z</time>
      </trkpt>
      <trkpt lat="46.9815" lon="5.92955">
        <ele>579</ele>
        <time>2019-09-19T10:50:20Z</time>
      </trkpt>
      <trkpt lat="46.98151" lon="5.92969">
        <ele>575</ele>
        <time>2019-09-19T10:52:00Z</time>
      </trkpt>
      <trkpt lat="46.9815" lon="5.92976">
        <ele>575</ele>
        <time>2019-09-19T10:52:05Z</time>
      </trkpt>
      <trkpt lat="46.98151" lon="5.92983">
        <ele>577</ele>
        <time>2019-09-19T10:52:10Z</time>
      </trkpt>
      <trkpt lat="46.98148" lon="5.92998">
        <ele>580</ele>
        <time>2019-09-19T10:52:20Z</time>
      </trkpt>
      <trkpt lat="46.98146" lon="5.93005">
        <ele>579</ele>
        <time>2019-09-19T10:52:25Z</time>
      </trkpt>
      <trkpt lat="46.98138" lon="5.93014">
        <ele>576</ele>
        <time>2019-09-19T10:52:35Z</time>
      </trkpt>
      <trkpt lat="46.98134" lon="5.93021">
        <ele>576</ele>
        <time>2019-09-19T10:52:43Z</time>
      </trkpt>
      <trkpt lat="46.98133" lon="5.93028">
        <ele>577</ele>
        <time>2019-09-19T10:52:49Z</time>
      </trkpt>
      <trkpt lat="46.98133" lon="5.93036">
        <ele>576</ele>
        <time>2019-09-19T10:52:54Z</time>
      </trkpt>
      <trkpt lat="46.98131" lon="5.93043">
        <ele>576</ele>
        <time>2019-09-19T10:52:59Z</time>
      </trkpt>
      <trkpt lat="46.98128" lon="5.93049">
        <ele>576</ele>
        <time>2019-09-19T10:53:03Z</time>
      </trkpt>
      <trkpt lat="46.98124" lon="5.93053">
        <ele>576</ele>
        <time>2019-09-19T10:53:07Z</time>
      </trkpt>
      <trkpt lat="46.98121" lon="5.93063">
        <ele>576</ele>
        <time>2019-09-19T10:53:16Z</time>
      </trkpt>
      <trkpt lat="46.98118" lon="5.93069">
        <ele>576</ele>
        <time>2019-09-19T10:53:21Z</time>
      </trkpt>
      <trkpt lat="46.98114" lon="5.93074">
        <ele>576</ele>
        <time>2019-09-19T10:53:26Z</time>
      </trkpt>
      <trkpt lat="46.98109" lon="5.93077">
        <ele>575</ele>
        <time>2019-09-19T10:53:31Z</time>
      </trkpt>
      <trkpt lat="46.98105" lon="5.93081">
        <ele>575</ele>
        <time>2019-09-19T10:53:35Z</time>
      </trkpt>
      <trkpt lat="46.98101" lon="5.93084">
        <ele>574</ele>
        <time>2019-09-19T10:53:40Z</time>
      </trkpt>
      <trkpt lat="46.98095" lon="5.93089">
        <ele>574</ele>
        <time>2019-09-19T10:53:47Z</time>
      </trkpt>
      <trkpt lat="46.9809" lon="5.93092">
        <ele>574</ele>
        <time>2019-09-19T10:53:52Z</time>
      </trkpt>
      <trkpt lat="46.98085" lon="5.93094">
        <ele>573</ele>
        <time>2019-09-19T10:53:57Z</time>
      </trkpt>
      <trkpt lat="46.9808" lon="5.93099">
        <ele>573</ele>
        <time>2019-09-19T10:54:06Z</time>
      </trkpt>
      <trkpt lat="46.98077" lon="5.93105">
        <ele>574</ele>
        <time>2019-09-19T10:54:12Z</time>
      </trkpt>
      <trkpt lat="46.98073" lon="5.9311">
        <ele>573</ele>
        <time>2019-09-19T10:54:18Z</time>
      </trkpt>
      <trkpt lat="46.98068" lon="5.93114">
        <ele>573</ele>
        <time>2019-09-19T10:54:23Z</time>
      </trkpt>
      <trkpt lat="46.98061" lon="5.93119">
        <ele>574</ele>
        <time>2019-09-19T10:54:55Z</time>
      </trkpt>
      <trkpt lat="46.98056" lon="5.93122">
        <ele>573</ele>
        <time>2019-09-19T10:55:01Z</time>
      </trkpt>
      <trkpt lat="46.98048" lon="5.93125">
        <ele>573</ele>
        <time>2019-09-19T10:55:13Z</time>
      </trkpt>
      <trkpt lat="46.98044" lon="5.93128">
        <ele>573</ele>
        <time>2019-09-19T10:55:19Z</time>
      </trkpt>
      <trkpt lat="46.98034" lon="5.93135">
        <ele>574</ele>
        <time>2019-09-19T10:55:35Z</time>
      </trkpt>
      <trkpt lat="46.98027" lon="5.93145">
        <ele>573</ele>
        <time>2019-09-19T10:55:58Z</time>
      </trkpt>
      <trkpt lat="46.98023" lon="5.9315">
        <ele>574</ele>
        <time>2019-09-19T10:56:10Z</time>
      </trkpt>
      <trkpt lat="46.98016" lon="5.93154">
        <ele>578</ele>
        <time>2019-09-19T10:56:27Z</time>
      </trkpt>
      <trkpt lat="46.9801" lon="5.93162">
        <ele>578</ele>
        <time>2019-09-19T10:56:39Z</time>
      </trkpt>
      <trkpt lat="46.98006" lon="5.93166">
        <ele>579</ele>
        <time>2019-09-19T10:56:45Z</time>
      </trkpt>
      <trkpt lat="46.98001" lon="5.93169">
        <ele>579</ele>
        <time>2019-09-19T10:56:51Z</time>
      </trkpt>
      <trkpt lat="46.97996" lon="5.93175">
        <ele>577</ele>
        <time>2019-09-19T10:57:03Z</time>
      </trkpt>
      <trkpt lat="46.97986" lon="5.93183">
        <ele>578</ele>
        <time>2019-09-19T10:57:27Z</time>
      </trkpt>
      <trkpt lat="46.97983" lon="5.93186">
        <ele>578</ele>
        <time>2019-09-19T10:57:39Z</time>
      </trkpt>
      <trkpt lat="46.97968" lon="5.93197">
        <ele>577</ele>
        <time>2019-09-19T10:58:09Z</time>
      </trkpt>
      <trkpt lat="46.97963" lon="5.93199">
        <ele>576</ele>
        <time>2019-09-19T10:58:14Z</time>
      </trkpt>
      <trkpt lat="46.97956" lon="5.93207">
        <ele>575</ele>
        <time>2019-09-19T10:58:25Z</time>
      </trkpt>
      <trkpt lat="46.97949" lon="5.93214">
        <ele>575</ele>
        <time>2019-09-19T10:58:37Z</time>
      </trkpt>
      <trkpt lat="46.97944" lon="5.93216">
        <ele>575</ele>
        <time>2019-09-19T10:58:41Z</time>
      </trkpt>
      <trkpt lat="46.97938" lon="5.93226">
        <ele>575</ele>
        <time>2019-09-19T10:58:50Z</time>
      </trkpt>
      <trkpt lat="46.97929" lon="5.93232">
        <ele>576</ele>
        <time>2019-09-19T10:59:01Z</time>
      </trkpt>
      <trkpt lat="46.97927" lon="5.93239">
        <ele>576</ele>
        <time>2019-09-19T10:59:06Z</time>
      </trkpt>
      <trkpt lat="46.97923" lon="5.93243">
        <ele>576</ele>
        <time>2019-09-19T10:59:10Z</time>
      </trkpt>
      <trkpt lat="46.97919" lon="5.93246">
        <ele>575</ele>
        <time>2019-09-19T10:59:15Z</time>
      </trkpt>
      <trkpt lat="46.97914" lon="5.93249">
        <ele>576</ele>
        <time>2019-09-19T10:59:20Z</time>
      </trkpt>
      <trkpt lat="46.97901" lon="5.93261">
        <ele>573</ele>
        <time>2019-09-19T10:59:42Z</time>
      </trkpt>
      <trkpt lat="46.97895" lon="5.93263">
        <ele>574</ele>
        <time>2019-09-19T10:59:47Z</time>
      </trkpt>
      <trkpt lat="46.97888" lon="5.9327">
        <ele>573</ele>
        <time>2019-09-19T10:59:56Z</time>
      </trkpt>
      <trkpt lat="46.97883" lon="5.93273">
        <ele>574</ele>
        <time>2019-09-19T11:00:00Z</time>
      </trkpt>
      <trkpt lat="46.97878" lon="5.93275">
        <ele>574</ele>
        <time>2019-09-19T11:00:09Z</time>
      </trkpt>
      <trkpt lat="46.9785" lon="5.93302">
        <ele>571</ele>
        <time>2019-09-19T11:02:05Z</time>
      </trkpt>
      <trkpt lat="46.97846" lon="5.93307">
        <ele>571</ele>
        <time>2019-09-19T11:02:10Z</time>
      </trkpt>
      <trkpt lat="46.97841" lon="5.93312">
        <ele>571</ele>
        <time>2019-09-19T11:02:18Z</time>
      </trkpt>
      <trkpt lat="46.97833" lon="5.9332">
        <ele>571</ele>
        <time>2019-09-19T11:02:29Z</time>
      </trkpt>
      <trkpt lat="46.97828" lon="5.93326">
        <ele>571</ele>
        <time>2019-09-19T11:02:37Z</time>
      </trkpt>
      <trkpt lat="46.97823" lon="5.93328">
        <ele>571</ele>
        <time>2019-09-19T11:02:42Z</time>
      </trkpt>
      <trkpt lat="46.97817" lon="5.93332">
        <ele>571</ele>
        <time>2019-09-19T11:02:50Z</time>
      </trkpt>
      <trkpt lat="46.97813" lon="5.93336">
        <ele>571</ele>
        <time>2019-09-19T11:02:55Z</time>
      </trkpt>
      <trkpt lat="46.97808" lon="5.93336">
        <ele>571</ele>
        <time>2019-09-19T11:02:59Z</time>
      </trkpt>
      <trkpt lat="46.97804" lon="5.93339">
        <ele>572</ele>
        <time>2019-09-19T11:03:04Z</time>
      </trkpt>
      <trkpt lat="46.97799" lon="5.93345">
        <ele>572</ele>
        <time>2019-09-19T11:03:11Z</time>
      </trkpt>
      <trkpt lat="46.97792" lon="5.93357">
        <ele>573</ele>
        <time>2019-09-19T11:03:23Z</time>
      </trkpt>
      <trkpt lat="46.97766" lon="5.93378">
        <ele>574</ele>
        <time>2019-09-19T11:03:54Z</time>
      </trkpt>
      <trkpt lat="46.97758" lon="5.93387">
        <ele>575</ele>
        <time>2019-09-19T11:04:03Z</time>
      </trkpt>
      <trkpt lat="46.97747" lon="5.93395">
        <ele>576</ele>
        <time>2019-09-19T11:04:18Z</time>
      </trkpt>
      <trkpt lat="46.9774" lon="5.93403">
        <ele>577</ele>
        <time>2019-09-19T11:04:27Z</time>
      </trkpt>
      <trkpt lat="46.9773" lon="5.9341">
        <ele>577</ele>
        <time>2019-09-19T11:04:40Z</time>
      </trkpt>
      <trkpt lat="46.97726" lon="5.93412">
        <ele>577</ele>
        <time>2019-09-19T11:04:44Z</time>
      </trkpt>
      <trkpt lat="46.97722" lon="5.93414">
        <ele>576</ele>
        <time>2019-09-19T11:04:49Z</time>
      </trkpt>
      <trkpt lat="46.97719" lon="5.93419">
        <ele>574</ele>
        <time>2019-09-19T11:05:03Z</time>
      </trkpt>
      <trkpt lat="46.97708" lon="5.93426">
        <ele>576</ele>
        <time>2019-09-19T11:05:27Z</time>
      </trkpt>
      <trkpt lat="46.97705" lon="5.93431">
        <ele>577</ele>
        <time>2019-09-19T11:05:39Z</time>
      </trkpt>
      <trkpt lat="46.97701" lon="5.93434">
        <ele>575</ele>
        <time>2019-09-19T11:05:51Z</time>
      </trkpt>
      <trkpt lat="46.97696" lon="5.93438">
        <ele>576</ele>
        <time>2019-09-19T11:05:58Z</time>
      </trkpt>
      <trkpt lat="46.97691" lon="5.93439">
        <ele>575</ele>
        <time>2019-09-19T11:06:06Z</time>
      </trkpt>
      <trkpt lat="46.97686" lon="5.93448">
        <ele>574</ele>
        <time>2019-09-19T11:06:18Z</time>
      </trkpt>
      <trkpt lat="46.97679" lon="5.93455">
        <ele>575</ele>
        <time>2019-09-19T11:06:30Z</time>
      </trkpt>
      <trkpt lat="46.97675" lon="5.93458">
        <ele>575</ele>
        <time>2019-09-19T11:06:35Z</time>
      </trkpt>
      <trkpt lat="46.9767" lon="5.93459">
        <ele>573</ele>
        <time>2019-09-19T11:06:43Z</time>
      </trkpt>
      <trkpt lat="46.97659" lon="5.93467">
        <ele>573</ele>
        <time>2019-09-19T11:07:01Z</time>
      </trkpt>
      <trkpt lat="46.97647" lon="5.9348">
        <ele>571</ele>
        <time>2019-09-19T11:07:23Z</time>
      </trkpt>
      <trkpt lat="46.97638" lon="5.93485">
        <ele>571</ele>
        <time>2019-09-19T11:07:37Z</time>
      </trkpt>
      <trkpt lat="46.97629" lon="5.9349">
        <ele>569</ele>
        <time>2019-09-19T11:07:47Z</time>
      </trkpt>
      <trkpt lat="46.97626" lon="5.93497">
        <ele>569</ele>
        <time>2019-09-19T11:07:53Z</time>
      </trkpt>
      <trkpt lat="46.97625" lon="5.93506">
        <ele>567</ele>
        <time>2019-09-19T11:08:00Z</time>
      </trkpt>
      <trkpt lat="46.97626" lon="5.93518">
        <ele>566</ele>
        <time>2019-09-19T11:08:09Z</time>
      </trkpt>
      <trkpt lat="46.97624" lon="5.93531">
        <ele>565</ele>
        <time>2019-09-19T11:08:18Z</time>
      </trkpt>
      <trkpt lat="46.97622" lon="5.93538">
        <ele>563</ele>
        <time>2019-09-19T11:08:23Z</time>
      </trkpt>
      <trkpt lat="46.9762" lon="5.93545">
        <ele>563</ele>
        <time>2019-09-19T11:08:29Z</time>
      </trkpt>
      <trkpt lat="46.97617" lon="5.93561">
        <ele>561</ele>
        <time>2019-09-19T11:08:41Z</time>
      </trkpt>
      <trkpt lat="46.97616" lon="5.93568">
        <ele>561</ele>
        <time>2019-09-19T11:08:46Z</time>
      </trkpt>
      <trkpt lat="46.97614" lon="5.93575">
        <ele>561</ele>
        <time>2019-09-19T11:08:51Z</time>
      </trkpt>
      <trkpt lat="46.97613" lon="5.93591">
        <ele>560</ele>
        <time>2019-09-19T11:09:01Z</time>
      </trkpt>
      <trkpt lat="46.97613" lon="5.93606">
        <ele>561</ele>
        <time>2019-09-19T11:09:11Z</time>
      </trkpt>
      <trkpt lat="46.97613" lon="5.93615">
        <ele>560</ele>
        <time>2019-09-19T11:09:16Z</time>
      </trkpt>
      <trkpt lat="46.97614" lon="5.93623">
        <ele>561</ele>
        <time>2019-09-19T11:09:21Z</time>
      </trkpt>
      <trkpt lat="46.97615" lon="5.9363">
        <ele>560</ele>
        <time>2019-09-19T11:09:26Z</time>
      </trkpt>
      <trkpt lat="46.97615" lon="5.93638">
        <ele>560</ele>
        <time>2019-09-19T11:09:31Z</time>
      </trkpt>
      <trkpt lat="46.97615" lon="5.93646">
        <ele>560</ele>
        <time>2019-09-19T11:09:36Z</time>
      </trkpt>
      <trkpt lat="46.97615" lon="5.93654">
        <ele>560</ele>
        <time>2019-09-19T11:09:41Z</time>
      </trkpt>
      <trkpt lat="46.97617" lon="5.93667">
        <ele>560</ele>
        <time>2019-09-19T11:09:49Z</time>
      </trkpt>
      <trkpt lat="46.97617" lon="5.93683">
        <ele>559</ele>
        <time>2019-09-19T11:09:59Z</time>
      </trkpt>
      <trkpt lat="46.97618" lon="5.9369">
        <ele>559</ele>
        <time>2019-09-19T11:10:04Z</time>
      </trkpt>
      <trkpt lat="46.9762" lon="5.93705">
        <ele>558</ele>
        <time>2019-09-19T11:10:14Z</time>
      </trkpt>
      <trkpt lat="46.97621" lon="5.93712">
        <ele>558</ele>
        <time>2019-09-19T11:10:18Z</time>
      </trkpt>
      <trkpt lat="46.97621" lon="5.93733">
        <ele>558</ele>
        <time>2019-09-19T11:10:31Z</time>
      </trkpt>
      <trkpt lat="46.97622" lon="5.93739">
        <ele>559</ele>
        <time>2019-09-19T11:10:35Z</time>
      </trkpt>
      <trkpt lat="46.97623" lon="5.93747">
        <ele>559</ele>
        <time>2019-09-19T11:10:39Z</time>
      </trkpt>
      <trkpt lat="46.97625" lon="5.93769">
        <ele>561</ele>
        <time>2019-09-19T11:11:01Z</time>
      </trkpt>
      <trkpt lat="46.97625" lon="5.93779">
        <ele>561</ele>
        <time>2019-09-19T11:11:12Z</time>
      </trkpt>
      <trkpt lat="46.97627" lon="5.93788">
        <ele>561</ele>
        <time>2019-09-19T11:11:19Z</time>
      </trkpt>
      <trkpt lat="46.97628" lon="5.93796">
        <ele>561</ele>
        <time>2019-09-19T11:11:24Z</time>
      </trkpt>
      <trkpt lat="46.97633" lon="5.93824">
        <ele>560</ele>
        <time>2019-09-19T11:11:41Z</time>
      </trkpt>
      <trkpt lat="46.97636" lon="5.9383">
        <ele>559</ele>
        <time>2019-09-19T11:11:46Z</time>
      </trkpt>
      <trkpt lat="46.97638" lon="5.93843">
        <ele>558</ele>
        <time>2019-09-19T11:11:59Z</time>
      </trkpt>
      <trkpt lat="46.97642" lon="5.93849">
        <ele>558</ele>
        <time>2019-09-19T11:12:04Z</time>
      </trkpt>
      <trkpt lat="46.97644" lon="5.93856">
        <ele>557</ele>
        <time>2019-09-19T11:12:09Z</time>
      </trkpt>
      <trkpt lat="46.97648" lon="5.93862">
        <ele>557</ele>
        <time>2019-09-19T11:12:14Z</time>
      </trkpt>
      <trkpt lat="46.97656" lon="5.93875">
        <ele>555</ele>
        <time>2019-09-19T11:12:26Z</time>
      </trkpt>
      <trkpt lat="46.97665" lon="5.93886">
        <ele>555</ele>
        <time>2019-09-19T11:12:39Z</time>
      </trkpt>
      <trkpt lat="46.97669" lon="5.93891">
        <ele>555</ele>
        <time>2019-09-19T11:12:43Z</time>
      </trkpt>
      <trkpt lat="46.97672" lon="5.93896">
        <ele>555</ele>
        <time>2019-09-19T11:12:47Z</time>
      </trkpt>
      <trkpt lat="46.9768" lon="5.93903">
        <ele>554</ele>
        <time>2019-09-19T11:12:55Z</time>
      </trkpt>
      <trkpt lat="46.97691" lon="5.93912">
        <ele>555</ele>
        <time>2019-09-19T11:13:08Z</time>
      </trkpt>
      <trkpt lat="46.97698" lon="5.93921">
        <ele>554</ele>
        <time>2019-09-19T11:13:17Z</time>
      </trkpt>
      <trkpt lat="46.97715" lon="5.93929">
        <ele>553</ele>
        <time>2019-09-19T11:13:34Z</time>
      </trkpt>
      <trkpt lat="46.97723" lon="5.93934">
        <ele>554</ele>
        <time>2019-09-19T11:13:41Z</time>
      </trkpt>
      <trkpt lat="46.97742" lon="5.93947">
        <ele>553</ele>
        <time>2019-09-19T11:14:00Z</time>
      </trkpt>
      <trkpt lat="46.97769" lon="5.93971">
        <ele>551</ele>
        <time>2019-09-19T11:14:31Z</time>
      </trkpt>
      <trkpt lat="46.97778" lon="5.93976">
        <ele>550</ele>
        <time>2019-09-19T11:14:41Z</time>
      </trkpt>
      <trkpt lat="46.97785" lon="5.93983">
        <ele>549</ele>
        <time>2019-09-19T11:14:48Z</time>
      </trkpt>
      <trkpt lat="46.97801" lon="5.94003">
        <ele>551</ele>
        <time>2019-09-19T11:15:12Z</time>
      </trkpt>
      <trkpt lat="46.97806" lon="5.94015">
        <ele>550</ele>
        <time>2019-09-19T11:15:20Z</time>
      </trkpt>
      <trkpt lat="46.97812" lon="5.94029">
        <ele>551</ele>
        <time>2019-09-19T11:15:37Z</time>
      </trkpt>
      <trkpt lat="46.97824" lon="5.94041">
        <ele>551</ele>
        <time>2019-09-19T11:15:51Z</time>
      </trkpt>
      <trkpt lat="46.9783" lon="5.94051">
        <ele>551</ele>
        <time>2019-09-19T11:15:58Z</time>
      </trkpt>
      <trkpt lat="46.97838" lon="5.94058">
        <ele>550</ele>
        <time>2019-09-19T11:16:05Z</time>
      </trkpt>
      <trkpt lat="46.97853" lon="5.94085">
        <ele>545</ele>
        <time>2019-09-19T11:16:28Z</time>
      </trkpt>
      <trkpt lat="46.97858" lon="5.94101">
        <ele>544</ele>
        <time>2019-09-19T11:16:40Z</time>
      </trkpt>
      <trkpt lat="46.97865" lon="5.94111">
        <ele>544</ele>
        <time>2019-09-19T11:16:49Z</time>
      </trkpt>
      <trkpt lat="46.97869" lon="5.94132">
        <ele>543</ele>
        <time>2019-09-19T11:17:05Z</time>
      </trkpt>
      <trkpt lat="46.97875" lon="5.94141">
        <ele>543</ele>
        <time>2019-09-19T11:17:13Z</time>
      </trkpt>
      <trkpt lat="46.9788" lon="5.94153">
        <ele>544</ele>
        <time>2019-09-19T11:17:23Z</time>
      </trkpt>
      <trkpt lat="46.97888" lon="5.94174">
        <ele>542</ele>
        <time>2019-09-19T11:17:40Z</time>
      </trkpt>
      <trkpt lat="46.97908" lon="5.94201">
        <ele>542</ele>
        <time>2019-09-19T11:18:05Z</time>
      </trkpt>
      <trkpt lat="46.97915" lon="5.9421">
        <ele>543</ele>
        <time>2019-09-19T11:18:13Z</time>
      </trkpt>
      <trkpt lat="46.97921" lon="5.94221">
        <ele>541</ele>
        <time>2019-09-19T11:18:21Z</time>
      </trkpt>
      <trkpt lat="46.97925" lon="5.94233">
        <ele>540</ele>
        <time>2019-09-19T11:18:30Z</time>
      </trkpt>
      <trkpt lat="46.97933" lon="5.94246">
        <ele>540</ele>
        <time>2019-09-19T11:18:42Z</time>
      </trkpt>
      <trkpt lat="46.97947" lon="5.94264">
        <ele>539</ele>
        <time>2019-09-19T11:18:58Z</time>
      </trkpt>
      <trkpt lat="46.97951" lon="5.94276">
        <ele>538</ele>
        <time>2019-09-19T11:19:07Z</time>
      </trkpt>
      <trkpt lat="46.97959" lon="5.94284">
        <ele>537</ele>
        <time>2019-09-19T11:19:15Z</time>
      </trkpt>
      <trkpt lat="46.97976" lon="5.94293">
        <ele>536</ele>
        <time>2019-09-19T11:19:27Z</time>
      </trkpt>
      <trkpt lat="46.97982" lon="5.94304">
        <ele>535</ele>
        <time>2019-09-19T11:19:37Z</time>
      </trkpt>
      <trkpt lat="46.97984" lon="5.94317">
        <ele>535</ele>
        <time>2019-09-19T11:19:45Z</time>
      </trkpt>
      <trkpt lat="46.97988" lon="5.94329">
        <ele>535</ele>
        <time>2019-09-19T11:19:54Z</time>
      </trkpt>
      <trkpt lat="46.97996" lon="5.94338">
        <ele>535</ele>
        <time>2019-09-19T11:20:04Z</time>
      </trkpt>
      <trkpt lat="46.98003" lon="5.94346">
        <ele>534</ele>
        <time>2019-09-19T11:20:11Z</time>
      </trkpt>
      <trkpt lat="46.98009" lon="5.9436">
        <ele>534</ele>
        <time>2019-09-19T11:20:23Z</time>
      </trkpt>
      <trkpt lat="46.9803" lon="5.94366">
        <ele>532</ele>
        <time>2019-09-19T11:20:44Z</time>
      </trkpt>
      <trkpt lat="46.98041" lon="5.94364">
        <ele>531</ele>
        <time>2019-09-19T11:20:55Z</time>
      </trkpt>
      <trkpt lat="46.98049" lon="5.9436">
        <ele>532</ele>
        <time>2019-09-19T11:21:05Z</time>
      </trkpt>
      <trkpt lat="46.9806" lon="5.94352">
        <ele>532</ele>
        <time>2019-09-19T11:21:13Z</time>
      </trkpt>
      <trkpt lat="46.98075" lon="5.94334">
        <ele>531</ele>
        <time>2019-09-19T11:21:31Z</time>
      </trkpt>
      <trkpt lat="46.98079" lon="5.94321">
        <ele>530</ele>
        <time>2019-09-19T11:21:41Z</time>
      </trkpt>
      <trkpt lat="46.98081" lon="5.94308">
        <ele>530</ele>
        <time>2019-09-19T11:21:50Z</time>
      </trkpt>
      <trkpt lat="46.98088" lon="5.94284">
        <ele>528</ele>
        <time>2019-09-19T11:23:07Z</time>
      </trkpt>
      <trkpt lat="46.98089" lon="5.9427">
        <ele>529</ele>
        <time>2019-09-19T11:23:17Z</time>
      </trkpt>
      <trkpt lat="46.98088" lon="5.94249">
        <ele>528</ele>
        <time>2019-09-19T11:23:32Z</time>
      </trkpt>
      <trkpt lat="46.9809" lon="5.94232">
        <ele>527</ele>
        <time>2019-09-19T11:23:54Z</time>
      </trkpt>
      <trkpt lat="46.98093" lon="5.94218">
        <ele>527</ele>
        <time>2019-09-19T11:24:12Z</time>
      </trkpt>
      <trkpt lat="46.98118" lon="5.94199">
        <ele>529</ele>
        <time>2019-09-19T11:24:43Z</time>
      </trkpt>
      <trkpt lat="46.98127" lon="5.94193">
        <ele>529</ele>
        <time>2019-09-19T11:24:58Z</time>
      </trkpt>
      <trkpt lat="46.98117" lon="5.94196">
        <ele>530</ele>
        <time>2019-09-19T11:27:19Z</time>
      </trkpt>
      <trkpt lat="46.98105" lon="5.94195">
        <ele>531</ele>
        <time>2019-09-19T11:27:35Z</time>
      </trkpt>
      <trkpt lat="46.98092" lon="5.94207">
        <ele>530</ele>
        <time>2019-09-19T11:27:56Z</time>
      </trkpt>
      <trkpt lat="46.98088" lon="5.94224">
        <ele>530</ele>
        <time>2019-09-19T11:28:12Z</time>
      </trkpt>
      <trkpt lat="46.98084" lon="5.94236">
        <ele>531</ele>
        <time>2019-09-19T11:28:21Z</time>
      </trkpt>
      <trkpt lat="46.98083" lon="5.94255">
        <ele>530</ele>
        <time>2019-09-19T11:28:36Z</time>
      </trkpt>
      <trkpt lat="46.98078" lon="5.94291">
        <ele>530</ele>
        <time>2019-09-19T11:29:01Z</time>
      </trkpt>
      <trkpt lat="46.9807" lon="5.94321">
        <ele>528</ele>
        <time>2019-09-19T11:29:30Z</time>
      </trkpt>
      <trkpt lat="46.98063" lon="5.94332">
        <ele>527</ele>
        <time>2019-09-19T11:29:42Z</time>
      </trkpt>
      <trkpt lat="46.98058" lon="5.94342">
        <ele>530</ele>
        <time>2019-09-19T11:29:55Z</time>
      </trkpt>
      <trkpt lat="46.98044" lon="5.94355">
        <ele>530</ele>
        <time>2019-09-19T11:30:16Z</time>
      </trkpt>
      <trkpt lat="46.98034" lon="5.94355">
        <ele>531</ele>
        <time>2019-09-19T11:30:24Z</time>
      </trkpt>
      <trkpt lat="46.98022" lon="5.94363">
        <ele>532</ele>
        <time>2019-09-19T11:30:40Z</time>
      </trkpt>
      <trkpt lat="46.98014" lon="5.94357">
        <ele>532</ele>
        <time>2019-09-19T11:30:48Z</time>
      </trkpt>
      <trkpt lat="46.98001" lon="5.94357">
        <ele>531</ele>
        <time>2019-09-19T11:31:04Z</time>
      </trkpt>
      <trkpt lat="46.98003" lon="5.94371">
        <ele>530</ele>
        <time>2019-09-19T11:31:11Z</time>
      </trkpt>
      <trkpt lat="46.98008" lon="5.94383">
        <ele>530</ele>
        <time>2019-09-19T11:31:20Z</time>
      </trkpt>
      <trkpt lat="46.98004" lon="5.94393">
        <ele>524</ele>
        <time>2019-09-19T11:34:49Z</time>
      </trkpt>
      <trkpt lat="46.97997" lon="5.94399">
        <ele>528</ele>
        <time>2019-09-19T11:35:12Z</time>
      </trkpt>
      <trkpt lat="46.97994" lon="5.94404">
        <ele>527</ele>
        <time>2019-09-19T11:35:16Z</time>
      </trkpt>
      <trkpt lat="46.97991" lon="5.9441">
        <ele>527</ele>
        <time>2019-09-19T11:35:21Z</time>
      </trkpt>
      <trkpt lat="46.97989" lon="5.94419">
        <ele>528</ele>
        <time>2019-09-19T11:35:30Z</time>
      </trkpt>
      <trkpt lat="46.97987" lon="5.94426">
        <ele>527</ele>
        <time>2019-09-19T11:35:35Z</time>
      </trkpt>
      <trkpt lat="46.97986" lon="5.94437">
        <ele>527</ele>
        <time>2019-09-19T11:35:54Z</time>
      </trkpt>
      <trkpt lat="46.97985" lon="5.94445">
        <ele>527</ele>
        <time>2019-09-19T11:35:59Z</time>
      </trkpt>
      <trkpt lat="46.97985" lon="5.94452">
        <ele>528</ele>
        <time>2019-09-19T11:36:10Z</time>
      </trkpt>
      <trkpt lat="46.97983" lon="5.94478">
        <ele>530</ele>
        <time>2019-09-19T11:36:33Z</time>
      </trkpt>
      <trkpt lat="46.97982" lon="5.94495">
        <ele>531</ele>
        <time>2019-09-19T11:36:46Z</time>
      </trkpt>
      <trkpt lat="46.97981" lon="5.94523">
        <ele>535</ele>
        <time>2019-09-19T11:37:04Z</time>
      </trkpt>
      <trkpt lat="46.9798" lon="5.94536">
        <ele>537</ele>
        <time>2019-09-19T11:37:44Z</time>
      </trkpt>
      <trkpt lat="46.97982" lon="5.94559">
        <ele>537</ele>
        <time>2019-09-19T11:38:06Z</time>
      </trkpt>
      <trkpt lat="46.97984" lon="5.94573">
        <ele>538</ele>
        <time>2019-09-19T11:38:15Z</time>
      </trkpt>
      <trkpt lat="46.97986" lon="5.94608">
        <ele>536</ele>
        <time>2019-09-19T11:38:51Z</time>
      </trkpt>
      <trkpt lat="46.97988" lon="5.94624">
        <ele>539</ele>
        <time>2019-09-19T11:39:02Z</time>
      </trkpt>
      <trkpt lat="46.97993" lon="5.94636">
        <ele>541</ele>
        <time>2019-09-19T11:39:11Z</time>
      </trkpt>
      <trkpt lat="46.97996" lon="5.9465">
        <ele>540</ele>
        <time>2019-09-19T11:39:21Z</time>
      </trkpt>
      <trkpt lat="46.98005" lon="5.94675">
        <ele>542</ele>
        <time>2019-09-19T11:39:36Z</time>
      </trkpt>
      <trkpt lat="46.98001" lon="5.94704">
        <ele>543</ele>
        <time>2019-09-19T11:39:55Z</time>
      </trkpt>
      <trkpt lat="46.98005" lon="5.94716">
        <ele>543</ele>
        <time>2019-09-19T11:40:02Z</time>
      </trkpt>
      <trkpt lat="46.98026" lon="5.94745">
        <ele>544</ele>
        <time>2019-09-19T11:40:25Z</time>
      </trkpt>
      <trkpt lat="46.98031" lon="5.94755">
        <ele>545</ele>
        <time>2019-09-19T11:40:32Z</time>
      </trkpt>
      <trkpt lat="46.98034" lon="5.94768">
        <ele>546</ele>
        <time>2019-09-19T11:40:40Z</time>
      </trkpt>
      <trkpt lat="46.98043" lon="5.94777">
        <ele>546</ele>
        <time>2019-09-19T11:40:48Z</time>
      </trkpt>
      <trkpt lat="46.98046" lon="5.94789">
        <ele>546</ele>
        <time>2019-09-19T11:40:55Z</time>
      </trkpt>
      <trkpt lat="46.98058" lon="5.94812">
        <ele>547</ele>
        <time>2019-09-19T11:41:10Z</time>
      </trkpt>
      <trkpt lat="46.9808" lon="5.94859">
        <ele>544</ele>
        <time>2019-09-19T11:41:48Z</time>
      </trkpt>
      <trkpt lat="46.98085" lon="5.94871">
        <ele>543</ele>
        <time>2019-09-19T11:41:57Z</time>
      </trkpt>
      <trkpt lat="46.98091" lon="5.94879">
        <ele>543</ele>
        <time>2019-09-19T11:42:10Z</time>
      </trkpt>
      <trkpt lat="46.98096" lon="5.94881">
        <ele>543</ele>
        <time>2019-09-19T11:42:15Z</time>
      </trkpt>
      <trkpt lat="46.981" lon="5.94888">
        <ele>542</ele>
        <time>2019-09-19T11:42:23Z</time>
      </trkpt>
      <trkpt lat="46.98104" lon="5.94893">
        <ele>542</ele>
        <time>2019-09-19T11:42:28Z</time>
      </trkpt>
      <trkpt lat="46.98108" lon="5.94895">
        <ele>542</ele>
        <time>2019-09-19T11:42:33Z</time>
      </trkpt>
      <trkpt lat="46.98114" lon="5.94895">
        <ele>543</ele>
        <time>2019-09-19T11:42:41Z</time>
      </trkpt>
      <trkpt lat="46.9812" lon="5.94896">
        <ele>543</ele>
        <time>2019-09-19T11:42:47Z</time>
      </trkpt>
      <trkpt lat="46.98124" lon="5.94899">
        <ele>542</ele>
        <time>2019-09-19T11:42:52Z</time>
      </trkpt>
      <trkpt lat="46.98134" lon="5.94904">
        <ele>542</ele>
        <time>2019-09-19T11:43:05Z</time>
      </trkpt>
      <trkpt lat="46.9814" lon="5.94911">
        <ele>543</ele>
        <time>2019-09-19T11:43:13Z</time>
      </trkpt>
      <trkpt lat="46.98143" lon="5.94916">
        <ele>543</ele>
        <time>2019-09-19T11:43:18Z</time>
      </trkpt>
      <trkpt lat="46.98143" lon="5.94923">
        <ele>542</ele>
        <time>2019-09-19T11:43:22Z</time>
      </trkpt>
      <trkpt lat="46.98144" lon="5.9493">
        <ele>541</ele>
        <time>2019-09-19T11:43:27Z</time>
      </trkpt>
      <trkpt lat="46.98149" lon="5.94948">
        <ele>541</ele>
        <time>2019-09-19T11:43:40Z</time>
      </trkpt>
      <trkpt lat="46.98151" lon="5.94954">
        <ele>540</ele>
        <time>2019-09-19T11:43:45Z</time>
      </trkpt>
      <trkpt lat="46.98156" lon="5.94959">
        <ele>541</ele>
        <time>2019-09-19T11:43:53Z</time>
      </trkpt>
      <trkpt lat="46.98158" lon="5.94966">
        <ele>541</ele>
        <time>2019-09-19T11:43:59Z</time>
      </trkpt>
      <trkpt lat="46.98162" lon="5.94974">
        <ele>541</ele>
        <time>2019-09-19T11:44:07Z</time>
      </trkpt>
      <trkpt lat="46.98172" lon="5.94989">
        <ele>542</ele>
        <time>2019-09-19T11:44:18Z</time>
      </trkpt>
      <trkpt lat="46.98175" lon="5.95006">
        <ele>542</ele>
        <time>2019-09-19T11:44:29Z</time>
      </trkpt>
      <trkpt lat="46.98179" lon="5.95013">
        <ele>542</ele>
        <time>2019-09-19T11:44:36Z</time>
      </trkpt>
      <trkpt lat="46.98182" lon="5.95036">
        <ele>545</ele>
        <time>2019-09-19T11:44:53Z</time>
      </trkpt>
      <trkpt lat="46.98187" lon="5.95047">
        <ele>546</ele>
        <time>2019-09-19T11:45:03Z</time>
      </trkpt>
      <trkpt lat="46.98198" lon="5.95088">
        <ele>550</ele>
        <time>2019-09-19T11:45:34Z</time>
      </trkpt>
      <trkpt lat="46.982" lon="5.95106">
        <ele>550</ele>
        <time>2019-09-19T11:45:46Z</time>
      </trkpt>
      <trkpt lat="46.982" lon="5.95139">
        <ele>551</ele>
        <time>2019-09-19T11:46:06Z</time>
      </trkpt>
      <trkpt lat="46.98202" lon="5.95165">
        <ele>553</ele>
        <time>2019-09-19T11:46:23Z</time>
      </trkpt>
      <trkpt lat="46.982" lon="5.9518">
        <ele>553</ele>
        <time>2019-09-19T11:46:30Z</time>
      </trkpt>
      <trkpt lat="46.982" lon="5.95193">
        <ele>554</ele>
        <time>2019-09-19T11:46:39Z</time>
      </trkpt>
      <trkpt lat="46.98203" lon="5.95208">
        <ele>556</ele>
        <time>2019-09-19T11:46:52Z</time>
      </trkpt>
      <trkpt lat="46.98205" lon="5.95222">
        <ele>556</ele>
        <time>2019-09-19T11:47:00Z</time>
      </trkpt>
      <trkpt lat="46.98208" lon="5.95234">
        <ele>557</ele>
        <time>2019-09-19T11:47:09Z</time>
      </trkpt>
      <trkpt lat="46.98212" lon="5.9529">
        <ele>559</ele>
        <time>2019-09-19T11:47:45Z</time>
      </trkpt>
      <trkpt lat="46.98212" lon="5.95304">
        <ele>559</ele>
        <time>2019-09-19T11:47:54Z</time>
      </trkpt>
      <trkpt lat="46.98212" lon="5.95333">
        <ele>562</ele>
        <time>2019-09-19T11:48:13Z</time>
      </trkpt>
      <trkpt lat="46.98222" lon="5.95374">
        <ele>565</ele>
        <time>2019-09-19T11:48:41Z</time>
      </trkpt>
      <trkpt lat="46.98226" lon="5.95387">
        <ele>565</ele>
        <time>2019-09-19T11:48:51Z</time>
      </trkpt>
      <trkpt lat="46.98229" lon="5.954">
        <ele>564</ele>
        <time>2019-09-19T11:49:00Z</time>
      </trkpt>
      <trkpt lat="46.98235" lon="5.95411">
        <ele>565</ele>
        <time>2019-09-19T11:49:09Z</time>
      </trkpt>
      <trkpt lat="46.98239" lon="5.95422">
        <ele>564</ele>
        <time>2019-09-19T11:49:15Z</time>
      </trkpt>
      <trkpt lat="46.98245" lon="5.95437">
        <ele>565</ele>
        <time>2019-09-19T11:49:30Z</time>
      </trkpt>
      <trkpt lat="46.98247" lon="5.95447">
        <ele>566</ele>
        <time>2019-09-19T11:49:54Z</time>
      </trkpt>
      <trkpt lat="46.98247" lon="5.95459">
        <ele>566</ele>
        <time>2019-09-19T11:50:05Z</time>
      </trkpt>
      <trkpt lat="46.98248" lon="5.95468">
        <ele>567</ele>
        <time>2019-09-19T11:50:13Z</time>
      </trkpt>
      <trkpt lat="46.98248" lon="5.95475">
        <ele>567</ele>
        <time>2019-09-19T11:50:17Z</time>
      </trkpt>
      <trkpt lat="46.98247" lon="5.95485">
        <ele>568</ele>
        <time>2019-09-19T11:50:22Z</time>
      </trkpt>
      <trkpt lat="46.98248" lon="5.95492">
        <ele>569</ele>
        <time>2019-09-19T11:50:27Z</time>
      </trkpt>
      <trkpt lat="46.98248" lon="5.955">
        <ele>569</ele>
        <time>2019-09-19T11:50:32Z</time>
      </trkpt>
      <trkpt lat="46.9825" lon="5.95508">
        <ele>569</ele>
        <time>2019-09-19T11:50:39Z</time>
      </trkpt>
      <trkpt lat="46.98253" lon="5.95524">
        <ele>570</ele>
        <time>2019-09-19T11:50:50Z</time>
      </trkpt>
      <trkpt lat="46.98253" lon="5.95532">
        <ele>571</ele>
        <time>2019-09-19T11:50:55Z</time>
      </trkpt>
      <trkpt lat="46.98252" lon="5.95539">
        <ele>571</ele>
        <time>2019-09-19T11:50:59Z</time>
      </trkpt>
      <trkpt lat="46.98252" lon="5.95546">
        <ele>572</ele>
        <time>2019-09-19T11:51:03Z</time>
      </trkpt>
      <trkpt lat="46.98253" lon="5.95561">
        <ele>573</ele>
        <time>2019-09-19T11:51:13Z</time>
      </trkpt>
      <trkpt lat="46.98254" lon="5.95569">
        <ele>574</ele>
        <time>2019-09-19T11:51:18Z</time>
      </trkpt>
      <trkpt lat="46.98255" lon="5.95577">
        <ele>573</ele>
        <time>2019-09-19T11:51:23Z</time>
      </trkpt>
      <trkpt lat="46.98256" lon="5.95584">
        <ele>574</ele>
        <time>2019-09-19T11:51:28Z</time>
      </trkpt>
      <trkpt lat="46.98258" lon="5.95598">
        <ele>574</ele>
        <time>2019-09-19T11:51:39Z</time>
      </trkpt>
      <trkpt lat="46.98262" lon="5.95602">
        <ele>574</ele>
        <time>2019-09-19T11:51:43Z</time>
      </trkpt>
      <trkpt lat="46.98267" lon="5.95621">
        <ele>576</ele>
        <time>2019-09-19T11:51:58Z</time>
      </trkpt>
      <trkpt lat="46.98274" lon="5.95641">
        <ele>577</ele>
        <time>2019-09-19T11:52:13Z</time>
      </trkpt>
      <trkpt lat="46.98275" lon="5.95649">
        <ele>577</ele>
        <time>2019-09-19T11:52:18Z</time>
      </trkpt>
      <trkpt lat="46.98279" lon="5.95655">
        <ele>577</ele>
        <time>2019-09-19T11:52:23Z</time>
      </trkpt>
      <trkpt lat="46.98283" lon="5.95667">
        <ele>577</ele>
        <time>2019-09-19T11:52:32Z</time>
      </trkpt>
      <trkpt lat="46.98286" lon="5.95673">
        <ele>578</ele>
        <time>2019-09-19T11:52:37Z</time>
      </trkpt>
      <trkpt lat="46.98289" lon="5.95685">
        <ele>579</ele>
        <time>2019-09-19T11:52:47Z</time>
      </trkpt>
      <trkpt lat="46.98292" lon="5.95691">
        <ele>578</ele>
        <time>2019-09-19T11:52:55Z</time>
      </trkpt>
      <trkpt lat="46.98293" lon="5.95699">
        <ele>579</ele>
        <time>2019-09-19T11:53:07Z</time>
      </trkpt>
      <trkpt lat="46.98297" lon="5.95702">
        <ele>579</ele>
        <time>2019-09-19T11:53:37Z</time>
      </trkpt>
      <trkpt lat="46.98301" lon="5.95707">
        <ele>579</ele>
        <time>2019-09-19T11:54:36Z</time>
      </trkpt>
      <trkpt lat="46.98302" lon="5.95715">
        <ele>579</ele>
        <time>2019-09-19T11:54:41Z</time>
      </trkpt>
      <trkpt lat="46.98303" lon="5.95722">
        <ele>580</ele>
        <time>2019-09-19T11:54:45Z</time>
      </trkpt>
      <trkpt lat="46.98306" lon="5.9573">
        <ele>581</ele>
        <time>2019-09-19T11:54:52Z</time>
      </trkpt>
      <trkpt lat="46.98307" lon="5.95738">
        <ele>582</ele>
        <time>2019-09-19T11:54:57Z</time>
      </trkpt>
      <trkpt lat="46.98308" lon="5.95745">
        <ele>582</ele>
        <time>2019-09-19T11:55:02Z</time>
      </trkpt>
      <trkpt lat="46.9831" lon="5.95755">
        <ele>581</ele>
        <time>2019-09-19T11:55:10Z</time>
      </trkpt>
      <trkpt lat="46.98312" lon="5.95777">
        <ele>585</ele>
        <time>2019-09-19T11:55:26Z</time>
      </trkpt>
      <trkpt lat="46.98317" lon="5.9579">
        <ele>586</ele>
        <time>2019-09-19T11:55:35Z</time>
      </trkpt>
      <trkpt lat="46.98319" lon="5.95798">
        <ele>586</ele>
        <time>2019-09-19T11:55:40Z</time>
      </trkpt>
      <trkpt lat="46.9832" lon="5.95804">
        <ele>586</ele>
        <time>2019-09-19T11:55:44Z</time>
      </trkpt>
      <trkpt lat="46.98325" lon="5.95816">
        <ele>586</ele>
        <time>2019-09-19T11:55:53Z</time>
      </trkpt>
      <trkpt lat="46.98326" lon="5.95823">
        <ele>587</ele>
        <time>2019-09-19T11:55:58Z</time>
      </trkpt>
      <trkpt lat="46.98327" lon="5.95829">
        <ele>586</ele>
        <time>2019-09-19T11:56:02Z</time>
      </trkpt>
      <trkpt lat="46.98329" lon="5.95836">
        <ele>587</ele>
        <time>2019-09-19T11:56:07Z</time>
      </trkpt>
      <trkpt lat="46.98331" lon="5.95845">
        <ele>587</ele>
        <time>2019-09-19T11:56:13Z</time>
      </trkpt>
      <trkpt lat="46.98335" lon="5.9585">
        <ele>587</ele>
        <time>2019-09-19T11:56:18Z</time>
      </trkpt>
      <trkpt lat="46.98338" lon="5.95856">
        <ele>587</ele>
        <time>2019-09-19T11:56:23Z</time>
      </trkpt>
      <trkpt lat="46.98342" lon="5.95863">
        <ele>589</ele>
        <time>2019-09-19T11:56:30Z</time>
      </trkpt>
      <trkpt lat="46.98344" lon="5.9587">
        <ele>590</ele>
        <time>2019-09-19T11:56:35Z</time>
      </trkpt>
      <trkpt lat="46.98345" lon="5.95877">
        <ele>590</ele>
        <time>2019-09-19T11:56:44Z</time>
      </trkpt>
      <trkpt lat="46.98347" lon="5.95884">
        <ele>591</ele>
        <time>2019-09-19T11:56:49Z</time>
      </trkpt>
      <trkpt lat="46.98352" lon="5.95912">
        <ele>595</ele>
        <time>2019-09-19T11:57:07Z</time>
      </trkpt>
      <trkpt lat="46.98356" lon="5.95924">
        <ele>595</ele>
        <time>2019-09-19T11:57:16Z</time>
      </trkpt>
      <trkpt lat="46.98361" lon="5.95936">
        <ele>595</ele>
        <time>2019-09-19T11:57:25Z</time>
      </trkpt>
      <trkpt lat="46.98365" lon="5.95945">
        <ele>594</ele>
        <time>2019-09-19T11:57:31Z</time>
      </trkpt>
      <trkpt lat="46.98368" lon="5.9595">
        <ele>593</ele>
        <time>2019-09-19T11:57:35Z</time>
      </trkpt>
      <trkpt lat="46.98374" lon="5.95961">
        <ele>593</ele>
        <time>2019-09-19T11:57:43Z</time>
      </trkpt>
      <trkpt lat="46.98375" lon="5.95967">
        <ele>593</ele>
        <time>2019-09-19T11:57:47Z</time>
      </trkpt>
      <trkpt lat="46.98379" lon="5.95974">
        <ele>593</ele>
        <time>2019-09-19T11:57:52Z</time>
      </trkpt>
      <trkpt lat="46.98385" lon="5.95985">
        <ele>592</ele>
        <time>2019-09-19T11:58:01Z</time>
      </trkpt>
      <trkpt lat="46.98393" lon="5.95994">
        <ele>592</ele>
        <time>2019-09-19T11:58:11Z</time>
      </trkpt>
      <trkpt lat="46.98397" lon="5.95998">
        <ele>592</ele>
        <time>2019-09-19T11:58:16Z</time>
      </trkpt>
      <trkpt lat="46.98412" lon="5.96003">
        <ele>595</ele>
        <time>2019-09-19T11:58:30Z</time>
      </trkpt>
      <trkpt lat="46.98417" lon="5.96003">
        <ele>595</ele>
        <time>2019-09-19T11:58:33Z</time>
      </trkpt>
      <trkpt lat="46.98422" lon="5.96001">
        <ele>595</ele>
        <time>2019-09-19T11:58:38Z</time>
      </trkpt>
      <trkpt lat="46.98432" lon="5.95998">
        <ele>595</ele>
        <time>2019-09-19T11:58:48Z</time>
      </trkpt>
      <trkpt lat="46.98443" lon="5.95993">
        <ele>596</ele>
        <time>2019-09-19T11:59:03Z</time>
      </trkpt>
      <trkpt lat="46.98454" lon="5.95988">
        <ele>595</ele>
        <time>2019-09-19T11:59:11Z</time>
      </trkpt>
      <trkpt lat="46.98463" lon="5.95984">
        <ele>596</ele>
        <time>2019-09-19T11:59:20Z</time>
      </trkpt>
      <trkpt lat="46.98472" lon="5.9598">
        <ele>596</ele>
        <time>2019-09-19T11:59:30Z</time>
      </trkpt>
      <trkpt lat="46.98484" lon="5.95979">
        <ele>596</ele>
        <time>2019-09-19T11:59:40Z</time>
      </trkpt>
      <trkpt lat="46.98489" lon="5.95977">
        <ele>596</ele>
        <time>2019-09-19T11:59:44Z</time>
      </trkpt>
      <trkpt lat="46.98494" lon="5.95976">
        <ele>595</ele>
        <time>2019-09-19T11:59:49Z</time>
      </trkpt>
      <trkpt lat="46.98499" lon="5.9597">
        <ele>595</ele>
        <time>2019-09-19T11:59:56Z</time>
      </trkpt>
      <trkpt lat="46.98503" lon="5.95966">
        <ele>595</ele>
        <time>2019-09-19T12:00:01Z</time>
      </trkpt>
      <trkpt lat="46.98509" lon="5.95955">
        <ele>595</ele>
        <time>2019-09-19T12:00:10Z</time>
      </trkpt>
      <trkpt lat="46.98511" lon="5.95949">
        <ele>595</ele>
        <time>2019-09-19T12:00:19Z</time>
      </trkpt>
      <trkpt lat="46.98516" lon="5.95945">
        <ele>594</ele>
        <time>2019-09-19T12:00:24Z</time>
      </trkpt>
      <trkpt lat="46.98519" lon="5.95938">
        <ele>594</ele>
        <time>2019-09-19T12:00:29Z</time>
      </trkpt>
      <trkpt lat="46.98526" lon="5.95929">
        <ele>592</ele>
        <time>2019-09-19T12:00:37Z</time>
      </trkpt>
      <trkpt lat="46.98531" lon="5.95916">
        <ele>591</ele>
        <time>2019-09-19T12:00:45Z</time>
      </trkpt>
      <trkpt lat="46.98533" lon="5.95911">
        <ele>591</ele>
        <time>2019-09-19T12:00:49Z</time>
      </trkpt>
      <trkpt lat="46.98535" lon="5.95905">
        <ele>591</ele>
        <time>2019-09-19T12:00:53Z</time>
      </trkpt>
      <trkpt lat="46.98543" lon="5.95892">
        <ele>593</ele>
        <time>2019-09-19T12:01:04Z</time>
      </trkpt>
      <trkpt lat="46.98547" lon="5.95889">
        <ele>594</ele>
        <time>2019-09-19T12:01:08Z</time>
      </trkpt>
      <trkpt lat="46.98568" lon="5.95881">
        <ele>595</ele>
        <time>2019-09-19T12:01:27Z</time>
      </trkpt>
      <trkpt lat="46.98573" lon="5.95878">
        <ele>594</ele>
        <time>2019-09-19T12:01:32Z</time>
      </trkpt>
      <trkpt lat="46.9858" lon="5.95874">
        <ele>593</ele>
        <time>2019-09-19T12:01:41Z</time>
      </trkpt>
      <trkpt lat="46.98585" lon="5.95876">
        <ele>592</ele>
        <time>2019-09-19T12:01:45Z</time>
      </trkpt>
      <trkpt lat="46.98594" lon="5.9588">
        <ele>593</ele>
        <time>2019-09-19T12:01:53Z</time>
      </trkpt>
      <trkpt lat="46.98603" lon="5.95886">
        <ele>591</ele>
        <time>2019-09-19T12:02:00Z</time>
      </trkpt>
      <trkpt lat="46.9861" lon="5.95894">
        <ele>591</ele>
        <time>2019-09-19T12:02:08Z</time>
      </trkpt>
      <trkpt lat="46.98639" lon="5.95915">
        <ele>590</ele>
        <time>2019-09-19T12:02:40Z</time>
      </trkpt>
      <trkpt lat="46.98651" lon="5.95928">
        <ele>590</ele>
        <time>2019-09-19T12:02:54Z</time>
      </trkpt>
      <trkpt lat="46.98669" lon="5.9594">
        <ele>593</ele>
        <time>2019-09-19T12:03:11Z</time>
      </trkpt>
      <trkpt lat="46.98677" lon="5.95947">
        <ele>593</ele>
        <time>2019-09-19T12:03:19Z</time>
      </trkpt>
      <trkpt lat="46.98696" lon="5.95962">
        <ele>595</ele>
        <time>2019-09-19T12:03:36Z</time>
      </trkpt>
      <trkpt lat="46.98707" lon="5.95967">
        <ele>597</ele>
        <time>2019-09-19T12:03:56Z</time>
      </trkpt>
      <trkpt lat="46.98719" lon="5.95975">
        <ele>592</ele>
        <time>2019-09-19T12:04:40Z</time>
      </trkpt>
      <trkpt lat="46.98731" lon="5.95987">
        <ele>593</ele>
        <time>2019-09-19T12:05:12Z</time>
      </trkpt>
      <trkpt lat="46.98738" lon="5.95995">
        <ele>594</ele>
        <time>2019-09-19T12:05:19Z</time>
      </trkpt>
      <trkpt lat="46.98744" lon="5.96005">
        <ele>594</ele>
        <time>2019-09-19T12:05:27Z</time>
      </trkpt>
      <trkpt lat="46.98751" lon="5.96014">
        <ele>595</ele>
        <time>2019-09-19T12:05:36Z</time>
      </trkpt>
      <trkpt lat="46.98759" lon="5.96021">
        <ele>595</ele>
        <time>2019-09-19T12:05:43Z</time>
      </trkpt>
      <trkpt lat="46.98767" lon="5.96032">
        <ele>596</ele>
        <time>2019-09-19T12:05:55Z</time>
      </trkpt>
      <trkpt lat="46.98775" lon="5.96046">
        <ele>597</ele>
        <time>2019-09-19T12:06:08Z</time>
      </trkpt>
      <trkpt lat="46.98778" lon="5.96054">
        <ele>597</ele>
        <time>2019-09-19T12:06:15Z</time>
      </trkpt>
      <trkpt lat="46.98781" lon="5.96061">
        <ele>597</ele>
        <time>2019-09-19T12:06:20Z</time>
      </trkpt>
      <trkpt lat="46.98783" lon="5.96067">
        <ele>597</ele>
        <time>2019-09-19T12:06:25Z</time>
      </trkpt>
      <trkpt lat="46.98786" lon="5.96074">
        <ele>598</ele>
        <time>2019-09-19T12:06:35Z</time>
      </trkpt>
      <trkpt lat="46.98792" lon="5.96084">
        <ele>598</ele>
        <time>2019-09-19T12:06:43Z</time>
      </trkpt>
      <trkpt lat="46.98797" lon="5.96089">
        <ele>599</ele>
        <time>2019-09-19T12:06:48Z</time>
      </trkpt>
      <trkpt lat="46.98806" lon="5.96101">
        <ele>599</ele>
        <time>2019-09-19T12:07:00Z</time>
      </trkpt>
      <trkpt lat="46.98815" lon="5.96108">
        <ele>600</ele>
        <time>2019-09-19T12:07:09Z</time>
      </trkpt>
      <trkpt lat="46.98821" lon="5.96122">
        <ele>602</ele>
        <time>2019-09-19T12:07:21Z</time>
      </trkpt>
      <trkpt lat="46.98826" lon="5.96128">
        <ele>602</ele>
        <time>2019-09-19T12:07:29Z</time>
      </trkpt>
      <trkpt lat="46.98829" lon="5.96135">
        <ele>602</ele>
        <time>2019-09-19T12:07:34Z</time>
      </trkpt>
      <trkpt lat="46.98832" lon="5.96141">
        <ele>603</ele>
        <time>2019-09-19T12:07:39Z</time>
      </trkpt>
      <trkpt lat="46.98835" lon="5.96146">
        <ele>603</ele>
        <time>2019-09-19T12:07:44Z</time>
      </trkpt>
      <trkpt lat="46.98836" lon="5.96154">
        <ele>603</ele>
        <time>2019-09-19T12:07:49Z</time>
      </trkpt>
      <trkpt lat="46.98838" lon="5.9616">
        <ele>603</ele>
        <time>2019-09-19T12:07:53Z</time>
      </trkpt>
      <trkpt lat="46.9884" lon="5.96166">
        <ele>603</ele>
        <time>2019-09-19T12:07:58Z</time>
      </trkpt>
      <trkpt lat="46.98845" lon="5.96181">
        <ele>603</ele>
        <time>2019-09-19T12:08:10Z</time>
      </trkpt>
      <trkpt lat="46.98846" lon="5.96187">
        <ele>603</ele>
        <time>2019-09-19T12:08:15Z</time>
      </trkpt>
      <trkpt lat="46.98848" lon="5.96193">
        <ele>603</ele>
        <time>2019-09-19T12:08:19Z</time>
      </trkpt>
      <trkpt lat="46.98853" lon="5.96198">
        <ele>602</ele>
        <time>2019-09-19T12:08:23Z</time>
      </trkpt>
      <trkpt lat="46.98862" lon="5.96215">
        <ele>605</ele>
        <time>2019-09-19T12:08:42Z</time>
      </trkpt>
      <trkpt lat="46.98879" lon="5.96225">
        <ele>607</ele>
        <time>2019-09-19T12:08:58Z</time>
      </trkpt>
      <trkpt lat="46.98883" lon="5.96229">
        <ele>608</ele>
        <time>2019-09-19T12:09:03Z</time>
      </trkpt>
      <trkpt lat="46.98889" lon="5.96231">
        <ele>609</ele>
        <time>2019-09-19T12:09:11Z</time>
      </trkpt>
      <trkpt lat="46.98917" lon="5.96231">
        <ele>610</ele>
        <time>2019-09-19T12:09:40Z</time>
      </trkpt>
      <trkpt lat="46.98927" lon="5.96226">
        <ele>611</ele>
        <time>2019-09-19T12:09:49Z</time>
      </trkpt>
      <trkpt lat="46.98937" lon="5.96217">
        <ele>610</ele>
        <time>2019-09-19T12:10:00Z</time>
      </trkpt>
      <trkpt lat="46.98945" lon="5.96208">
        <ele>611</ele>
        <time>2019-09-19T12:10:09Z</time>
      </trkpt>
      <trkpt lat="46.9895" lon="5.96195">
        <ele>612</ele>
        <time>2019-09-19T12:10:19Z</time>
      </trkpt>
      <trkpt lat="46.98951" lon="5.96187">
        <ele>611</ele>
        <time>2019-09-19T12:10:24Z</time>
      </trkpt>
      <trkpt lat="46.98952" lon="5.9618">
        <ele>611</ele>
        <time>2019-09-19T12:10:29Z</time>
      </trkpt>
      <trkpt lat="46.98953" lon="5.96173">
        <ele>612</ele>
        <time>2019-09-19T12:10:34Z</time>
      </trkpt>
      <trkpt lat="46.98952" lon="5.96149">
        <ele>611</ele>
        <time>2019-09-19T12:10:49Z</time>
      </trkpt>
      <trkpt lat="46.98952" lon="5.96142">
        <ele>611</ele>
        <time>2019-09-19T12:10:53Z</time>
      </trkpt>
      <trkpt lat="46.98952" lon="5.96135">
        <ele>611</ele>
        <time>2019-09-19T12:10:57Z</time>
      </trkpt>
      <trkpt lat="46.98953" lon="5.96128">
        <ele>611</ele>
        <time>2019-09-19T12:11:01Z</time>
      </trkpt>
      <trkpt lat="46.98963" lon="5.96103">
        <ele>613</ele>
        <time>2019-09-19T12:11:17Z</time>
      </trkpt>
      <trkpt lat="46.98967" lon="5.96097">
        <ele>613</ele>
        <time>2019-09-19T12:11:22Z</time>
      </trkpt>
      <trkpt lat="46.98973" lon="5.96086">
        <ele>613</ele>
        <time>2019-09-19T12:11:31Z</time>
      </trkpt>
      <trkpt lat="46.9898" lon="5.96082">
        <ele>614</ele>
        <time>2019-09-19T12:11:41Z</time>
      </trkpt>
      <trkpt lat="46.98983" lon="5.96076">
        <ele>615</ele>
        <time>2019-09-19T12:11:47Z</time>
      </trkpt>
      <trkpt lat="46.98987" lon="5.96071">
        <ele>616</ele>
        <time>2019-09-19T12:11:52Z</time>
      </trkpt>
      <trkpt lat="46.98994" lon="5.96062">
        <ele>616</ele>
        <time>2019-09-19T12:12:01Z</time>
      </trkpt>
      <trkpt lat="46.98998" lon="5.96058">
        <ele>618</ele>
        <time>2019-09-19T12:12:05Z</time>
      </trkpt>
      <trkpt lat="46.99002" lon="5.96053">
        <ele>618</ele>
        <time>2019-09-19T12:12:09Z</time>
      </trkpt>
      <trkpt lat="46.99013" lon="5.96038">
        <ele>621</ele>
        <time>2019-09-19T12:12:22Z</time>
      </trkpt>
      <trkpt lat="46.99016" lon="5.96033">
        <ele>620</ele>
        <time>2019-09-19T12:12:27Z</time>
      </trkpt>
      <trkpt lat="46.99018" lon="5.96027">
        <ele>621</ele>
        <time>2019-09-19T12:12:31Z</time>
      </trkpt>
      <trkpt lat="46.99022" lon="5.95994">
        <ele>622</ele>
        <time>2019-09-19T12:12:55Z</time>
      </trkpt>
      <trkpt lat="46.99024" lon="5.95988">
        <ele>621</ele>
        <time>2019-09-19T12:12:59Z</time>
      </trkpt>
      <trkpt lat="46.99044" lon="5.95955">
        <ele>619</ele>
        <time>2019-09-19T12:13:26Z</time>
      </trkpt>
      <trkpt lat="46.99048" lon="5.95953">
        <ele>619</ele>
        <time>2019-09-19T12:13:31Z</time>
      </trkpt>
      <trkpt lat="46.99053" lon="5.95952">
        <ele>618</ele>
        <time>2019-09-19T12:13:36Z</time>
      </trkpt>
      <trkpt lat="46.99056" lon="5.95945">
        <ele>619</ele>
        <time>2019-09-19T12:13:50Z</time>
      </trkpt>
      <trkpt lat="46.99058" lon="5.95934">
        <ele>620</ele>
        <time>2019-09-19T12:14:03Z</time>
      </trkpt>
      <trkpt lat="46.99061" lon="5.95928">
        <ele>621</ele>
        <time>2019-09-19T12:14:11Z</time>
      </trkpt>
      <trkpt lat="46.99066" lon="5.95924">
        <ele>621</ele>
        <time>2019-09-19T12:14:17Z</time>
      </trkpt>
      <trkpt lat="46.99071" lon="5.95888">
        <ele>619</ele>
        <time>2019-09-19T12:14:46Z</time>
      </trkpt>
      <trkpt lat="46.99075" lon="5.95861">
        <ele>619</ele>
        <time>2019-09-19T12:15:04Z</time>
      </trkpt>
      <trkpt lat="46.99079" lon="5.95841">
        <ele>617</ele>
        <time>2019-09-19T12:15:25Z</time>
      </trkpt>
      <trkpt lat="46.99079" lon="5.9582">
        <ele>611</ele>
        <time>2019-09-19T12:15:54Z</time>
      </trkpt>
      <trkpt lat="46.99083" lon="5.95807">
        <ele>611</ele>
        <time>2019-09-19T12:16:02Z</time>
      </trkpt>
      <trkpt lat="46.99085" lon="5.95784">
        <ele>611</ele>
        <time>2019-09-19T12:16:13Z</time>
      </trkpt>
      <trkpt lat="46.99085" lon="5.95773">
        <ele>611</ele>
        <time>2019-09-19T12:16:22Z</time>
      </trkpt>
      <trkpt lat="46.99086" lon="5.95766">
        <ele>610</ele>
        <time>2019-09-19T12:16:28Z</time>
      </trkpt>
      <trkpt lat="46.99086" lon="5.95759">
        <ele>610</ele>
        <time>2019-09-19T12:16:33Z</time>
      </trkpt>
      <trkpt lat="46.99087" lon="5.95752">
        <ele>610</ele>
        <time>2019-09-19T12:16:38Z</time>
      </trkpt>
      <trkpt lat="46.99089" lon="5.95745">
        <ele>610</ele>
        <time>2019-09-19T12:16:42Z</time>
      </trkpt>
      <trkpt lat="46.99094" lon="5.9573">
        <ele>609</ele>
        <time>2019-09-19T12:16:56Z</time>
      </trkpt>
      <trkpt lat="46.99094" lon="5.95723">
        <ele>608</ele>
        <time>2019-09-19T12:17:02Z</time>
      </trkpt>
      <trkpt lat="46.99094" lon="5.95711">
        <ele>609</ele>
        <time>2019-09-19T12:17:13Z</time>
      </trkpt>
      <trkpt lat="46.99093" lon="5.95697">
        <ele>608</ele>
        <time>2019-09-19T12:17:27Z</time>
      </trkpt>
      <trkpt lat="46.991" lon="5.95684">
        <ele>606</ele>
        <time>2019-09-19T12:17:36Z</time>
      </trkpt>
      <trkpt lat="46.99107" lon="5.95673">
        <ele>606</ele>
        <time>2019-09-19T12:17:45Z</time>
      </trkpt>
      <trkpt lat="46.99115" lon="5.95663">
        <ele>605</ele>
        <time>2019-09-19T12:17:58Z</time>
      </trkpt>
      <trkpt lat="46.99125" lon="5.95662">
        <ele>604</ele>
        <time>2019-09-19T12:18:07Z</time>
      </trkpt>
      <trkpt lat="46.99134" lon="5.9566">
        <ele>602</ele>
        <time>2019-09-19T12:18:16Z</time>
      </trkpt>
      <trkpt lat="46.99144" lon="5.95661">
        <ele>602</ele>
        <time>2019-09-19T12:18:25Z</time>
      </trkpt>
      <trkpt lat="46.99174" lon="5.95681">
        <ele>600</ele>
        <time>2019-09-19T12:18:56Z</time>
      </trkpt>
      <trkpt lat="46.99182" lon="5.95688">
        <ele>599</ele>
        <time>2019-09-19T12:19:04Z</time>
      </trkpt>
      <trkpt lat="46.99189" lon="5.95698">
        <ele>598</ele>
        <time>2019-09-19T12:19:12Z</time>
      </trkpt>
      <trkpt lat="46.99198" lon="5.9572">
        <ele>598</ele>
        <time>2019-09-19T12:19:31Z</time>
      </trkpt>
      <trkpt lat="46.9921" lon="5.95744">
        <ele>595</ele>
        <time>2019-09-19T12:19:49Z</time>
      </trkpt>
      <trkpt lat="46.9923" lon="5.95769">
        <ele>596</ele>
        <time>2019-09-19T12:20:12Z</time>
      </trkpt>
      <trkpt lat="46.99233" lon="5.95775">
        <ele>596</ele>
        <time>2019-09-19T12:20:18Z</time>
      </trkpt>
      <trkpt lat="46.99236" lon="5.95782">
        <ele>595</ele>
        <time>2019-09-19T12:20:23Z</time>
      </trkpt>
      <trkpt lat="46.99237" lon="5.95789">
        <ele>594</ele>
        <time>2019-09-19T12:20:27Z</time>
      </trkpt>
      <trkpt lat="46.99241" lon="5.95794">
        <ele>594</ele>
        <time>2019-09-19T12:20:32Z</time>
      </trkpt>
      <trkpt lat="46.99245" lon="5.95798">
        <ele>594</ele>
        <time>2019-09-19T12:20:36Z</time>
      </trkpt>
      <trkpt lat="46.99249" lon="5.95811">
        <ele>593</ele>
        <time>2019-09-19T12:20:46Z</time>
      </trkpt>
      <trkpt lat="46.99253" lon="5.95816">
        <ele>594</ele>
        <time>2019-09-19T12:20:51Z</time>
      </trkpt>
      <trkpt lat="46.99255" lon="5.95822">
        <ele>593</ele>
        <time>2019-09-19T12:20:55Z</time>
      </trkpt>
      <trkpt lat="46.99268" lon="5.95846">
        <ele>591</ele>
        <time>2019-09-19T12:21:18Z</time>
      </trkpt>
      <trkpt lat="46.99271" lon="5.95852">
        <ele>591</ele>
        <time>2019-09-19T12:21:23Z</time>
      </trkpt>
      <trkpt lat="46.99275" lon="5.95856">
        <ele>592</ele>
        <time>2019-09-19T12:21:27Z</time>
      </trkpt>
      <trkpt lat="46.99279" lon="5.95862">
        <ele>591</ele>
        <time>2019-09-19T12:21:31Z</time>
      </trkpt>
      <trkpt lat="46.99281" lon="5.95871">
        <ele>591</ele>
        <time>2019-09-19T12:21:38Z</time>
      </trkpt>
      <trkpt lat="46.99285" lon="5.95884">
        <ele>590</ele>
        <time>2019-09-19T12:21:47Z</time>
      </trkpt>
      <trkpt lat="46.99294" lon="5.95901">
        <ele>591</ele>
        <time>2019-09-19T12:22:01Z</time>
      </trkpt>
      <trkpt lat="46.99304" lon="5.95916">
        <ele>590</ele>
        <time>2019-09-19T12:22:14Z</time>
      </trkpt>
      <trkpt lat="46.99309" lon="5.95929">
        <ele>589</ele>
        <time>2019-09-19T12:22:24Z</time>
      </trkpt>
      <trkpt lat="46.99311" lon="5.95938">
        <ele>588</ele>
        <time>2019-09-19T12:22:30Z</time>
      </trkpt>
      <trkpt lat="46.99313" lon="5.95944">
        <ele>586</ele>
        <time>2019-09-19T12:22:40Z</time>
      </trkpt>
      <trkpt lat="46.9931" lon="5.95953">
        <ele>582</ele>
        <time>2019-09-19T12:23:16Z</time>
      </trkpt>
      <trkpt lat="46.99309" lon="5.95967">
        <ele>580</ele>
        <time>2019-09-19T12:23:26Z</time>
      </trkpt>
      <trkpt lat="46.99309" lon="5.95988">
        <ele>581</ele>
        <time>2019-09-19T12:23:41Z</time>
      </trkpt>
      <trkpt lat="46.99306" lon="5.96002">
        <ele>581</ele>
        <time>2019-09-19T12:23:50Z</time>
      </trkpt>
      <trkpt lat="46.99304" lon="5.96016">
        <ele>581</ele>
        <time>2019-09-19T12:23:58Z</time>
      </trkpt>
      <trkpt lat="46.99303" lon="5.96023">
        <ele>582</ele>
        <time>2019-09-19T12:24:03Z</time>
      </trkpt>
      <trkpt lat="46.99299" lon="5.96037">
        <ele>582</ele>
        <time>2019-09-19T12:24:12Z</time>
      </trkpt>
      <trkpt lat="46.99296" lon="5.96044">
        <ele>582</ele>
        <time>2019-09-19T12:24:16Z</time>
      </trkpt>
      <trkpt lat="46.99294" lon="5.9605">
        <ele>582</ele>
        <time>2019-09-19T12:24:21Z</time>
      </trkpt>
      <trkpt lat="46.99291" lon="5.96056">
        <ele>582</ele>
        <time>2019-09-19T12:24:25Z</time>
      </trkpt>
      <trkpt lat="46.9929" lon="5.96064">
        <ele>582</ele>
        <time>2019-09-19T12:24:30Z</time>
      </trkpt>
      <trkpt lat="46.99287" lon="5.9607">
        <ele>582</ele>
        <time>2019-09-19T12:24:35Z</time>
      </trkpt>
      <trkpt lat="46.99284" lon="5.96076">
        <ele>580</ele>
        <time>2019-09-19T12:24:40Z</time>
      </trkpt>
      <trkpt lat="46.99282" lon="5.96082">
        <ele>579</ele>
        <time>2019-09-19T12:24:45Z</time>
      </trkpt>
      <trkpt lat="46.99281" lon="5.9609">
        <ele>579</ele>
        <time>2019-09-19T12:24:50Z</time>
      </trkpt>
      <trkpt lat="46.99278" lon="5.96104">
        <ele>577</ele>
        <time>2019-09-19T12:24:59Z</time>
      </trkpt>
      <trkpt lat="46.99277" lon="5.96111">
        <ele>577</ele>
        <time>2019-09-19T12:25:04Z</time>
      </trkpt>
      <trkpt lat="46.99275" lon="5.96118">
        <ele>575</ele>
        <time>2019-09-19T12:25:08Z</time>
      </trkpt>
      <trkpt lat="46.99273" lon="5.96126">
        <ele>576</ele>
        <time>2019-09-19T12:25:12Z</time>
      </trkpt>
      <trkpt lat="46.99272" lon="5.96142">
        <ele>574</ele>
        <time>2019-09-19T12:25:19Z</time>
      </trkpt>
      <trkpt lat="46.9927" lon="5.96148">
        <ele>574</ele>
        <time>2019-09-19T12:25:22Z</time>
      </trkpt>
      <trkpt lat="46.99269" lon="5.96162">
        <ele>573</ele>
        <time>2019-09-19T12:25:30Z</time>
      </trkpt>
      <trkpt lat="46.99269" lon="5.96177">
        <ele>574</ele>
        <time>2019-09-19T12:25:39Z</time>
      </trkpt>
      <trkpt lat="46.99269" lon="5.96185">
        <ele>573</ele>
        <time>2019-09-19T12:25:44Z</time>
      </trkpt>
      <trkpt lat="46.99269" lon="5.962">
        <ele>574</ele>
        <time>2019-09-19T12:25:52Z</time>
      </trkpt>
      <trkpt lat="46.99268" lon="5.96207">
        <ele>574</ele>
        <time>2019-09-19T12:25:57Z</time>
      </trkpt>
      <trkpt lat="46.9927" lon="5.96217">
        <ele>573</ele>
        <time>2019-09-19T12:26:05Z</time>
      </trkpt>
      <trkpt lat="46.9927" lon="5.96246">
        <ele>574</ele>
        <time>2019-09-19T12:26:21Z</time>
      </trkpt>
      <trkpt lat="46.99269" lon="5.96254">
        <ele>575</ele>
        <time>2019-09-19T12:26:26Z</time>
      </trkpt>
      <trkpt lat="46.9927" lon="5.96262">
        <ele>576</ele>
        <time>2019-09-19T12:26:31Z</time>
      </trkpt>
      <trkpt lat="46.9927" lon="5.96269">
        <ele>576</ele>
        <time>2019-09-19T12:26:36Z</time>
      </trkpt>
      <trkpt lat="46.99268" lon="5.96277">
        <ele>576</ele>
        <time>2019-09-19T12:26:40Z</time>
      </trkpt>
      <trkpt lat="46.99268" lon="5.96283">
        <ele>576</ele>
        <time>2019-09-19T12:26:44Z</time>
      </trkpt>
      <trkpt lat="46.99266" lon="5.96298">
        <ele>576</ele>
        <time>2019-09-19T12:26:53Z</time>
      </trkpt>
      <trkpt lat="46.99266" lon="5.96307">
        <ele>575</ele>
        <time>2019-09-19T12:27:13Z</time>
      </trkpt>
      <trkpt lat="46.99265" lon="5.96315">
        <ele>574</ele>
        <time>2019-09-19T12:27:17Z</time>
      </trkpt>
      <trkpt lat="46.99265" lon="5.96322">
        <ele>575</ele>
        <time>2019-09-19T12:27:21Z</time>
      </trkpt>
      <trkpt lat="46.99265" lon="5.96329">
        <ele>575</ele>
        <time>2019-09-19T12:27:27Z</time>
      </trkpt>
      <trkpt lat="46.99266" lon="5.96336">
        <ele>575</ele>
        <time>2019-09-19T12:27:31Z</time>
      </trkpt>
      <trkpt lat="46.99265" lon="5.96344">
        <ele>575</ele>
        <time>2019-09-19T12:27:35Z</time>
      </trkpt>
      <trkpt lat="46.99265" lon="5.9635">
        <ele>575</ele>
        <time>2019-09-19T12:27:39Z</time>
      </trkpt>
      <trkpt lat="46.99264" lon="5.96357">
        <ele>575</ele>
        <time>2019-09-19T12:27:43Z</time>
      </trkpt>
      <trkpt lat="46.99264" lon="5.96363">
        <ele>576</ele>
        <time>2019-09-19T12:27:47Z</time>
      </trkpt>
      <trkpt lat="46.99264" lon="5.96372">
        <ele>576</ele>
        <time>2019-09-19T12:27:51Z</time>
      </trkpt>
      <trkpt lat="46.99262" lon="5.96378">
        <ele>576</ele>
        <time>2019-09-19T12:27:55Z</time>
      </trkpt>
      <trkpt lat="46.99262" lon="5.96386">
        <ele>575</ele>
        <time>2019-09-19T12:28:00Z</time>
      </trkpt>
      <trkpt lat="46.99264" lon="5.96393">
        <ele>575</ele>
        <time>2019-09-19T12:28:05Z</time>
      </trkpt>
      <trkpt lat="46.99269" lon="5.96414">
        <ele>574</ele>
        <time>2019-09-19T12:28:18Z</time>
      </trkpt>
      <trkpt lat="46.99273" lon="5.96427">
        <ele>575</ele>
        <time>2019-09-19T12:28:27Z</time>
      </trkpt>
      <trkpt lat="46.99278" lon="5.96436">
        <ele>576</ele>
        <time>2019-09-19T12:28:35Z</time>
      </trkpt>
      <trkpt lat="46.99283" lon="5.96443">
        <ele>575</ele>
        <time>2019-09-19T12:28:42Z</time>
      </trkpt>
      <trkpt lat="46.99287" lon="5.96451">
        <ele>575</ele>
        <time>2019-09-19T12:28:50Z</time>
      </trkpt>
      <trkpt lat="46.99295" lon="5.96461">
        <ele>575</ele>
        <time>2019-09-19T12:29:04Z</time>
      </trkpt>
      <trkpt lat="46.99299" lon="5.96466">
        <ele>575</ele>
        <time>2019-09-19T12:29:08Z</time>
      </trkpt>
      <trkpt lat="46.99309" lon="5.96473">
        <ele>574</ele>
        <time>2019-09-19T12:29:17Z</time>
      </trkpt>
      <trkpt lat="46.99327" lon="5.96484">
        <ele>575</ele>
        <time>2019-09-19T12:29:31Z</time>
      </trkpt>
      <trkpt lat="46.99337" lon="5.96486">
        <ele>574</ele>
        <time>2019-09-19T12:29:37Z</time>
      </trkpt>
      <trkpt lat="46.99346" lon="5.96488">
        <ele>573</ele>
        <time>2019-09-19T12:29:47Z</time>
      </trkpt>
      <trkpt lat="46.99355" lon="5.9649">
        <ele>572</ele>
        <time>2019-09-19T12:29:54Z</time>
      </trkpt>
      <trkpt lat="46.99365" lon="5.96491">
        <ele>570</ele>
        <time>2019-09-19T12:30:02Z</time>
      </trkpt>
      <trkpt lat="46.99377" lon="5.96488">
        <ele>569</ele>
        <time>2019-09-19T12:30:15Z</time>
      </trkpt>
      <trkpt lat="46.99403" lon="5.96487">
        <ele>568</ele>
        <time>2019-09-19T12:30:40Z</time>
      </trkpt>
      <trkpt lat="46.99412" lon="5.96487">
        <ele>569</ele>
        <time>2019-09-19T12:30:49Z</time>
      </trkpt>
      <trkpt lat="46.99427" lon="5.96488">
        <ele>569</ele>
        <time>2019-09-19T12:31:06Z</time>
      </trkpt>
      <trkpt lat="46.99437" lon="5.96489">
        <ele>569</ele>
        <time>2019-09-19T12:31:16Z</time>
      </trkpt>
      <trkpt lat="46.99453" lon="5.96492">
        <ele>566</ele>
        <time>2019-09-19T12:31:34Z</time>
      </trkpt>
      <trkpt lat="46.99488" lon="5.965">
        <ele>566</ele>
        <time>2019-09-19T12:32:10Z</time>
      </trkpt>
      <trkpt lat="46.9951" lon="5.96504">
        <ele>565</ele>
        <time>2019-09-19T12:32:34Z</time>
      </trkpt>
      <trkpt lat="46.99523" lon="5.96506">
        <ele>563</ele>
        <time>2019-09-19T12:32:50Z</time>
      </trkpt>
      <trkpt lat="46.99533" lon="5.96507">
        <ele>563</ele>
        <time>2019-09-19T12:32:58Z</time>
      </trkpt>
      <trkpt lat="46.99542" lon="5.96507">
        <ele>564</ele>
        <time>2019-09-19T12:33:06Z</time>
      </trkpt>
      <trkpt lat="46.99552" lon="5.96508">
        <ele>563</ele>
        <time>2019-09-19T12:33:16Z</time>
      </trkpt>
      <trkpt lat="46.9956" lon="5.96515">
        <ele>562</ele>
        <time>2019-09-19T12:33:24Z</time>
      </trkpt>
      <trkpt lat="46.9957" lon="5.96517">
        <ele>561</ele>
        <time>2019-09-19T12:33:33Z</time>
      </trkpt>
      <trkpt lat="46.9958" lon="5.96519">
        <ele>560</ele>
        <time>2019-09-19T12:33:42Z</time>
      </trkpt>
      <trkpt lat="46.99589" lon="5.96522">
        <ele>561</ele>
        <time>2019-09-19T12:33:51Z</time>
      </trkpt>
      <trkpt lat="46.99598" lon="5.96527">
        <ele>561</ele>
        <time>2019-09-19T12:33:59Z</time>
      </trkpt>
      <trkpt lat="46.99615" lon="5.96539">
        <ele>561</ele>
        <time>2019-09-19T12:34:18Z</time>
      </trkpt>
      <trkpt lat="46.99623" lon="5.96544">
        <ele>561</ele>
        <time>2019-09-19T12:34:26Z</time>
      </trkpt>
      <trkpt lat="46.99634" lon="5.96546">
        <ele>562</ele>
        <time>2019-09-19T12:34:35Z</time>
      </trkpt>
      <trkpt lat="46.99644" lon="5.96547">
        <ele>562</ele>
        <time>2019-09-19T12:34:47Z</time>
      </trkpt>
      <trkpt lat="46.99664" lon="5.96547">
        <ele>561</ele>
        <time>2019-09-19T12:35:05Z</time>
      </trkpt>
      <trkpt lat="46.99673" lon="5.96547">
        <ele>561</ele>
        <time>2019-09-19T12:35:13Z</time>
      </trkpt>
      <trkpt lat="46.99683" lon="5.96547">
        <ele>561</ele>
        <time>2019-09-19T12:35:22Z</time>
      </trkpt>
      <trkpt lat="46.99709" lon="5.96552">
        <ele>561</ele>
        <time>2019-09-19T12:35:48Z</time>
      </trkpt>
      <trkpt lat="46.99718" lon="5.96549">
        <ele>561</ele>
        <time>2019-09-19T12:35:57Z</time>
      </trkpt>
      <trkpt lat="46.99732" lon="5.96554">
        <ele>562</ele>
        <time>2019-09-19T12:36:14Z</time>
      </trkpt>
      <trkpt lat="46.99747" lon="5.96555">
        <ele>559</ele>
        <time>2019-09-19T12:36:30Z</time>
      </trkpt>
      <trkpt lat="46.99756" lon="5.96558">
        <ele>559</ele>
        <time>2019-09-19T12:36:38Z</time>
      </trkpt>
      <trkpt lat="46.99787" lon="5.96564">
        <ele>556</ele>
        <time>2019-09-19T12:37:05Z</time>
      </trkpt>
      <trkpt lat="46.99796" lon="5.96566">
        <ele>557</ele>
        <time>2019-09-19T12:37:15Z</time>
      </trkpt>
      <trkpt lat="46.99816" lon="5.96575">
        <ele>554</ele>
        <time>2019-09-19T12:37:35Z</time>
      </trkpt>
      <trkpt lat="46.99825" lon="5.96579">
        <ele>554</ele>
        <time>2019-09-19T12:37:42Z</time>
      </trkpt>
      <trkpt lat="46.99834" lon="5.96578">
        <ele>553</ele>
        <time>2019-09-19T12:37:50Z</time>
      </trkpt>
      <trkpt lat="46.99853" lon="5.96577">
        <ele>553</ele>
        <time>2019-09-19T12:38:07Z</time>
      </trkpt>
      <trkpt lat="46.99863" lon="5.96576">
        <ele>553</ele>
        <time>2019-09-19T12:38:15Z</time>
      </trkpt>
      <trkpt lat="46.99881" lon="5.96579">
        <ele>552</ele>
        <time>2019-09-19T12:38:33Z</time>
      </trkpt>
      <trkpt lat="46.99891" lon="5.9658">
        <ele>553</ele>
        <time>2019-09-19T12:38:40Z</time>
      </trkpt>
      <trkpt lat="46.99903" lon="5.96586">
        <ele>552</ele>
        <time>2019-09-19T12:38:53Z</time>
      </trkpt>
      <trkpt lat="46.99913" lon="5.96587">
        <ele>552</ele>
        <time>2019-09-19T12:39:03Z</time>
      </trkpt>
      <trkpt lat="46.99924" lon="5.96591">
        <ele>551</ele>
        <time>2019-09-19T12:39:14Z</time>
      </trkpt>
      <trkpt lat="46.99941" lon="5.96592">
        <ele>551</ele>
        <time>2019-09-19T12:39:32Z</time>
      </trkpt>
      <trkpt lat="46.99954" lon="5.9658">
        <ele>547</ele>
        <time>2019-09-19T12:39:44Z</time>
      </trkpt>
      <trkpt lat="46.99961" lon="5.96572">
        <ele>547</ele>
        <time>2019-09-19T12:39:54Z</time>
      </trkpt>
      <trkpt lat="46.99966" lon="5.96561">
        <ele>544</ele>
        <time>2019-09-19T12:40:06Z</time>
      </trkpt>
      <trkpt lat="46.9997" lon="5.96555">
        <ele>543</ele>
        <time>2019-09-19T12:40:11Z</time>
      </trkpt>
      <trkpt lat="46.99974" lon="5.96551">
        <ele>543</ele>
        <time>2019-09-19T12:40:16Z</time>
      </trkpt>
      <trkpt lat="46.99978" lon="5.96547">
        <ele>543</ele>
        <time>2019-09-19T12:40:21Z</time>
      </trkpt>
      <trkpt lat="47.00005" lon="5.96528">
        <ele>540</ele>
        <time>2019-09-19T12:40:56Z</time>
      </trkpt>
      <trkpt lat="47.00013" lon="5.96521">
        <ele>538</ele>
        <time>2019-09-19T12:41:08Z</time>
      </trkpt>
      <trkpt lat="47.00032" lon="5.96513">
        <ele>535</ele>
        <time>2019-09-19T12:41:31Z</time>
      </trkpt>
      <trkpt lat="47.00052" lon="5.96513">
        <ele>534</ele>
        <time>2019-09-19T12:41:56Z</time>
      </trkpt>
      <trkpt lat="47.00061" lon="5.96513">
        <ele>534</ele>
        <time>2019-09-19T12:42:04Z</time>
      </trkpt>
      <trkpt lat="47.00071" lon="5.96511">
        <ele>534</ele>
        <time>2019-09-19T12:42:12Z</time>
      </trkpt>
      <trkpt lat="47.0008" lon="5.96511">
        <ele>533</ele>
        <time>2019-09-19T12:42:20Z</time>
      </trkpt>
      <trkpt lat="47.0009" lon="5.96507">
        <ele>532</ele>
        <time>2019-09-19T12:42:31Z</time>
      </trkpt>
      <trkpt lat="47.001" lon="5.965">
        <ele>531</ele>
        <time>2019-09-19T12:42:40Z</time>
      </trkpt>
      <trkpt lat="47.00109" lon="5.96498">
        <ele>530</ele>
        <time>2019-09-19T12:42:50Z</time>
      </trkpt>
      <trkpt lat="47.00138" lon="5.96483">
        <ele>527</ele>
        <time>2019-09-19T12:43:24Z</time>
      </trkpt>
      <trkpt lat="47.00146" lon="5.9648">
        <ele>527</ele>
        <time>2019-09-19T12:43:33Z</time>
      </trkpt>
      <trkpt lat="47.0018" lon="5.96462">
        <ele>522</ele>
        <time>2019-09-19T12:44:10Z</time>
      </trkpt>
      <trkpt lat="47.00207" lon="5.96446">
        <ele>519</ele>
        <time>2019-09-19T12:44:38Z</time>
      </trkpt>
      <trkpt lat="47.00224" lon="5.96441">
        <ele>517</ele>
        <time>2019-09-19T12:44:56Z</time>
      </trkpt>
      <trkpt lat="47.00229" lon="5.96439">
        <ele>517</ele>
        <time>2019-09-19T12:45:01Z</time>
      </trkpt>
      <trkpt lat="47.00233" lon="5.96437">
        <ele>517</ele>
        <time>2019-09-19T12:45:06Z</time>
      </trkpt>
      <trkpt lat="47.00239" lon="5.96434">
        <ele>517</ele>
        <time>2019-09-19T12:45:11Z</time>
      </trkpt>
      <trkpt lat="47.00275" lon="5.9642">
        <ele>513</ele>
        <time>2019-09-19T12:45:46Z</time>
      </trkpt>
      <trkpt lat="47.00284" lon="5.96417">
        <ele>513</ele>
        <time>2019-09-19T12:45:54Z</time>
      </trkpt>
      <trkpt lat="47.003" lon="5.96417">
        <ele>511</ele>
        <time>2019-09-19T12:46:12Z</time>
      </trkpt>
      <trkpt lat="47.0031" lon="5.9643">
        <ele>508</ele>
        <time>2019-09-19T12:46:26Z</time>
      </trkpt>
      <trkpt lat="47.00318" lon="5.96436">
        <ele>508</ele>
        <time>2019-09-19T12:46:35Z</time>
      </trkpt>
      <trkpt lat="47.00338" lon="5.96451">
        <ele>509</ele>
        <time>2019-09-19T12:46:55Z</time>
      </trkpt>
      <trkpt lat="47.00343" lon="5.96451">
        <ele>510</ele>
        <time>2019-09-19T12:47:00Z</time>
      </trkpt>
      <trkpt lat="47.00353" lon="5.96455">
        <ele>508</ele>
        <time>2019-09-19T12:47:10Z</time>
      </trkpt>
      <trkpt lat="47.00364" lon="5.96461">
        <ele>508</ele>
        <time>2019-09-19T12:47:20Z</time>
      </trkpt>
      <trkpt lat="47.00368" lon="5.96463">
        <ele>508</ele>
        <time>2019-09-19T12:47:24Z</time>
      </trkpt>
      <trkpt lat="47.00373" lon="5.96465">
        <ele>508</ele>
        <time>2019-09-19T12:47:28Z</time>
      </trkpt>
      <trkpt lat="47.00382" lon="5.96468">
        <ele>507</ele>
        <time>2019-09-19T12:47:37Z</time>
      </trkpt>
      <trkpt lat="47.00387" lon="5.96468">
        <ele>507</ele>
        <time>2019-09-19T12:47:42Z</time>
      </trkpt>
      <trkpt lat="47.00392" lon="5.96471">
        <ele>507</ele>
        <time>2019-09-19T12:47:47Z</time>
      </trkpt>
      <trkpt lat="47.00396" lon="5.96474">
        <ele>507</ele>
        <time>2019-09-19T12:47:52Z</time>
      </trkpt>
      <trkpt lat="47.00401" lon="5.96475">
        <ele>506</ele>
        <time>2019-09-19T12:47:57Z</time>
      </trkpt>
      <trkpt lat="47.00427" lon="5.96486">
        <ele>504</ele>
        <time>2019-09-19T12:48:23Z</time>
      </trkpt>
      <trkpt lat="47.00444" lon="5.96497">
        <ele>503</ele>
        <time>2019-09-19T12:48:40Z</time>
      </trkpt>
      <trkpt lat="47.00454" lon="5.96502">
        <ele>502</ele>
        <time>2019-09-19T12:48:51Z</time>
      </trkpt>
      <trkpt lat="47.00473" lon="5.96512">
        <ele>502</ele>
        <time>2019-09-19T12:49:10Z</time>
      </trkpt>
      <trkpt lat="47.00502" lon="5.96524">
        <ele>497</ele>
        <time>2019-09-19T12:49:39Z</time>
      </trkpt>
      <trkpt lat="47.0052" lon="5.96533">
        <ele>498</ele>
        <time>2019-09-19T12:49:57Z</time>
      </trkpt>
      <trkpt lat="47.00545" lon="5.96551">
        <ele>495</ele>
        <time>2019-09-19T12:50:29Z</time>
      </trkpt>
      <trkpt lat="47.00553" lon="5.96558">
        <ele>495</ele>
        <time>2019-09-19T12:50:37Z</time>
      </trkpt>
      <trkpt lat="47.00571" lon="5.96569">
        <ele>494</ele>
        <time>2019-09-19T12:50:54Z</time>
      </trkpt>
      <trkpt lat="47.00575" lon="5.96573">
        <ele>494</ele>
        <time>2019-09-19T12:50:58Z</time>
      </trkpt>
      <trkpt lat="47.00575" lon="5.9658">
        <ele>493</ele>
        <time>2019-09-19T12:51:41Z</time>
      </trkpt>
      <trkpt lat="47.0058" lon="5.96578">
        <ele>493</ele>
        <time>2019-09-19T12:51:46Z</time>
      </trkpt>
      <trkpt lat="47.00585" lon="5.96579">
        <ele>493</ele>
        <time>2019-09-19T12:51:51Z</time>
      </trkpt>
      <trkpt lat="47.00597" lon="5.96591">
        <ele>492</ele>
        <time>2019-09-19T12:52:04Z</time>
      </trkpt>
      <trkpt lat="47.00619" lon="5.96608">
        <ele>493</ele>
        <time>2019-09-19T12:52:25Z</time>
      </trkpt>
      <trkpt lat="47.00623" lon="5.96612">
        <ele>492</ele>
        <time>2019-09-19T12:52:29Z</time>
      </trkpt>
      <trkpt lat="47.00627" lon="5.96616">
        <ele>492</ele>
        <time>2019-09-19T12:52:33Z</time>
      </trkpt>
      <trkpt lat="47.0064" lon="5.96629">
        <ele>492</ele>
        <time>2019-09-19T12:52:47Z</time>
      </trkpt>
      <trkpt lat="47.00644" lon="5.96634">
        <ele>493</ele>
        <time>2019-09-19T12:52:52Z</time>
      </trkpt>
      <trkpt lat="47.00652" lon="5.96643">
        <ele>493</ele>
        <time>2019-09-19T12:53:01Z</time>
      </trkpt>
      <trkpt lat="47.00658" lon="5.9665">
        <ele>492</ele>
        <time>2019-09-19T12:53:10Z</time>
      </trkpt>
      <trkpt lat="47.00662" lon="5.96654">
        <ele>492</ele>
        <time>2019-09-19T12:53:15Z</time>
      </trkpt>
      <trkpt lat="47.00666" lon="5.96659">
        <ele>492</ele>
        <time>2019-09-19T12:53:20Z</time>
      </trkpt>
      <trkpt lat="47.0067" lon="5.96664">
        <ele>492</ele>
        <time>2019-09-19T12:53:25Z</time>
      </trkpt>
      <trkpt lat="47.00674" lon="5.9667">
        <ele>493</ele>
        <time>2019-09-19T12:53:30Z</time>
      </trkpt>
      <trkpt lat="47.00683" lon="5.9668">
        <ele>492</ele>
        <time>2019-09-19T12:53:42Z</time>
      </trkpt>
      <trkpt lat="47.00687" lon="5.96686">
        <ele>493</ele>
        <time>2019-09-19T12:53:47Z</time>
      </trkpt>
      <trkpt lat="47.00695" lon="5.96696">
        <ele>492</ele>
        <time>2019-09-19T12:53:57Z</time>
      </trkpt>
      <trkpt lat="47.00699" lon="5.96699">
        <ele>492</ele>
        <time>2019-09-19T12:54:01Z</time>
      </trkpt>
      <trkpt lat="47.00713" lon="5.96709">
        <ele>491</ele>
        <time>2019-09-19T12:54:15Z</time>
      </trkpt>
      <trkpt lat="47.00717" lon="5.96712">
        <ele>491</ele>
        <time>2019-09-19T12:54:20Z</time>
      </trkpt>
      <trkpt lat="47.00727" lon="5.96718">
        <ele>490</ele>
        <time>2019-09-19T12:54:30Z</time>
      </trkpt>
      <trkpt lat="47.00758" lon="5.96739">
        <ele>490</ele>
        <time>2019-09-19T12:55:04Z</time>
      </trkpt>
      <trkpt lat="47.00762" lon="5.96743">
        <ele>489</ele>
        <time>2019-09-19T12:55:09Z</time>
      </trkpt>
      <trkpt lat="47.00767" lon="5.96745">
        <ele>488</ele>
        <time>2019-09-19T12:55:14Z</time>
      </trkpt>
      <trkpt lat="47.00795" lon="5.96767">
        <ele>485</ele>
        <time>2019-09-19T12:55:46Z</time>
      </trkpt>
      <trkpt lat="47.00822" lon="5.96789">
        <ele>481</ele>
        <time>2019-09-19T12:56:17Z</time>
      </trkpt>
      <trkpt lat="47.00827" lon="5.96792">
        <ele>480</ele>
        <time>2019-09-19T12:56:22Z</time>
      </trkpt>
      <trkpt lat="47.00832" lon="5.96795">
        <ele>480</ele>
        <time>2019-09-19T12:56:27Z</time>
      </trkpt>
      <trkpt lat="47.00857" lon="5.96816">
        <ele>480</ele>
        <time>2019-09-19T12:56:54Z</time>
      </trkpt>
      <trkpt lat="47.00862" lon="5.96819">
        <ele>479</ele>
        <time>2019-09-19T12:56:59Z</time>
      </trkpt>
      <trkpt lat="47.0087" lon="5.96826">
        <ele>479</ele>
        <time>2019-09-19T12:57:09Z</time>
      </trkpt>
      <trkpt lat="47.00875" lon="5.9683">
        <ele>479</ele>
        <time>2019-09-19T12:57:14Z</time>
      </trkpt>
      <trkpt lat="47.00884" lon="5.96837">
        <ele>478</ele>
        <time>2019-09-19T12:57:24Z</time>
      </trkpt>
      <trkpt lat="47.00891" lon="5.96847">
        <ele>477</ele>
        <time>2019-09-19T12:57:34Z</time>
      </trkpt>
      <trkpt lat="47.00908" lon="5.96865">
        <ele>477</ele>
        <time>2019-09-19T12:57:52Z</time>
      </trkpt>
      <trkpt lat="47.00916" lon="5.96872">
        <ele>474</ele>
        <time>2019-09-19T12:58:02Z</time>
      </trkpt>
      <trkpt lat="47.0092" lon="5.96876">
        <ele>474</ele>
        <time>2019-09-19T12:58:07Z</time>
      </trkpt>
      <trkpt lat="47.00925" lon="5.9688">
        <ele>474</ele>
        <time>2019-09-19T12:58:12Z</time>
      </trkpt>
      <trkpt lat="47.00944" lon="5.96899">
        <ele>472</ele>
        <time>2019-09-19T12:58:34Z</time>
      </trkpt>
      <trkpt lat="47.00948" lon="5.96903">
        <ele>472</ele>
        <time>2019-09-19T12:58:37Z</time>
      </trkpt>
      <trkpt lat="47.00961" lon="5.96914">
        <ele>471</ele>
        <time>2019-09-19T12:58:50Z</time>
      </trkpt>
      <trkpt lat="47.00965" lon="5.96919">
        <ele>471</ele>
        <time>2019-09-19T12:58:55Z</time>
      </trkpt>
      <trkpt lat="47.00968" lon="5.96924">
        <ele>472</ele>
        <time>2019-09-19T12:59:00Z</time>
      </trkpt>
      <trkpt lat="47.00976" lon="5.96933">
        <ele>472</ele>
        <time>2019-09-19T12:59:09Z</time>
      </trkpt>
      <trkpt lat="47.01002" lon="5.9696">
        <ele>471</ele>
        <time>2019-09-19T12:59:41Z</time>
      </trkpt>
      <trkpt lat="47.01015" lon="5.96971">
        <ele>471</ele>
        <time>2019-09-19T12:59:54Z</time>
      </trkpt>
      <trkpt lat="47.01019" lon="5.96975">
        <ele>471</ele>
        <time>2019-09-19T12:59:58Z</time>
      </trkpt>
      <trkpt lat="47.01024" lon="5.96978">
        <ele>471</ele>
        <time>2019-09-19T13:00:03Z</time>
      </trkpt>
      <trkpt lat="47.01045" lon="5.96994">
        <ele>472</ele>
        <time>2019-09-19T13:00:23Z</time>
      </trkpt>
      <trkpt lat="47.01049" lon="5.96996">
        <ele>472</ele>
        <time>2019-09-19T13:00:27Z</time>
      </trkpt>
      <trkpt lat="47.01054" lon="5.96999">
        <ele>472</ele>
        <time>2019-09-19T13:00:31Z</time>
      </trkpt>
      <trkpt lat="47.01068" lon="5.97005">
        <ele>470</ele>
        <time>2019-09-19T13:00:43Z</time>
      </trkpt>
      <trkpt lat="47.01098" lon="5.97009">
        <ele>467</ele>
        <time>2019-09-19T13:01:08Z</time>
      </trkpt>
      <trkpt lat="47.01102" lon="5.97011">
        <ele>468</ele>
        <time>2019-09-19T13:01:12Z</time>
      </trkpt>
      <trkpt lat="47.01107" lon="5.97013">
        <ele>468</ele>
        <time>2019-09-19T13:01:16Z</time>
      </trkpt>
      <trkpt lat="47.01117" lon="5.97016">
        <ele>466</ele>
        <time>2019-09-19T13:01:26Z</time>
      </trkpt>
      <trkpt lat="47.01121" lon="5.97019">
        <ele>466</ele>
        <time>2019-09-19T13:01:31Z</time>
      </trkpt>
      <trkpt lat="47.01127" lon="5.97022">
        <ele>466</ele>
        <time>2019-09-19T13:01:36Z</time>
      </trkpt>
      <trkpt lat="47.01132" lon="5.97024">
        <ele>466</ele>
        <time>2019-09-19T13:01:41Z</time>
      </trkpt>
      <trkpt lat="47.01137" lon="5.97026">
        <ele>465</ele>
        <time>2019-09-19T13:01:46Z</time>
      </trkpt>
      <trkpt lat="47.01147" lon="5.97034">
        <ele>465</ele>
        <time>2019-09-19T13:01:56Z</time>
      </trkpt>
      <trkpt lat="47.01151" lon="5.97037">
        <ele>466</ele>
        <time>2019-09-19T13:02:00Z</time>
      </trkpt>
      <trkpt lat="47.01165" lon="5.97043">
        <ele>465</ele>
        <time>2019-09-19T13:02:15Z</time>
      </trkpt>
      <trkpt lat="47.0117" lon="5.97045">
        <ele>466</ele>
        <time>2019-09-19T13:02:20Z</time>
      </trkpt>
      <trkpt lat="47.01175" lon="5.97047">
        <ele>465</ele>
        <time>2019-09-19T13:02:25Z</time>
      </trkpt>
      <trkpt lat="47.01179" lon="5.97048">
        <ele>464</ele>
        <time>2019-09-19T13:02:29Z</time>
      </trkpt>
      <trkpt lat="47.01184" lon="5.97051">
        <ele>465</ele>
        <time>2019-09-19T13:02:34Z</time>
      </trkpt>
      <trkpt lat="47.01193" lon="5.97057">
        <ele>465</ele>
        <time>2019-09-19T13:02:42Z</time>
      </trkpt>
      <trkpt lat="47.01197" lon="5.97059">
        <ele>465</ele>
        <time>2019-09-19T13:02:46Z</time>
      </trkpt>
      <trkpt lat="47.01202" lon="5.97062">
        <ele>466</ele>
        <time>2019-09-19T13:02:50Z</time>
      </trkpt>
      <trkpt lat="47.01216" lon="5.97069">
        <ele>466</ele>
        <time>2019-09-19T13:03:04Z</time>
      </trkpt>
      <trkpt lat="47.01222" lon="5.97071">
        <ele>466</ele>
        <time>2019-09-19T13:03:09Z</time>
      </trkpt>
      <trkpt lat="47.01226" lon="5.97073">
        <ele>466</ele>
        <time>2019-09-19T13:03:14Z</time>
      </trkpt>
      <trkpt lat="47.01231" lon="5.97077">
        <ele>466</ele>
        <time>2019-09-19T13:03:19Z</time>
      </trkpt>
      <trkpt lat="47.01236" lon="5.9708">
        <ele>467</ele>
        <time>2019-09-19T13:03:25Z</time>
      </trkpt>
      <trkpt lat="47.01251" lon="5.97093">
        <ele>467</ele>
        <time>2019-09-19T13:03:41Z</time>
      </trkpt>
      <trkpt lat="47.0126" lon="5.97099">
        <ele>466</ele>
        <time>2019-09-19T13:03:48Z</time>
      </trkpt>
      <trkpt lat="47.01268" lon="5.97106">
        <ele>467</ele>
        <time>2019-09-19T13:03:57Z</time>
      </trkpt>
      <trkpt lat="47.01278" lon="5.97109">
        <ele>466</ele>
        <time>2019-09-19T13:04:06Z</time>
      </trkpt>
      <trkpt lat="47.01308" lon="5.97117">
        <ele>466</ele>
        <time>2019-09-19T13:04:37Z</time>
      </trkpt>
      <trkpt lat="47.01317" lon="5.97119">
        <ele>467</ele>
        <time>2019-09-19T13:04:46Z</time>
      </trkpt>
      <trkpt lat="47.01339" lon="5.97121">
        <ele>466</ele>
        <time>2019-09-19T13:05:07Z</time>
      </trkpt>
      <trkpt lat="47.01367" lon="5.97131">
        <ele>467</ele>
        <time>2019-09-19T13:05:34Z</time>
      </trkpt>
      <trkpt lat="47.01376" lon="5.97135">
        <ele>466</ele>
        <time>2019-09-19T13:05:42Z</time>
      </trkpt>
      <trkpt lat="47.01386" lon="5.97138">
        <ele>465</ele>
        <time>2019-09-19T13:05:51Z</time>
      </trkpt>
      <trkpt lat="47.01391" lon="5.9714">
        <ele>466</ele>
        <time>2019-09-19T13:05:55Z</time>
      </trkpt>
      <trkpt lat="47.01396" lon="5.97143">
        <ele>465</ele>
        <time>2019-09-19T13:06:00Z</time>
      </trkpt>
      <trkpt lat="47.01409" lon="5.97151">
        <ele>465</ele>
        <time>2019-09-19T13:06:16Z</time>
      </trkpt>
    </trkseg>
  </trk>
</gpx>